<?xml version="1.0" encoding="UTF-8" standalone="no" ?>
<gpx xmlns="http://www.topografix.com/GPX/1/1" xmlns:xsi="http://www.w3.org/2001/XMLSchema-instance" xsi:schemaLocation="http://www.topografix.com/GPX/1/1 http://www.topografix.com/GPX/1/1/gpx.xsd" version="1.1" creator="VisuGPX - https://www.visugpx.com">
  <metadata>
    <name>La Limouzinière - St Philbert   circuit des marais</name>
    <desc><![CDATA[La Limouzinière - St Philbert   circuit des marais
Pas de chemins privé]]></desc>
  </metadata>
  <trk>
    <name><![CDATA[2014-09-07 08:56]]></name>
    <desc><![CDATA[<h1>OruxMaps</h1><br /><hr align="center" width="480" style="height: 2px; width: 517px"/><h2>Nom: 2014-09-07 08:56</h2><br /><p>Temps de départ: 09/07/2014 08:56</p><p>Temps d'arrivée: 09/07/2014 11:44</p><p>Distance: 34,5 km (02:47)</p><p>Temps déplacement: 02:19</p><p>Vitesse moyenne: 12,3 km/h</p><p>Vitesse moyenne: 14,9 km/h</p><p>Vitess Max.: 34,2 km/h</p><p>Altitude minimale: -30 m</p><p>Altitude maximale: 40 m</p><p>Vitesse d'élévation: 345,3 m/h</p><p>Vitesse de descente: -242,6 m/h</p><p>Gain Altitude: 270 m</p><p>Perte Altitude: -199 m</p><p>Temps d'élévation: 00:47</p><p>Temps de descente: 00:49</p><hr align="center" width="480" style="height: 2px; width: 517px"/>]]></desc>
    <trkseg>
      <trkpt lat="46.99468" lon="-1.5972">
        <ele>-30.97</ele>
        <time>2014-09-07T06:56:09Z</time>
      </trkpt>
      <trkpt lat="46.9947" lon="-1.59686">
        <ele>40.53</ele>
        <time>2014-09-07T06:56:12Z</time>
      </trkpt>
      <trkpt lat="46.99457" lon="-1.59705">
        <ele>25.15</ele>
        <time>2014-09-07T06:57:10Z</time>
      </trkpt>
      <trkpt lat="46.99453" lon="-1.59731">
        <ele>29.02</ele>
        <time>2014-09-07T06:58:36Z</time>
      </trkpt>
      <trkpt lat="46.99449" lon="-1.59758">
        <ele>28.04</ele>
        <time>2014-09-07T06:58:42Z</time>
      </trkpt>
      <trkpt lat="46.99449" lon="-1.59784">
        <ele>27.65</ele>
        <time>2014-09-07T06:58:47Z</time>
      </trkpt>
      <trkpt lat="46.9946" lon="-1.5981">
        <ele>27.03</ele>
        <time>2014-09-07T06:58:58Z</time>
      </trkpt>
      <trkpt lat="46.99447" lon="-1.59832">
        <ele>26.9</ele>
        <time>2014-09-07T06:59:07Z</time>
      </trkpt>
      <trkpt lat="46.99426" lon="-1.59837">
        <ele>27.01</ele>
        <time>2014-09-07T06:59:13Z</time>
      </trkpt>
      <trkpt lat="46.99428" lon="-1.59865">
        <ele>26.03</ele>
        <time>2014-09-07T06:59:21Z</time>
      </trkpt>
      <trkpt lat="46.99426" lon="-1.59893">
        <ele>25.53</ele>
        <time>2014-09-07T06:59:29Z</time>
      </trkpt>
      <trkpt lat="46.99411" lon="-1.59911">
        <ele>24.17</ele>
        <time>2014-09-07T06:59:34Z</time>
      </trkpt>
      <trkpt lat="46.99416" lon="-1.59939">
        <ele>24</ele>
        <time>2014-09-07T06:59:42Z</time>
      </trkpt>
      <trkpt lat="46.99425" lon="-1.59968">
        <ele>24.09</ele>
        <time>2014-09-07T06:59:48Z</time>
      </trkpt>
      <trkpt lat="46.99432" lon="-1.59997">
        <ele>24.96</ele>
        <time>2014-09-07T06:59:54Z</time>
      </trkpt>
      <trkpt lat="46.9944" lon="-1.60023">
        <ele>25.03</ele>
        <time>2014-09-07T07:00:00Z</time>
      </trkpt>
      <trkpt lat="46.99447" lon="-1.60049">
        <ele>25.78</ele>
        <time>2014-09-07T07:00:06Z</time>
      </trkpt>
      <trkpt lat="46.99439" lon="-1.60024">
        <ele>25.03</ele>
        <time>2014-09-07T07:09:44Z</time>
      </trkpt>
      <trkpt lat="46.99431" lon="-1.59996">
        <ele>24.28</ele>
        <time>2014-09-07T07:09:51Z</time>
      </trkpt>
      <trkpt lat="46.99425" lon="-1.59967">
        <ele>24.03</ele>
        <time>2014-09-07T07:09:57Z</time>
      </trkpt>
      <trkpt lat="46.99417" lon="-1.59939">
        <ele>23.53</ele>
        <time>2014-09-07T07:10:03Z</time>
      </trkpt>
      <trkpt lat="46.99399" lon="-1.59935">
        <ele>23.03</ele>
        <time>2014-09-07T07:10:12Z</time>
      </trkpt>
      <trkpt lat="46.99411" lon="-1.59913">
        <ele>23.96</ele>
        <time>2014-09-07T07:15:08Z</time>
      </trkpt>
      <trkpt lat="46.99425" lon="-1.59895">
        <ele>25.01</ele>
        <time>2014-09-07T07:15:16Z</time>
      </trkpt>
      <trkpt lat="46.99443" lon="-1.59892">
        <ele>26.01</ele>
        <time>2014-09-07T07:15:42Z</time>
      </trkpt>
      <trkpt lat="46.99453" lon="-1.59918">
        <ele>26.03</ele>
        <time>2014-09-07T07:15:49Z</time>
      </trkpt>
      <trkpt lat="46.99461" lon="-1.59946">
        <ele>26.03</ele>
        <time>2014-09-07T07:15:56Z</time>
      </trkpt>
      <trkpt lat="46.9946" lon="-1.59975">
        <ele>26.96</ele>
        <time>2014-09-07T07:16:03Z</time>
      </trkpt>
      <trkpt lat="46.99466" lon="-1.60003">
        <ele>27.53</ele>
        <time>2014-09-07T07:16:10Z</time>
      </trkpt>
      <trkpt lat="46.99484" lon="-1.60009">
        <ele>27.94</ele>
        <time>2014-09-07T07:16:17Z</time>
      </trkpt>
      <trkpt lat="46.99489" lon="-1.60039">
        <ele>27.03</ele>
        <time>2014-09-07T07:16:24Z</time>
      </trkpt>
      <trkpt lat="46.9949" lon="-1.60065">
        <ele>26.15</ele>
        <time>2014-09-07T07:16:30Z</time>
      </trkpt>
      <trkpt lat="46.9949" lon="-1.60093">
        <ele>25.28</ele>
        <time>2014-09-07T07:16:36Z</time>
      </trkpt>
      <trkpt lat="46.99497" lon="-1.60119">
        <ele>26.76</ele>
        <time>2014-09-07T07:16:42Z</time>
      </trkpt>
      <trkpt lat="46.99509" lon="-1.6014">
        <ele>27.02</ele>
        <time>2014-09-07T07:16:48Z</time>
      </trkpt>
      <trkpt lat="46.99528" lon="-1.6013">
        <ele>27.03</ele>
        <time>2014-09-07T07:16:54Z</time>
      </trkpt>
      <trkpt lat="46.99539" lon="-1.60154">
        <ele>27.03</ele>
        <time>2014-09-07T07:17:05Z</time>
      </trkpt>
      <trkpt lat="46.99547" lon="-1.6018">
        <ele>28.02</ele>
        <time>2014-09-07T07:17:12Z</time>
      </trkpt>
      <trkpt lat="46.99556" lon="-1.60203">
        <ele>28.09</ele>
        <time>2014-09-07T07:17:19Z</time>
      </trkpt>
      <trkpt lat="46.99565" lon="-1.60228">
        <ele>28.98</ele>
        <time>2014-09-07T07:17:27Z</time>
      </trkpt>
      <trkpt lat="46.99573" lon="-1.60253">
        <ele>29.03</ele>
        <time>2014-09-07T07:17:35Z</time>
      </trkpt>
      <trkpt lat="46.99581" lon="-1.60277">
        <ele>29.96</ele>
        <time>2014-09-07T07:17:42Z</time>
      </trkpt>
      <trkpt lat="46.99591" lon="-1.60302">
        <ele>30.03</ele>
        <time>2014-09-07T07:17:49Z</time>
      </trkpt>
      <trkpt lat="46.99609" lon="-1.60291">
        <ele>30.03</ele>
        <time>2014-09-07T07:17:56Z</time>
      </trkpt>
      <trkpt lat="46.99626" lon="-1.60277">
        <ele>30.03</ele>
        <time>2014-09-07T07:18:03Z</time>
      </trkpt>
      <trkpt lat="46.99643" lon="-1.60264">
        <ele>30.03</ele>
        <time>2014-09-07T07:18:09Z</time>
      </trkpt>
      <trkpt lat="46.99659" lon="-1.60251">
        <ele>30.03</ele>
        <time>2014-09-07T07:18:15Z</time>
      </trkpt>
      <trkpt lat="46.99676" lon="-1.60266">
        <ele>30.99</ele>
        <time>2014-09-07T07:18:27Z</time>
      </trkpt>
      <trkpt lat="46.99685" lon="-1.60291">
        <ele>31.65</ele>
        <time>2014-09-07T07:18:34Z</time>
      </trkpt>
      <trkpt lat="46.99693" lon="-1.60316">
        <ele>32.02</ele>
        <time>2014-09-07T07:18:41Z</time>
      </trkpt>
      <trkpt lat="46.99709" lon="-1.60329">
        <ele>32.14</ele>
        <time>2014-09-07T07:18:49Z</time>
      </trkpt>
      <trkpt lat="46.99728" lon="-1.60317">
        <ele>31.04</ele>
        <time>2014-09-07T07:18:55Z</time>
      </trkpt>
      <trkpt lat="46.99746" lon="-1.60309">
        <ele>30.34</ele>
        <time>2014-09-07T07:19:00Z</time>
      </trkpt>
      <trkpt lat="46.99764" lon="-1.60312">
        <ele>30.04</ele>
        <time>2014-09-07T07:19:05Z</time>
      </trkpt>
      <trkpt lat="46.99783" lon="-1.60319">
        <ele>30.03</ele>
        <time>2014-09-07T07:19:12Z</time>
      </trkpt>
      <trkpt lat="46.99792" lon="-1.60344">
        <ele>30.78</ele>
        <time>2014-09-07T07:19:18Z</time>
      </trkpt>
      <trkpt lat="46.99802" lon="-1.60372">
        <ele>31.02</ele>
        <time>2014-09-07T07:19:24Z</time>
      </trkpt>
      <trkpt lat="46.99811" lon="-1.60395">
        <ele>31.96</ele>
        <time>2014-09-07T07:19:29Z</time>
      </trkpt>
      <trkpt lat="46.99823" lon="-1.6042">
        <ele>32.03</ele>
        <time>2014-09-07T07:19:35Z</time>
      </trkpt>
      <trkpt lat="46.99834" lon="-1.60446">
        <ele>32.03</ele>
        <time>2014-09-07T07:19:41Z</time>
      </trkpt>
      <trkpt lat="46.99848" lon="-1.60463">
        <ele>32.09</ele>
        <time>2014-09-07T07:19:46Z</time>
      </trkpt>
      <trkpt lat="46.99866" lon="-1.60476">
        <ele>32.03</ele>
        <time>2014-09-07T07:19:51Z</time>
      </trkpt>
      <trkpt lat="46.99884" lon="-1.60493">
        <ele>31.04</ele>
        <time>2014-09-07T07:19:57Z</time>
      </trkpt>
      <trkpt lat="46.99901" lon="-1.60511">
        <ele>31.03</ele>
        <time>2014-09-07T07:20:03Z</time>
      </trkpt>
      <trkpt lat="46.99916" lon="-1.60527">
        <ele>30.21</ele>
        <time>2014-09-07T07:20:09Z</time>
      </trkpt>
      <trkpt lat="46.99937" lon="-1.60535">
        <ele>30.03</ele>
        <time>2014-09-07T07:20:16Z</time>
      </trkpt>
      <trkpt lat="46.99955" lon="-1.60524">
        <ele>30.03</ele>
        <time>2014-09-07T07:20:22Z</time>
      </trkpt>
      <trkpt lat="46.99967" lon="-1.60503">
        <ele>30.53</ele>
        <time>2014-09-07T07:20:28Z</time>
      </trkpt>
      <trkpt lat="46.9998" lon="-1.60484">
        <ele>30.1</ele>
        <time>2014-09-07T07:20:34Z</time>
      </trkpt>
      <trkpt lat="46.99994" lon="-1.60464">
        <ele>29.56</ele>
        <time>2014-09-07T07:20:40Z</time>
      </trkpt>
      <trkpt lat="47.00007" lon="-1.60443">
        <ele>29.14</ele>
        <time>2014-09-07T07:20:46Z</time>
      </trkpt>
      <trkpt lat="47.00026" lon="-1.60438">
        <ele>28.75</ele>
        <time>2014-09-07T07:20:53Z</time>
      </trkpt>
      <trkpt lat="47.00045" lon="-1.60426">
        <ele>27.47</ele>
        <time>2014-09-07T07:20:59Z</time>
      </trkpt>
      <trkpt lat="47.00062" lon="-1.60414">
        <ele>26.54</ele>
        <time>2014-09-07T07:21:04Z</time>
      </trkpt>
      <trkpt lat="47.00079" lon="-1.60402">
        <ele>25.54</ele>
        <time>2014-09-07T07:21:09Z</time>
      </trkpt>
      <trkpt lat="47.00097" lon="-1.60387">
        <ele>25.03</ele>
        <time>2014-09-07T07:21:15Z</time>
      </trkpt>
      <trkpt lat="47.00113" lon="-1.60375">
        <ele>25.28</ele>
        <time>2014-09-07T07:21:20Z</time>
      </trkpt>
      <trkpt lat="47.00129" lon="-1.60362">
        <ele>25.13</ele>
        <time>2014-09-07T07:21:25Z</time>
      </trkpt>
      <trkpt lat="47.00145" lon="-1.60349">
        <ele>25.03</ele>
        <time>2014-09-07T07:21:30Z</time>
      </trkpt>
      <trkpt lat="47.00162" lon="-1.60332">
        <ele>24.53</ele>
        <time>2014-09-07T07:21:36Z</time>
      </trkpt>
      <trkpt lat="47.00155" lon="-1.60304">
        <ele>24.03</ele>
        <time>2014-09-07T07:21:42Z</time>
      </trkpt>
      <trkpt lat="47.00169" lon="-1.60286">
        <ele>23.06</ele>
        <time>2014-09-07T07:21:49Z</time>
      </trkpt>
      <trkpt lat="47.00188" lon="-1.60269">
        <ele>22.06</ele>
        <time>2014-09-07T07:21:54Z</time>
      </trkpt>
      <trkpt lat="47.00206" lon="-1.60257">
        <ele>21.15</ele>
        <time>2014-09-07T07:21:59Z</time>
      </trkpt>
      <trkpt lat="47.00219" lon="-1.60276">
        <ele>21.03</ele>
        <time>2014-09-07T07:22:05Z</time>
      </trkpt>
      <trkpt lat="47.00231" lon="-1.60297">
        <ele>21.03</ele>
        <time>2014-09-07T07:22:11Z</time>
      </trkpt>
      <trkpt lat="47.00252" lon="-1.60292">
        <ele>21.03</ele>
        <time>2014-09-07T07:22:17Z</time>
      </trkpt>
      <trkpt lat="47.00267" lon="-1.60278">
        <ele>20.09</ele>
        <time>2014-09-07T07:22:22Z</time>
      </trkpt>
      <trkpt lat="47.00275" lon="-1.60253">
        <ele>19.28</ele>
        <time>2014-09-07T07:22:29Z</time>
      </trkpt>
      <trkpt lat="47.00274" lon="-1.60223">
        <ele>19.03</ele>
        <time>2014-09-07T07:22:36Z</time>
      </trkpt>
      <trkpt lat="47.00276" lon="-1.60194">
        <ele>18.59</ele>
        <time>2014-09-07T07:22:41Z</time>
      </trkpt>
      <trkpt lat="47.00281" lon="-1.60164">
        <ele>18.14</ele>
        <time>2014-09-07T07:22:46Z</time>
      </trkpt>
      <trkpt lat="47.00286" lon="-1.60138">
        <ele>18.03</ele>
        <time>2014-09-07T07:22:50Z</time>
      </trkpt>
      <trkpt lat="47.0029" lon="-1.60107">
        <ele>17.15</ele>
        <time>2014-09-07T07:22:55Z</time>
      </trkpt>
      <trkpt lat="47.00292" lon="-1.60076">
        <ele>17.9</ele>
        <time>2014-09-07T07:23:00Z</time>
      </trkpt>
      <trkpt lat="47.0029" lon="-1.60045">
        <ele>18.02</ele>
        <time>2014-09-07T07:23:05Z</time>
      </trkpt>
      <trkpt lat="47.00289" lon="-1.60014">
        <ele>18.03</ele>
        <time>2014-09-07T07:23:10Z</time>
      </trkpt>
      <trkpt lat="47.00285" lon="-1.59984">
        <ele>18.62</ele>
        <time>2014-09-07T07:23:15Z</time>
      </trkpt>
      <trkpt lat="47.00278" lon="-1.59956">
        <ele>19.01</ele>
        <time>2014-09-07T07:23:20Z</time>
      </trkpt>
      <trkpt lat="47.00272" lon="-1.59928">
        <ele>19.03</ele>
        <time>2014-09-07T07:23:25Z</time>
      </trkpt>
      <trkpt lat="47.00266" lon="-1.59899">
        <ele>19.03</ele>
        <time>2014-09-07T07:23:30Z</time>
      </trkpt>
      <trkpt lat="47.00259" lon="-1.5987">
        <ele>19.43</ele>
        <time>2014-09-07T07:23:35Z</time>
      </trkpt>
      <trkpt lat="47.00253" lon="-1.59841">
        <ele>19.04</ele>
        <time>2014-09-07T07:23:40Z</time>
      </trkpt>
      <trkpt lat="47.00249" lon="-1.59811">
        <ele>19.03</ele>
        <time>2014-09-07T07:23:45Z</time>
      </trkpt>
      <trkpt lat="47.00247" lon="-1.5978">
        <ele>19.03</ele>
        <time>2014-09-07T07:23:50Z</time>
      </trkpt>
      <trkpt lat="47.00245" lon="-1.5975">
        <ele>19.03</ele>
        <time>2014-09-07T07:23:55Z</time>
      </trkpt>
      <trkpt lat="47.00245" lon="-1.59721">
        <ele>19.03</ele>
        <time>2014-09-07T07:24:01Z</time>
      </trkpt>
      <trkpt lat="47.00266" lon="-1.59718">
        <ele>20.01</ele>
        <time>2014-09-07T07:24:08Z</time>
      </trkpt>
      <trkpt lat="47.00286" lon="-1.59721">
        <ele>20.96</ele>
        <time>2014-09-07T07:24:13Z</time>
      </trkpt>
      <trkpt lat="47.00307" lon="-1.59719">
        <ele>20.06</ele>
        <time>2014-09-07T07:24:18Z</time>
      </trkpt>
      <trkpt lat="47.00331" lon="-1.59714">
        <ele>20.03</ele>
        <time>2014-09-07T07:24:23Z</time>
      </trkpt>
      <trkpt lat="47.00349" lon="-1.59711">
        <ele>20.03</ele>
        <time>2014-09-07T07:24:27Z</time>
      </trkpt>
      <trkpt lat="47.00369" lon="-1.59709">
        <ele>20.03</ele>
        <time>2014-09-07T07:24:31Z</time>
      </trkpt>
      <trkpt lat="47.00387" lon="-1.59712">
        <ele>20.03</ele>
        <time>2014-09-07T07:24:35Z</time>
      </trkpt>
      <trkpt lat="47.00404" lon="-1.59724">
        <ele>19.15</ele>
        <time>2014-09-07T07:24:39Z</time>
      </trkpt>
      <trkpt lat="47.00419" lon="-1.59741">
        <ele>19.78</ele>
        <time>2014-09-07T07:24:43Z</time>
      </trkpt>
      <trkpt lat="47.00431" lon="-1.59763">
        <ele>20.01</ele>
        <time>2014-09-07T07:24:47Z</time>
      </trkpt>
      <trkpt lat="47.00444" lon="-1.59787">
        <ele>19.15</ele>
        <time>2014-09-07T07:24:51Z</time>
      </trkpt>
      <trkpt lat="47.00456" lon="-1.59812">
        <ele>18.22</ele>
        <time>2014-09-07T07:24:55Z</time>
      </trkpt>
      <trkpt lat="47.00468" lon="-1.59838">
        <ele>18.04</ele>
        <time>2014-09-07T07:24:59Z</time>
      </trkpt>
      <trkpt lat="47.0048" lon="-1.59865">
        <ele>18.21</ele>
        <time>2014-09-07T07:25:03Z</time>
      </trkpt>
      <trkpt lat="47.00494" lon="-1.5989">
        <ele>17.54</ele>
        <time>2014-09-07T07:25:07Z</time>
      </trkpt>
      <trkpt lat="47.00505" lon="-1.59914">
        <ele>16.31</ele>
        <time>2014-09-07T07:25:11Z</time>
      </trkpt>
      <trkpt lat="47.00516" lon="-1.59938">
        <ele>16.04</ele>
        <time>2014-09-07T07:25:15Z</time>
      </trkpt>
      <trkpt lat="47.00528" lon="-1.59961">
        <ele>15.15</ele>
        <time>2014-09-07T07:25:19Z</time>
      </trkpt>
      <trkpt lat="47.00538" lon="-1.59983">
        <ele>15.91</ele>
        <time>2014-09-07T07:25:23Z</time>
      </trkpt>
      <trkpt lat="47.00549" lon="-1.60004">
        <ele>16.02</ele>
        <time>2014-09-07T07:25:27Z</time>
      </trkpt>
      <trkpt lat="47.0056" lon="-1.60026">
        <ele>16.03</ele>
        <time>2014-09-07T07:25:31Z</time>
      </trkpt>
      <trkpt lat="47.00572" lon="-1.60052">
        <ele>16.03</ele>
        <time>2014-09-07T07:25:36Z</time>
      </trkpt>
      <trkpt lat="47.00584" lon="-1.60077">
        <ele>15.99</ele>
        <time>2014-09-07T07:25:41Z</time>
      </trkpt>
      <trkpt lat="47.00594" lon="-1.601">
        <ele>15.12</ele>
        <time>2014-09-07T07:25:46Z</time>
      </trkpt>
      <trkpt lat="47.00606" lon="-1.60121">
        <ele>15.78</ele>
        <time>2014-09-07T07:25:51Z</time>
      </trkpt>
      <trkpt lat="47.00618" lon="-1.60145">
        <ele>16.02</ele>
        <time>2014-09-07T07:25:56Z</time>
      </trkpt>
      <trkpt lat="47.00631" lon="-1.60167">
        <ele>17.28</ele>
        <time>2014-09-07T07:26:01Z</time>
      </trkpt>
      <trkpt lat="47.00646" lon="-1.60185">
        <ele>18.66</ele>
        <time>2014-09-07T07:26:06Z</time>
      </trkpt>
      <trkpt lat="47.00663" lon="-1.60199">
        <ele>19.89</ele>
        <time>2014-09-07T07:26:11Z</time>
      </trkpt>
      <trkpt lat="47.0068" lon="-1.60212">
        <ele>20.63</ele>
        <time>2014-09-07T07:26:17Z</time>
      </trkpt>
      <trkpt lat="47.00698" lon="-1.60224">
        <ele>22.52</ele>
        <time>2014-09-07T07:26:23Z</time>
      </trkpt>
      <trkpt lat="47.00716" lon="-1.60235">
        <ele>24.01</ele>
        <time>2014-09-07T07:26:30Z</time>
      </trkpt>
      <trkpt lat="47.00733" lon="-1.60248">
        <ele>26.06</ele>
        <time>2014-09-07T07:26:37Z</time>
      </trkpt>
      <trkpt lat="47.00749" lon="-1.60262">
        <ele>26.04</ele>
        <time>2014-09-07T07:26:43Z</time>
      </trkpt>
      <trkpt lat="47.00767" lon="-1.60277">
        <ele>27.01</ele>
        <time>2014-09-07T07:26:49Z</time>
      </trkpt>
      <trkpt lat="47.00786" lon="-1.60291">
        <ele>25.34</ele>
        <time>2014-09-07T07:26:55Z</time>
      </trkpt>
      <trkpt lat="47.00804" lon="-1.60302">
        <ele>25.13</ele>
        <time>2014-09-07T07:27:00Z</time>
      </trkpt>
      <trkpt lat="47.00823" lon="-1.60316">
        <ele>25.03</ele>
        <time>2014-09-07T07:27:05Z</time>
      </trkpt>
      <trkpt lat="47.0084" lon="-1.60331">
        <ele>24.53</ele>
        <time>2014-09-07T07:27:10Z</time>
      </trkpt>
      <trkpt lat="47.00858" lon="-1.60346">
        <ele>24.79</ele>
        <time>2014-09-07T07:27:15Z</time>
      </trkpt>
      <trkpt lat="47.00875" lon="-1.60359">
        <ele>24.92</ele>
        <time>2014-09-07T07:27:20Z</time>
      </trkpt>
      <trkpt lat="47.00893" lon="-1.60372">
        <ele>24.15</ele>
        <time>2014-09-07T07:27:25Z</time>
      </trkpt>
      <trkpt lat="47.00909" lon="-1.60384">
        <ele>24.03</ele>
        <time>2014-09-07T07:27:30Z</time>
      </trkpt>
      <trkpt lat="47.00926" lon="-1.60396">
        <ele>24.9</ele>
        <time>2014-09-07T07:27:35Z</time>
      </trkpt>
      <trkpt lat="47.00942" lon="-1.60409">
        <ele>25.02</ele>
        <time>2014-09-07T07:27:40Z</time>
      </trkpt>
      <trkpt lat="47.00961" lon="-1.60423">
        <ele>25.03</ele>
        <time>2014-09-07T07:27:46Z</time>
      </trkpt>
      <trkpt lat="47.00978" lon="-1.60432">
        <ele>25.03</ele>
        <time>2014-09-07T07:27:51Z</time>
      </trkpt>
      <trkpt lat="47.00997" lon="-1.6044">
        <ele>26.74</ele>
        <time>2014-09-07T07:27:57Z</time>
      </trkpt>
      <trkpt lat="47.01004" lon="-1.60466">
        <ele>27.02</ele>
        <time>2014-09-07T07:28:05Z</time>
      </trkpt>
      <trkpt lat="47.01007" lon="-1.60495">
        <ele>28.76</ele>
        <time>2014-09-07T07:28:11Z</time>
      </trkpt>
      <trkpt lat="47.01015" lon="-1.60525">
        <ele>29.99</ele>
        <time>2014-09-07T07:28:17Z</time>
      </trkpt>
      <trkpt lat="47.01024" lon="-1.6055">
        <ele>29.27</ele>
        <time>2014-09-07T07:28:22Z</time>
      </trkpt>
      <trkpt lat="47.01033" lon="-1.60576">
        <ele>28.53</ele>
        <time>2014-09-07T07:28:27Z</time>
      </trkpt>
      <trkpt lat="47.01043" lon="-1.60603">
        <ele>28.48</ele>
        <time>2014-09-07T07:28:32Z</time>
      </trkpt>
      <trkpt lat="47.01052" lon="-1.6063">
        <ele>28.13</ele>
        <time>2014-09-07T07:28:37Z</time>
      </trkpt>
      <trkpt lat="47.0106" lon="-1.60657">
        <ele>28.03</ele>
        <time>2014-09-07T07:28:42Z</time>
      </trkpt>
      <trkpt lat="47.01067" lon="-1.60686">
        <ele>27.93</ele>
        <time>2014-09-07T07:28:47Z</time>
      </trkpt>
      <trkpt lat="47.01073" lon="-1.60715">
        <ele>28.02</ele>
        <time>2014-09-07T07:28:52Z</time>
      </trkpt>
      <trkpt lat="47.01079" lon="-1.60742">
        <ele>28.28</ele>
        <time>2014-09-07T07:28:57Z</time>
      </trkpt>
      <trkpt lat="47.01086" lon="-1.60769">
        <ele>28.63</ele>
        <time>2014-09-07T07:29:02Z</time>
      </trkpt>
      <trkpt lat="47.01094" lon="-1.60794">
        <ele>29.51</ele>
        <time>2014-09-07T07:29:07Z</time>
      </trkpt>
      <trkpt lat="47.01104" lon="-1.60819">
        <ele>30.95</ele>
        <time>2014-09-07T07:29:12Z</time>
      </trkpt>
      <trkpt lat="47.01114" lon="-1.60841">
        <ele>30.99</ele>
        <time>2014-09-07T07:29:17Z</time>
      </trkpt>
      <trkpt lat="47.01126" lon="-1.60868">
        <ele>31.96</ele>
        <time>2014-09-07T07:29:23Z</time>
      </trkpt>
      <trkpt lat="47.01135" lon="-1.6089">
        <ele>32.52</ele>
        <time>2014-09-07T07:29:28Z</time>
      </trkpt>
      <trkpt lat="47.01143" lon="-1.60919">
        <ele>32.33</ele>
        <time>2014-09-07T07:29:34Z</time>
      </trkpt>
      <trkpt lat="47.01153" lon="-1.60946">
        <ele>32.77</ele>
        <time>2014-09-07T07:29:40Z</time>
      </trkpt>
      <trkpt lat="47.01162" lon="-1.6097">
        <ele>32.04</ele>
        <time>2014-09-07T07:29:46Z</time>
      </trkpt>
      <trkpt lat="47.01181" lon="-1.60973">
        <ele>33.01</ele>
        <time>2014-09-07T07:29:52Z</time>
      </trkpt>
      <trkpt lat="47.01198" lon="-1.60985">
        <ele>32.79</ele>
        <time>2014-09-07T07:29:58Z</time>
      </trkpt>
      <trkpt lat="47.01215" lon="-1.60995">
        <ele>32.15</ele>
        <time>2014-09-07T07:30:04Z</time>
      </trkpt>
      <trkpt lat="47.01234" lon="-1.61001">
        <ele>32.03</ele>
        <time>2014-09-07T07:30:10Z</time>
      </trkpt>
      <trkpt lat="47.01253" lon="-1.61007">
        <ele>33.74</ele>
        <time>2014-09-07T07:30:16Z</time>
      </trkpt>
      <trkpt lat="47.01271" lon="-1.61011">
        <ele>34.02</ele>
        <time>2014-09-07T07:30:21Z</time>
      </trkpt>
      <trkpt lat="47.01295" lon="-1.61016">
        <ele>33.09</ele>
        <time>2014-09-07T07:30:26Z</time>
      </trkpt>
      <trkpt lat="47.01314" lon="-1.61023">
        <ele>33.03</ele>
        <time>2014-09-07T07:30:30Z</time>
      </trkpt>
      <trkpt lat="47.01334" lon="-1.61032">
        <ele>32.4</ele>
        <time>2014-09-07T07:30:34Z</time>
      </trkpt>
      <trkpt lat="47.01351" lon="-1.61043">
        <ele>32.99</ele>
        <time>2014-09-07T07:30:38Z</time>
      </trkpt>
      <trkpt lat="47.01368" lon="-1.61058">
        <ele>32.09</ele>
        <time>2014-09-07T07:30:42Z</time>
      </trkpt>
      <trkpt lat="47.01381" lon="-1.61077">
        <ele>31.53</ele>
        <time>2014-09-07T07:30:46Z</time>
      </trkpt>
      <trkpt lat="47.01392" lon="-1.61099">
        <ele>30.68</ele>
        <time>2014-09-07T07:30:50Z</time>
      </trkpt>
      <trkpt lat="47.01406" lon="-1.61124">
        <ele>31.02</ele>
        <time>2014-09-07T07:30:55Z</time>
      </trkpt>
      <trkpt lat="47.01419" lon="-1.61144">
        <ele>30.53</ele>
        <time>2014-09-07T07:30:59Z</time>
      </trkpt>
      <trkpt lat="47.01432" lon="-1.61163">
        <ele>30.49</ele>
        <time>2014-09-07T07:31:03Z</time>
      </trkpt>
      <trkpt lat="47.01448" lon="-1.61186">
        <ele>30.07</ele>
        <time>2014-09-07T07:31:08Z</time>
      </trkpt>
      <trkpt lat="47.01463" lon="-1.61205">
        <ele>30.03</ele>
        <time>2014-09-07T07:31:13Z</time>
      </trkpt>
      <trkpt lat="47.01481" lon="-1.61222">
        <ele>29.9</ele>
        <time>2014-09-07T07:31:19Z</time>
      </trkpt>
      <trkpt lat="47.01495" lon="-1.61239">
        <ele>29.77</ele>
        <time>2014-09-07T07:31:23Z</time>
      </trkpt>
      <trkpt lat="47.0151" lon="-1.61258">
        <ele>29.07</ele>
        <time>2014-09-07T07:31:27Z</time>
      </trkpt>
      <trkpt lat="47.01524" lon="-1.61276">
        <ele>29.03</ele>
        <time>2014-09-07T07:31:31Z</time>
      </trkpt>
      <trkpt lat="47.01539" lon="-1.61296">
        <ele>29.96</ele>
        <time>2014-09-07T07:31:36Z</time>
      </trkpt>
      <trkpt lat="47.01556" lon="-1.61317">
        <ele>30.02</ele>
        <time>2014-09-07T07:31:41Z</time>
      </trkpt>
      <trkpt lat="47.0157" lon="-1.61335">
        <ele>30.03</ele>
        <time>2014-09-07T07:31:45Z</time>
      </trkpt>
      <trkpt lat="47.01585" lon="-1.61355">
        <ele>30.53</ele>
        <time>2014-09-07T07:31:50Z</time>
      </trkpt>
      <trkpt lat="47.01597" lon="-1.61379">
        <ele>30.76</ele>
        <time>2014-09-07T07:31:55Z</time>
      </trkpt>
      <trkpt lat="47.01607" lon="-1.61402">
        <ele>30.07</ele>
        <time>2014-09-07T07:31:59Z</time>
      </trkpt>
      <trkpt lat="47.01618" lon="-1.61427">
        <ele>29.53</ele>
        <time>2014-09-07T07:32:03Z</time>
      </trkpt>
      <trkpt lat="47.01632" lon="-1.61452">
        <ele>29.06</ele>
        <time>2014-09-07T07:32:07Z</time>
      </trkpt>
      <trkpt lat="47.0165" lon="-1.61471">
        <ele>28.28</ele>
        <time>2014-09-07T07:32:11Z</time>
      </trkpt>
      <trkpt lat="47.0167" lon="-1.61484">
        <ele>29.23</ele>
        <time>2014-09-07T07:32:15Z</time>
      </trkpt>
      <trkpt lat="47.01692" lon="-1.61496">
        <ele>29.73</ele>
        <time>2014-09-07T07:32:19Z</time>
      </trkpt>
      <trkpt lat="47.01709" lon="-1.61514">
        <ele>28.42</ele>
        <time>2014-09-07T07:32:24Z</time>
      </trkpt>
      <trkpt lat="47.01724" lon="-1.61532">
        <ele>26.68</ele>
        <time>2014-09-07T07:32:28Z</time>
      </trkpt>
      <trkpt lat="47.0174" lon="-1.61549">
        <ele>23.75</ele>
        <time>2014-09-07T07:32:32Z</time>
      </trkpt>
      <trkpt lat="47.01724" lon="-1.61531">
        <ele>23.03</ele>
        <time>2014-09-07T07:32:58Z</time>
      </trkpt>
      <trkpt lat="47.01712" lon="-1.61509">
        <ele>23.03</ele>
        <time>2014-09-07T07:33:03Z</time>
      </trkpt>
      <trkpt lat="47.01717" lon="-1.61482">
        <ele>22.65</ele>
        <time>2014-09-07T07:33:08Z</time>
      </trkpt>
      <trkpt lat="47.01722" lon="-1.61455">
        <ele>23.52</ele>
        <time>2014-09-07T07:33:14Z</time>
      </trkpt>
      <trkpt lat="47.01731" lon="-1.6143">
        <ele>22.16</ele>
        <time>2014-09-07T07:33:20Z</time>
      </trkpt>
      <trkpt lat="47.0175" lon="-1.61417">
        <ele>22.03</ele>
        <time>2014-09-07T07:33:25Z</time>
      </trkpt>
      <trkpt lat="47.0177" lon="-1.61407">
        <ele>22.03</ele>
        <time>2014-09-07T07:33:30Z</time>
      </trkpt>
      <trkpt lat="47.01791" lon="-1.614">
        <ele>21.62</ele>
        <time>2014-09-07T07:33:35Z</time>
      </trkpt>
      <trkpt lat="47.01807" lon="-1.6139">
        <ele>21.06</ele>
        <time>2014-09-07T07:33:39Z</time>
      </trkpt>
      <trkpt lat="47.01825" lon="-1.61379">
        <ele>20.28</ele>
        <time>2014-09-07T07:33:43Z</time>
      </trkpt>
      <trkpt lat="47.01843" lon="-1.61366">
        <ele>20.04</ele>
        <time>2014-09-07T07:33:47Z</time>
      </trkpt>
      <trkpt lat="47.01859" lon="-1.61352">
        <ele>20.03</ele>
        <time>2014-09-07T07:33:51Z</time>
      </trkpt>
      <trkpt lat="47.01876" lon="-1.61338">
        <ele>20.03</ele>
        <time>2014-09-07T07:33:55Z</time>
      </trkpt>
      <trkpt lat="47.01893" lon="-1.61324">
        <ele>20.03</ele>
        <time>2014-09-07T07:33:59Z</time>
      </trkpt>
      <trkpt lat="47.01908" lon="-1.61305">
        <ele>20.53</ele>
        <time>2014-09-07T07:34:03Z</time>
      </trkpt>
      <trkpt lat="47.01923" lon="-1.61285">
        <ele>20.06</ele>
        <time>2014-09-07T07:34:07Z</time>
      </trkpt>
      <trkpt lat="47.01939" lon="-1.61262">
        <ele>20.03</ele>
        <time>2014-09-07T07:34:11Z</time>
      </trkpt>
      <trkpt lat="47.01955" lon="-1.61242">
        <ele>19.09</ele>
        <time>2014-09-07T07:34:15Z</time>
      </trkpt>
      <trkpt lat="47.01973" lon="-1.61224">
        <ele>19.03</ele>
        <time>2014-09-07T07:34:19Z</time>
      </trkpt>
      <trkpt lat="47.01992" lon="-1.61209">
        <ele>19.28</ele>
        <time>2014-09-07T07:34:23Z</time>
      </trkpt>
      <trkpt lat="47.02012" lon="-1.61203">
        <ele>19.98</ele>
        <time>2014-09-07T07:34:27Z</time>
      </trkpt>
      <trkpt lat="47.02033" lon="-1.61203">
        <ele>19.84</ele>
        <time>2014-09-07T07:34:31Z</time>
      </trkpt>
      <trkpt lat="47.02055" lon="-1.61205">
        <ele>20.01</ele>
        <time>2014-09-07T07:34:35Z</time>
      </trkpt>
      <trkpt lat="47.02077" lon="-1.61206">
        <ele>20.03</ele>
        <time>2014-09-07T07:34:39Z</time>
      </trkpt>
      <trkpt lat="47.02097" lon="-1.61202">
        <ele>19.15</ele>
        <time>2014-09-07T07:34:43Z</time>
      </trkpt>
      <trkpt lat="47.02118" lon="-1.61194">
        <ele>19.03</ele>
        <time>2014-09-07T07:34:47Z</time>
      </trkpt>
      <trkpt lat="47.02138" lon="-1.61185">
        <ele>18.9</ele>
        <time>2014-09-07T07:34:51Z</time>
      </trkpt>
      <trkpt lat="47.02157" lon="-1.61176">
        <ele>18.52</ele>
        <time>2014-09-07T07:34:55Z</time>
      </trkpt>
      <trkpt lat="47.02178" lon="-1.61179">
        <ele>19.01</ele>
        <time>2014-09-07T07:35:00Z</time>
      </trkpt>
      <trkpt lat="47.02194" lon="-1.6119">
        <ele>18.53</ele>
        <time>2014-09-07T07:35:04Z</time>
      </trkpt>
      <trkpt lat="47.02213" lon="-1.61194">
        <ele>18.06</ele>
        <time>2014-09-07T07:35:08Z</time>
      </trkpt>
      <trkpt lat="47.02233" lon="-1.61189">
        <ele>18.9</ele>
        <time>2014-09-07T07:35:13Z</time>
      </trkpt>
      <trkpt lat="47.0225" lon="-1.6117">
        <ele>18.15</ele>
        <time>2014-09-07T07:35:18Z</time>
      </trkpt>
      <trkpt lat="47.02268" lon="-1.61152">
        <ele>18.53</ele>
        <time>2014-09-07T07:35:23Z</time>
      </trkpt>
      <trkpt lat="47.02289" lon="-1.61141">
        <ele>19.89</ele>
        <time>2014-09-07T07:35:28Z</time>
      </trkpt>
      <trkpt lat="47.02311" lon="-1.61137">
        <ele>20.49</ele>
        <time>2014-09-07T07:35:33Z</time>
      </trkpt>
      <trkpt lat="47.02331" lon="-1.61129">
        <ele>20.79</ele>
        <time>2014-09-07T07:35:38Z</time>
      </trkpt>
      <trkpt lat="47.02347" lon="-1.61107">
        <ele>20.14</ele>
        <time>2014-09-07T07:35:43Z</time>
      </trkpt>
      <trkpt lat="47.02358" lon="-1.61085">
        <ele>20</ele>
        <time>2014-09-07T07:35:51Z</time>
      </trkpt>
      <trkpt lat="47.02373" lon="-1.61065">
        <ele>20.03</ele>
        <time>2014-09-07T07:35:59Z</time>
      </trkpt>
      <trkpt lat="47.02386" lon="-1.61043">
        <ele>20.03</ele>
        <time>2014-09-07T07:36:04Z</time>
      </trkpt>
      <trkpt lat="47.02399" lon="-1.61023">
        <ele>20.03</ele>
        <time>2014-09-07T07:36:09Z</time>
      </trkpt>
      <trkpt lat="47.02411" lon="-1.61004">
        <ele>20.03</ele>
        <time>2014-09-07T07:36:14Z</time>
      </trkpt>
      <trkpt lat="47.02426" lon="-1.60982">
        <ele>20.9</ele>
        <time>2014-09-07T07:36:20Z</time>
      </trkpt>
      <trkpt lat="47.02441" lon="-1.60962">
        <ele>21.02</ele>
        <time>2014-09-07T07:36:26Z</time>
      </trkpt>
      <trkpt lat="47.02459" lon="-1.60947">
        <ele>21.03</ele>
        <time>2014-09-07T07:36:32Z</time>
      </trkpt>
      <trkpt lat="47.02479" lon="-1.60942">
        <ele>21.03</ele>
        <time>2014-09-07T07:36:38Z</time>
      </trkpt>
      <trkpt lat="47.02499" lon="-1.60937">
        <ele>22.01</ele>
        <time>2014-09-07T07:36:44Z</time>
      </trkpt>
      <trkpt lat="47.0252" lon="-1.60939">
        <ele>22.99</ele>
        <time>2014-09-07T07:36:50Z</time>
      </trkpt>
      <trkpt lat="47.02539" lon="-1.60944">
        <ele>23.03</ele>
        <time>2014-09-07T07:36:56Z</time>
      </trkpt>
      <trkpt lat="47.02559" lon="-1.6095">
        <ele>24.49</ele>
        <time>2014-09-07T07:37:02Z</time>
      </trkpt>
      <trkpt lat="47.02577" lon="-1.60962">
        <ele>23.52</ele>
        <time>2014-09-07T07:37:08Z</time>
      </trkpt>
      <trkpt lat="47.02593" lon="-1.60977">
        <ele>22.54</ele>
        <time>2014-09-07T07:37:13Z</time>
      </trkpt>
      <trkpt lat="47.02602" lon="-1.61002">
        <ele>22.04</ele>
        <time>2014-09-07T07:37:18Z</time>
      </trkpt>
      <trkpt lat="47.02602" lon="-1.6103">
        <ele>22.03</ele>
        <time>2014-09-07T07:37:23Z</time>
      </trkpt>
      <trkpt lat="47.02602" lon="-1.61058">
        <ele>21.53</ele>
        <time>2014-09-07T07:37:28Z</time>
      </trkpt>
      <trkpt lat="47.02605" lon="-1.61088">
        <ele>20.29</ele>
        <time>2014-09-07T07:37:33Z</time>
      </trkpt>
      <trkpt lat="47.02625" lon="-1.61101">
        <ele>18.31</ele>
        <time>2014-09-07T07:37:39Z</time>
      </trkpt>
      <trkpt lat="47.02646" lon="-1.61097">
        <ele>16.61</ele>
        <time>2014-09-07T07:37:43Z</time>
      </trkpt>
      <trkpt lat="47.02664" lon="-1.61095">
        <ele>15.97</ele>
        <time>2014-09-07T07:37:46Z</time>
      </trkpt>
      <trkpt lat="47.02689" lon="-1.61095">
        <ele>15.34</ele>
        <time>2014-09-07T07:37:50Z</time>
      </trkpt>
      <trkpt lat="47.02708" lon="-1.61102">
        <ele>13.69</ele>
        <time>2014-09-07T07:37:53Z</time>
      </trkpt>
      <trkpt lat="47.02729" lon="-1.61109">
        <ele>14</ele>
        <time>2014-09-07T07:37:57Z</time>
      </trkpt>
      <trkpt lat="47.02748" lon="-1.6112">
        <ele>13.34</ele>
        <time>2014-09-07T07:38:01Z</time>
      </trkpt>
      <trkpt lat="47.02767" lon="-1.61136">
        <ele>11.19</ele>
        <time>2014-09-07T07:38:06Z</time>
      </trkpt>
      <trkpt lat="47.02786" lon="-1.61148">
        <ele>10.28</ele>
        <time>2014-09-07T07:38:11Z</time>
      </trkpt>
      <trkpt lat="47.02804" lon="-1.61155">
        <ele>11.5</ele>
        <time>2014-09-07T07:38:16Z</time>
      </trkpt>
      <trkpt lat="47.02822" lon="-1.61162">
        <ele>12.51</ele>
        <time>2014-09-07T07:38:21Z</time>
      </trkpt>
      <trkpt lat="47.02842" lon="-1.61173">
        <ele>13.02</ele>
        <time>2014-09-07T07:38:27Z</time>
      </trkpt>
      <trkpt lat="47.02859" lon="-1.61189">
        <ele>13.03</ele>
        <time>2014-09-07T07:38:33Z</time>
      </trkpt>
      <trkpt lat="47.02875" lon="-1.61201">
        <ele>13.03</ele>
        <time>2014-09-07T07:38:51Z</time>
      </trkpt>
      <trkpt lat="47.02892" lon="-1.61213">
        <ele>12.12</ele>
        <time>2014-09-07T07:38:58Z</time>
      </trkpt>
      <trkpt lat="47.02909" lon="-1.61224">
        <ele>12.03</ele>
        <time>2014-09-07T07:39:03Z</time>
      </trkpt>
      <trkpt lat="47.02928" lon="-1.61236">
        <ele>12.03</ele>
        <time>2014-09-07T07:39:08Z</time>
      </trkpt>
      <trkpt lat="47.02947" lon="-1.61251">
        <ele>12.03</ele>
        <time>2014-09-07T07:39:13Z</time>
      </trkpt>
      <trkpt lat="47.02965" lon="-1.61266">
        <ele>12.03</ele>
        <time>2014-09-07T07:39:18Z</time>
      </trkpt>
      <trkpt lat="47.0298" lon="-1.61289">
        <ele>11.78</ele>
        <time>2014-09-07T07:39:23Z</time>
      </trkpt>
      <trkpt lat="47.02992" lon="-1.61309">
        <ele>12.01</ele>
        <time>2014-09-07T07:39:27Z</time>
      </trkpt>
      <trkpt lat="47.03005" lon="-1.61328">
        <ele>11.53</ele>
        <time>2014-09-07T07:39:31Z</time>
      </trkpt>
      <trkpt lat="47.03022" lon="-1.61345">
        <ele>11.04</ele>
        <time>2014-09-07T07:39:36Z</time>
      </trkpt>
      <trkpt lat="47.03018" lon="-1.61372">
        <ele>11.06</ele>
        <time>2014-09-07T07:39:45Z</time>
      </trkpt>
      <trkpt lat="47.03006" lon="-1.61395">
        <ele>11.03</ele>
        <time>2014-09-07T07:39:50Z</time>
      </trkpt>
      <trkpt lat="47.02995" lon="-1.61422">
        <ele>11.03</ele>
        <time>2014-09-07T07:39:55Z</time>
      </trkpt>
      <trkpt lat="47.02984" lon="-1.6145">
        <ele>11.53</ele>
        <time>2014-09-07T07:40:00Z</time>
      </trkpt>
      <trkpt lat="47.0297" lon="-1.61477">
        <ele>11.95</ele>
        <time>2014-09-07T07:40:05Z</time>
      </trkpt>
      <trkpt lat="47.02963" lon="-1.61502">
        <ele>11.71</ele>
        <time>2014-09-07T07:40:10Z</time>
      </trkpt>
      <trkpt lat="47.02972" lon="-1.61532">
        <ele>11.3</ele>
        <time>2014-09-07T07:40:15Z</time>
      </trkpt>
      <trkpt lat="47.02981" lon="-1.61562">
        <ele>11.91</ele>
        <time>2014-09-07T07:40:20Z</time>
      </trkpt>
      <trkpt lat="47.02989" lon="-1.61589">
        <ele>11.08</ele>
        <time>2014-09-07T07:40:24Z</time>
      </trkpt>
      <trkpt lat="47.02996" lon="-1.61614">
        <ele>10.28</ele>
        <time>2014-09-07T07:40:28Z</time>
      </trkpt>
      <trkpt lat="47.03003" lon="-1.61642">
        <ele>12.63</ele>
        <time>2014-09-07T07:40:33Z</time>
      </trkpt>
      <trkpt lat="47.0301" lon="-1.61667">
        <ele>11.63</ele>
        <time>2014-09-07T07:40:37Z</time>
      </trkpt>
      <trkpt lat="47.03018" lon="-1.61693">
        <ele>10.38</ele>
        <time>2014-09-07T07:40:41Z</time>
      </trkpt>
      <trkpt lat="47.03026" lon="-1.61721">
        <ele>8.24</ele>
        <time>2014-09-07T07:40:45Z</time>
      </trkpt>
      <trkpt lat="47.03033" lon="-1.61747">
        <ele>8.79</ele>
        <time>2014-09-07T07:40:49Z</time>
      </trkpt>
      <trkpt lat="47.03039" lon="-1.61772">
        <ele>9.64</ele>
        <time>2014-09-07T07:40:53Z</time>
      </trkpt>
      <trkpt lat="47.03048" lon="-1.61801">
        <ele>9.58</ele>
        <time>2014-09-07T07:40:58Z</time>
      </trkpt>
      <trkpt lat="47.03058" lon="-1.6183">
        <ele>9.98</ele>
        <time>2014-09-07T07:41:03Z</time>
      </trkpt>
      <trkpt lat="47.03071" lon="-1.61853">
        <ele>10.02</ele>
        <time>2014-09-07T07:41:08Z</time>
      </trkpt>
      <trkpt lat="47.03087" lon="-1.61872">
        <ele>10.21</ele>
        <time>2014-09-07T07:41:12Z</time>
      </trkpt>
      <trkpt lat="47.03102" lon="-1.61892">
        <ele>11.85</ele>
        <time>2014-09-07T07:41:16Z</time>
      </trkpt>
      <trkpt lat="47.03118" lon="-1.61912">
        <ele>12.45</ele>
        <time>2014-09-07T07:41:20Z</time>
      </trkpt>
      <trkpt lat="47.03133" lon="-1.61929">
        <ele>12.99</ele>
        <time>2014-09-07T07:41:24Z</time>
      </trkpt>
      <trkpt lat="47.0315" lon="-1.61949">
        <ele>12.84</ele>
        <time>2014-09-07T07:41:28Z</time>
      </trkpt>
      <trkpt lat="47.03164" lon="-1.61968">
        <ele>12.89</ele>
        <time>2014-09-07T07:41:32Z</time>
      </trkpt>
      <trkpt lat="47.03163" lon="-1.61999">
        <ele>11.18</ele>
        <time>2014-09-07T07:41:37Z</time>
      </trkpt>
      <trkpt lat="47.03156" lon="-1.62027">
        <ele>11.87</ele>
        <time>2014-09-07T07:41:42Z</time>
      </trkpt>
      <trkpt lat="47.03152" lon="-1.62058">
        <ele>9.3</ele>
        <time>2014-09-07T07:41:47Z</time>
      </trkpt>
      <trkpt lat="47.03147" lon="-1.62088">
        <ele>9.82</ele>
        <time>2014-09-07T07:41:52Z</time>
      </trkpt>
      <trkpt lat="47.0314" lon="-1.62117">
        <ele>10.02</ele>
        <time>2014-09-07T07:41:57Z</time>
      </trkpt>
      <trkpt lat="47.03133" lon="-1.62145">
        <ele>10.03</ele>
        <time>2014-09-07T07:42:02Z</time>
      </trkpt>
      <trkpt lat="47.03132" lon="-1.62172">
        <ele>10.92</ele>
        <time>2014-09-07T07:42:10Z</time>
      </trkpt>
      <trkpt lat="47.03127" lon="-1.62202">
        <ele>11.99</ele>
        <time>2014-09-07T07:42:16Z</time>
      </trkpt>
      <trkpt lat="47.03121" lon="-1.62228">
        <ele>12.34</ele>
        <time>2014-09-07T07:42:21Z</time>
      </trkpt>
      <trkpt lat="47.03113" lon="-1.62256">
        <ele>13</ele>
        <time>2014-09-07T07:42:26Z</time>
      </trkpt>
      <trkpt lat="47.03107" lon="-1.62284">
        <ele>13.03</ele>
        <time>2014-09-07T07:42:31Z</time>
      </trkpt>
      <trkpt lat="47.03108" lon="-1.62311">
        <ele>12.06</ele>
        <time>2014-09-07T07:42:36Z</time>
      </trkpt>
      <trkpt lat="47.03126" lon="-1.62325">
        <ele>13.84</ele>
        <time>2014-09-07T07:42:41Z</time>
      </trkpt>
      <trkpt lat="47.03142" lon="-1.62341">
        <ele>13.08</ele>
        <time>2014-09-07T07:42:45Z</time>
      </trkpt>
      <trkpt lat="47.03158" lon="-1.6236">
        <ele>11.34</ele>
        <time>2014-09-07T07:42:49Z</time>
      </trkpt>
      <trkpt lat="47.03174" lon="-1.62377">
        <ele>11.17</ele>
        <time>2014-09-07T07:42:53Z</time>
      </trkpt>
      <trkpt lat="47.03191" lon="-1.62397">
        <ele>11.04</ele>
        <time>2014-09-07T07:42:57Z</time>
      </trkpt>
      <trkpt lat="47.03207" lon="-1.62419">
        <ele>10.84</ele>
        <time>2014-09-07T07:43:01Z</time>
      </trkpt>
      <trkpt lat="47.0322" lon="-1.62441">
        <ele>10.08</ele>
        <time>2014-09-07T07:43:05Z</time>
      </trkpt>
      <trkpt lat="47.0323" lon="-1.62464">
        <ele>10.97</ele>
        <time>2014-09-07T07:43:09Z</time>
      </trkpt>
      <trkpt lat="47.03235" lon="-1.62491">
        <ele>11.08</ele>
        <time>2014-09-07T07:43:13Z</time>
      </trkpt>
      <trkpt lat="47.03242" lon="-1.62521">
        <ele>11.03</ele>
        <time>2014-09-07T07:43:17Z</time>
      </trkpt>
      <trkpt lat="47.0325" lon="-1.62547">
        <ele>13.28</ele>
        <time>2014-09-07T07:43:21Z</time>
      </trkpt>
      <trkpt lat="47.03258" lon="-1.62573">
        <ele>11.17</ele>
        <time>2014-09-07T07:43:25Z</time>
      </trkpt>
      <trkpt lat="47.03266" lon="-1.62602">
        <ele>11.03</ele>
        <time>2014-09-07T07:43:29Z</time>
      </trkpt>
      <trkpt lat="47.03273" lon="-1.62629">
        <ele>11.03</ele>
        <time>2014-09-07T07:43:33Z</time>
      </trkpt>
      <trkpt lat="47.0328" lon="-1.62654">
        <ele>11.96</ele>
        <time>2014-09-07T07:43:37Z</time>
      </trkpt>
      <trkpt lat="47.03287" lon="-1.62681">
        <ele>11.21</ele>
        <time>2014-09-07T07:43:41Z</time>
      </trkpt>
      <trkpt lat="47.03293" lon="-1.62708">
        <ele>11.04</ele>
        <time>2014-09-07T07:43:45Z</time>
      </trkpt>
      <trkpt lat="47.03299" lon="-1.62735">
        <ele>10.78</ele>
        <time>2014-09-07T07:43:49Z</time>
      </trkpt>
      <trkpt lat="47.03305" lon="-1.6276">
        <ele>10.26</ele>
        <time>2014-09-07T07:43:53Z</time>
      </trkpt>
      <trkpt lat="47.03313" lon="-1.62788">
        <ele>10.85</ele>
        <time>2014-09-07T07:43:58Z</time>
      </trkpt>
      <trkpt lat="47.03318" lon="-1.62817">
        <ele>11.02</ele>
        <time>2014-09-07T07:44:04Z</time>
      </trkpt>
      <trkpt lat="47.03327" lon="-1.62846">
        <ele>10.29</ele>
        <time>2014-09-07T07:44:10Z</time>
      </trkpt>
      <trkpt lat="47.03334" lon="-1.62873">
        <ele>10.04</ele>
        <time>2014-09-07T07:44:14Z</time>
      </trkpt>
      <trkpt lat="47.03339" lon="-1.629">
        <ele>10.15</ele>
        <time>2014-09-07T07:44:18Z</time>
      </trkpt>
      <trkpt lat="47.03346" lon="-1.62927">
        <ele>10.22</ele>
        <time>2014-09-07T07:44:22Z</time>
      </trkpt>
      <trkpt lat="47.03353" lon="-1.62956">
        <ele>9.29</ele>
        <time>2014-09-07T07:44:26Z</time>
      </trkpt>
      <trkpt lat="47.0336" lon="-1.62985">
        <ele>9.98</ele>
        <time>2014-09-07T07:44:30Z</time>
      </trkpt>
      <trkpt lat="47.03369" lon="-1.63015">
        <ele>10.84</ele>
        <time>2014-09-07T07:44:34Z</time>
      </trkpt>
      <trkpt lat="47.03377" lon="-1.63044">
        <ele>11.01</ele>
        <time>2014-09-07T07:44:38Z</time>
      </trkpt>
      <trkpt lat="47.03384" lon="-1.63074">
        <ele>11.96</ele>
        <time>2014-09-07T07:44:42Z</time>
      </trkpt>
      <trkpt lat="47.03391" lon="-1.63103">
        <ele>12.52</ele>
        <time>2014-09-07T07:44:46Z</time>
      </trkpt>
      <trkpt lat="47.03399" lon="-1.63132">
        <ele>12.99</ele>
        <time>2014-09-07T07:44:50Z</time>
      </trkpt>
      <trkpt lat="47.03408" lon="-1.63162">
        <ele>13.96</ele>
        <time>2014-09-07T07:44:54Z</time>
      </trkpt>
      <trkpt lat="47.03415" lon="-1.63189">
        <ele>14.02</ele>
        <time>2014-09-07T07:44:58Z</time>
      </trkpt>
      <trkpt lat="47.03421" lon="-1.63217">
        <ele>14.03</ele>
        <time>2014-09-07T07:45:02Z</time>
      </trkpt>
      <trkpt lat="47.03427" lon="-1.63243">
        <ele>14.03</ele>
        <time>2014-09-07T07:45:06Z</time>
      </trkpt>
      <trkpt lat="47.03435" lon="-1.63272">
        <ele>13.28</ele>
        <time>2014-09-07T07:45:10Z</time>
      </trkpt>
      <trkpt lat="47.03443" lon="-1.63301">
        <ele>12.67</ele>
        <time>2014-09-07T07:45:14Z</time>
      </trkpt>
      <trkpt lat="47.03451" lon="-1.63329">
        <ele>12.07</ele>
        <time>2014-09-07T07:45:18Z</time>
      </trkpt>
      <trkpt lat="47.03457" lon="-1.6336">
        <ele>11.47</ele>
        <time>2014-09-07T07:45:22Z</time>
      </trkpt>
      <trkpt lat="47.03464" lon="-1.63389">
        <ele>11.24</ele>
        <time>2014-09-07T07:45:26Z</time>
      </trkpt>
      <trkpt lat="47.03471" lon="-1.63416">
        <ele>11.16</ele>
        <time>2014-09-07T07:45:30Z</time>
      </trkpt>
      <trkpt lat="47.03477" lon="-1.63445">
        <ele>11.03</ele>
        <time>2014-09-07T07:45:34Z</time>
      </trkpt>
      <trkpt lat="47.03479" lon="-1.63476">
        <ele>11.53</ele>
        <time>2014-09-07T07:45:38Z</time>
      </trkpt>
      <trkpt lat="47.0348" lon="-1.63508">
        <ele>11.99</ele>
        <time>2014-09-07T07:45:42Z</time>
      </trkpt>
      <trkpt lat="47.0348" lon="-1.63538">
        <ele>11.59</ele>
        <time>2014-09-07T07:45:46Z</time>
      </trkpt>
      <trkpt lat="47.03479" lon="-1.63569">
        <ele>12.75</ele>
        <time>2014-09-07T07:45:50Z</time>
      </trkpt>
      <trkpt lat="47.03478" lon="-1.636">
        <ele>13.01</ele>
        <time>2014-09-07T07:45:54Z</time>
      </trkpt>
      <trkpt lat="47.03478" lon="-1.6363">
        <ele>12.15</ele>
        <time>2014-09-07T07:45:58Z</time>
      </trkpt>
      <trkpt lat="47.03477" lon="-1.63663">
        <ele>12.03</ele>
        <time>2014-09-07T07:46:03Z</time>
      </trkpt>
      <trkpt lat="47.03477" lon="-1.6369">
        <ele>11.53</ele>
        <time>2014-09-07T07:46:07Z</time>
      </trkpt>
      <trkpt lat="47.03476" lon="-1.63717">
        <ele>11.49</ele>
        <time>2014-09-07T07:46:11Z</time>
      </trkpt>
      <trkpt lat="47.03476" lon="-1.63746">
        <ele>11.06</ele>
        <time>2014-09-07T07:46:15Z</time>
      </trkpt>
      <trkpt lat="47.03479" lon="-1.63773">
        <ele>11.97</ele>
        <time>2014-09-07T07:46:19Z</time>
      </trkpt>
      <trkpt lat="47.03486" lon="-1.63799">
        <ele>12.02</ele>
        <time>2014-09-07T07:46:23Z</time>
      </trkpt>
      <trkpt lat="47.03497" lon="-1.63824">
        <ele>12.03</ele>
        <time>2014-09-07T07:46:27Z</time>
      </trkpt>
      <trkpt lat="47.0351" lon="-1.63844">
        <ele>11.53</ele>
        <time>2014-09-07T07:46:31Z</time>
      </trkpt>
      <trkpt lat="47.03526" lon="-1.63858">
        <ele>12.39</ele>
        <time>2014-09-07T07:46:43Z</time>
      </trkpt>
      <trkpt lat="47.03534" lon="-1.63885">
        <ele>12.03</ele>
        <time>2014-09-07T07:46:51Z</time>
      </trkpt>
      <trkpt lat="47.03553" lon="-1.63894">
        <ele>11.28</ele>
        <time>2014-09-07T07:46:56Z</time>
      </trkpt>
      <trkpt lat="47.03571" lon="-1.63897">
        <ele>11.98</ele>
        <time>2014-09-07T07:47:00Z</time>
      </trkpt>
      <trkpt lat="47.03593" lon="-1.639">
        <ele>12.02</ele>
        <time>2014-09-07T07:47:05Z</time>
      </trkpt>
      <trkpt lat="47.03613" lon="-1.63903">
        <ele>12.78</ele>
        <time>2014-09-07T07:47:10Z</time>
      </trkpt>
      <trkpt lat="47.03633" lon="-1.63905">
        <ele>12.27</ele>
        <time>2014-09-07T07:47:15Z</time>
      </trkpt>
      <trkpt lat="47.03652" lon="-1.63911">
        <ele>12.03</ele>
        <time>2014-09-07T07:47:20Z</time>
      </trkpt>
      <trkpt lat="47.03671" lon="-1.63913">
        <ele>12.99</ele>
        <time>2014-09-07T07:47:25Z</time>
      </trkpt>
      <trkpt lat="47.03692" lon="-1.6391">
        <ele>13.03</ele>
        <time>2014-09-07T07:47:30Z</time>
      </trkpt>
      <trkpt lat="47.03709" lon="-1.63903">
        <ele>12.53</ele>
        <time>2014-09-07T07:47:34Z</time>
      </trkpt>
      <trkpt lat="47.03728" lon="-1.63899">
        <ele>12.12</ele>
        <time>2014-09-07T07:47:38Z</time>
      </trkpt>
      <trkpt lat="47.0375" lon="-1.639">
        <ele>12.47</ele>
        <time>2014-09-07T07:47:43Z</time>
      </trkpt>
      <trkpt lat="47.03769" lon="-1.63904">
        <ele>12.04</ele>
        <time>2014-09-07T07:47:48Z</time>
      </trkpt>
      <trkpt lat="47.03787" lon="-1.63907">
        <ele>12.75</ele>
        <time>2014-09-07T07:47:53Z</time>
      </trkpt>
      <trkpt lat="47.03809" lon="-1.63911">
        <ele>12.92</ele>
        <time>2014-09-07T07:47:58Z</time>
      </trkpt>
      <trkpt lat="47.0383" lon="-1.63916">
        <ele>13.02</ele>
        <time>2014-09-07T07:48:04Z</time>
      </trkpt>
      <trkpt lat="47.03848" lon="-1.6392">
        <ele>15.2</ele>
        <time>2014-09-07T07:48:10Z</time>
      </trkpt>
      <trkpt lat="47.03867" lon="-1.63928">
        <ele>14.44</ele>
        <time>2014-09-07T07:48:15Z</time>
      </trkpt>
      <trkpt lat="47.03886" lon="-1.63935">
        <ele>15.76</ele>
        <time>2014-09-07T07:48:20Z</time>
      </trkpt>
      <trkpt lat="47.03907" lon="-1.63941">
        <ele>15.21</ele>
        <time>2014-09-07T07:48:25Z</time>
      </trkpt>
      <trkpt lat="47.03926" lon="-1.63945">
        <ele>15.91</ele>
        <time>2014-09-07T07:48:30Z</time>
      </trkpt>
      <trkpt lat="47.03936" lon="-1.6392">
        <ele>12.46</ele>
        <time>2014-09-07T07:48:44Z</time>
      </trkpt>
      <trkpt lat="47.03941" lon="-1.63891">
        <ele>10.29</ele>
        <time>2014-09-07T07:48:51Z</time>
      </trkpt>
      <trkpt lat="47.03947" lon="-1.63866">
        <ele>9.28</ele>
        <time>2014-09-07T07:48:58Z</time>
      </trkpt>
      <trkpt lat="47.03956" lon="-1.63836">
        <ele>9.03</ele>
        <time>2014-09-07T07:49:03Z</time>
      </trkpt>
      <trkpt lat="47.03958" lon="-1.63809">
        <ele>9.53</ele>
        <time>2014-09-07T07:49:08Z</time>
      </trkpt>
      <trkpt lat="47.03958" lon="-1.63775">
        <ele>10.19</ele>
        <time>2014-09-07T07:49:14Z</time>
      </trkpt>
      <trkpt lat="47.03962" lon="-1.63742">
        <ele>10.78</ele>
        <time>2014-09-07T07:49:19Z</time>
      </trkpt>
      <trkpt lat="47.03964" lon="-1.63713">
        <ele>8.45</ele>
        <time>2014-09-07T07:49:23Z</time>
      </trkpt>
      <trkpt lat="47.03968" lon="-1.63685">
        <ele>7.99</ele>
        <time>2014-09-07T07:49:27Z</time>
      </trkpt>
      <trkpt lat="47.03968" lon="-1.63656">
        <ele>8.02</ele>
        <time>2014-09-07T07:49:31Z</time>
      </trkpt>
      <trkpt lat="47.03964" lon="-1.63626">
        <ele>7.65</ele>
        <time>2014-09-07T07:49:35Z</time>
      </trkpt>
      <trkpt lat="47.03959" lon="-1.63598">
        <ele>7.94</ele>
        <time>2014-09-07T07:49:39Z</time>
      </trkpt>
      <trkpt lat="47.03955" lon="-1.63571">
        <ele>7.15</ele>
        <time>2014-09-07T07:49:43Z</time>
      </trkpt>
      <trkpt lat="47.03953" lon="-1.63544">
        <ele>6.66</ele>
        <time>2014-09-07T07:49:47Z</time>
      </trkpt>
      <trkpt lat="47.03955" lon="-1.63518">
        <ele>7.75</ele>
        <time>2014-09-07T07:49:51Z</time>
      </trkpt>
      <trkpt lat="47.03962" lon="-1.63492">
        <ele>7.7</ele>
        <time>2014-09-07T07:49:55Z</time>
      </trkpt>
      <trkpt lat="47.03982" lon="-1.63484">
        <ele>8.52</ele>
        <time>2014-09-07T07:50:00Z</time>
      </trkpt>
      <trkpt lat="47.03997" lon="-1.63469">
        <ele>8.49</ele>
        <time>2014-09-07T07:50:04Z</time>
      </trkpt>
      <trkpt lat="47.04011" lon="-1.6345">
        <ele>8.56</ele>
        <time>2014-09-07T07:50:08Z</time>
      </trkpt>
      <trkpt lat="47.04027" lon="-1.63433">
        <ele>9</ele>
        <time>2014-09-07T07:50:12Z</time>
      </trkpt>
      <trkpt lat="47.04043" lon="-1.63416">
        <ele>9.02</ele>
        <time>2014-09-07T07:50:16Z</time>
      </trkpt>
      <trkpt lat="47.0406" lon="-1.63398">
        <ele>9.9</ele>
        <time>2014-09-07T07:50:20Z</time>
      </trkpt>
      <trkpt lat="47.04075" lon="-1.63379">
        <ele>9.71</ele>
        <time>2014-09-07T07:50:24Z</time>
      </trkpt>
      <trkpt lat="47.04091" lon="-1.63362">
        <ele>9.82</ele>
        <time>2014-09-07T07:50:28Z</time>
      </trkpt>
      <trkpt lat="47.04107" lon="-1.63344">
        <ele>9.08</ele>
        <time>2014-09-07T07:50:32Z</time>
      </trkpt>
      <trkpt lat="47.04121" lon="-1.63325">
        <ele>8.53</ele>
        <time>2014-09-07T07:50:36Z</time>
      </trkpt>
      <trkpt lat="47.04134" lon="-1.63302">
        <ele>6.37</ele>
        <time>2014-09-07T07:50:40Z</time>
      </trkpt>
      <trkpt lat="47.04146" lon="-1.63281">
        <ele>6.48</ele>
        <time>2014-09-07T07:50:44Z</time>
      </trkpt>
      <trkpt lat="47.04159" lon="-1.63261">
        <ele>7.43</ele>
        <time>2014-09-07T07:50:48Z</time>
      </trkpt>
      <trkpt lat="47.04167" lon="-1.63238">
        <ele>7.99</ele>
        <time>2014-09-07T07:50:52Z</time>
      </trkpt>
      <trkpt lat="47.04176" lon="-1.63213">
        <ele>8.27</ele>
        <time>2014-09-07T07:50:56Z</time>
      </trkpt>
      <trkpt lat="47.04194" lon="-1.63206">
        <ele>9.89</ele>
        <time>2014-09-07T07:51:02Z</time>
      </trkpt>
      <trkpt lat="47.04199" lon="-1.63233">
        <ele>10.99</ele>
        <time>2014-09-07T07:51:07Z</time>
      </trkpt>
      <trkpt lat="47.04205" lon="-1.63263">
        <ele>10.81</ele>
        <time>2014-09-07T07:51:12Z</time>
      </trkpt>
      <trkpt lat="47.04209" lon="-1.63294">
        <ele>11.89</ele>
        <time>2014-09-07T07:51:17Z</time>
      </trkpt>
      <trkpt lat="47.04213" lon="-1.63321">
        <ele>13.64</ele>
        <time>2014-09-07T07:51:21Z</time>
      </trkpt>
      <trkpt lat="47.04219" lon="-1.63348">
        <ele>12.69</ele>
        <time>2014-09-07T07:51:25Z</time>
      </trkpt>
      <trkpt lat="47.04223" lon="-1.63375">
        <ele>12.44</ele>
        <time>2014-09-07T07:51:29Z</time>
      </trkpt>
      <trkpt lat="47.04228" lon="-1.63401">
        <ele>12.93</ele>
        <time>2014-09-07T07:51:33Z</time>
      </trkpt>
      <trkpt lat="47.04233" lon="-1.63427">
        <ele>12.52</ele>
        <time>2014-09-07T07:51:37Z</time>
      </trkpt>
      <trkpt lat="47.04238" lon="-1.63456">
        <ele>12.99</ele>
        <time>2014-09-07T07:51:41Z</time>
      </trkpt>
      <trkpt lat="47.04243" lon="-1.63485">
        <ele>12.27</ele>
        <time>2014-09-07T07:51:45Z</time>
      </trkpt>
      <trkpt lat="47.04248" lon="-1.63513">
        <ele>12.92</ele>
        <time>2014-09-07T07:51:49Z</time>
      </trkpt>
      <trkpt lat="47.04253" lon="-1.63542">
        <ele>12.96</ele>
        <time>2014-09-07T07:51:53Z</time>
      </trkpt>
      <trkpt lat="47.04258" lon="-1.63572">
        <ele>11.77</ele>
        <time>2014-09-07T07:51:57Z</time>
      </trkpt>
      <trkpt lat="47.04259" lon="-1.63602">
        <ele>11.07</ele>
        <time>2014-09-07T07:52:01Z</time>
      </trkpt>
      <trkpt lat="47.0426" lon="-1.63633">
        <ele>11.03</ele>
        <time>2014-09-07T07:52:05Z</time>
      </trkpt>
      <trkpt lat="47.0426" lon="-1.63663">
        <ele>11.03</ele>
        <time>2014-09-07T07:52:09Z</time>
      </trkpt>
      <trkpt lat="47.04261" lon="-1.63693">
        <ele>11.03</ele>
        <time>2014-09-07T07:52:13Z</time>
      </trkpt>
      <trkpt lat="47.04262" lon="-1.63723">
        <ele>11.03</ele>
        <time>2014-09-07T07:52:17Z</time>
      </trkpt>
      <trkpt lat="47.04266" lon="-1.63754">
        <ele>10.21</ele>
        <time>2014-09-07T07:52:21Z</time>
      </trkpt>
      <trkpt lat="47.04268" lon="-1.63785">
        <ele>9.16</ele>
        <time>2014-09-07T07:52:25Z</time>
      </trkpt>
      <trkpt lat="47.04271" lon="-1.63812">
        <ele>9.03</ele>
        <time>2014-09-07T07:52:29Z</time>
      </trkpt>
      <trkpt lat="47.04276" lon="-1.63841">
        <ele>9.15</ele>
        <time>2014-09-07T07:52:33Z</time>
      </trkpt>
      <trkpt lat="47.04283" lon="-1.63871">
        <ele>9.03</ele>
        <time>2014-09-07T07:52:37Z</time>
      </trkpt>
      <trkpt lat="47.0429" lon="-1.639">
        <ele>8.28</ele>
        <time>2014-09-07T07:52:41Z</time>
      </trkpt>
      <trkpt lat="47.04299" lon="-1.63926">
        <ele>8.04</ele>
        <time>2014-09-07T07:52:45Z</time>
      </trkpt>
      <trkpt lat="47.04306" lon="-1.63953">
        <ele>8.59</ele>
        <time>2014-09-07T07:52:49Z</time>
      </trkpt>
      <trkpt lat="47.0431" lon="-1.63981">
        <ele>9.76</ele>
        <time>2014-09-07T07:52:54Z</time>
      </trkpt>
      <trkpt lat="47.0433" lon="-1.63983">
        <ele>11.88</ele>
        <time>2014-09-07T07:53:02Z</time>
      </trkpt>
      <trkpt lat="47.04351" lon="-1.63973">
        <ele>12.15</ele>
        <time>2014-09-07T07:53:07Z</time>
      </trkpt>
      <trkpt lat="47.04349" lon="-1.63943">
        <ele>11.84</ele>
        <time>2014-09-07T07:53:15Z</time>
      </trkpt>
      <trkpt lat="47.04342" lon="-1.63915">
        <ele>12.01</ele>
        <time>2014-09-07T07:53:19Z</time>
      </trkpt>
      <trkpt lat="47.04334" lon="-1.63889">
        <ele>10.31</ele>
        <time>2014-09-07T07:53:24Z</time>
      </trkpt>
      <trkpt lat="47.04329" lon="-1.63861">
        <ele>9.72</ele>
        <time>2014-09-07T07:53:29Z</time>
      </trkpt>
      <trkpt lat="47.04327" lon="-1.63833">
        <ele>8.99</ele>
        <time>2014-09-07T07:53:34Z</time>
      </trkpt>
      <trkpt lat="47.04322" lon="-1.63803">
        <ele>8.52</ele>
        <time>2014-09-07T07:53:39Z</time>
      </trkpt>
      <trkpt lat="47.04317" lon="-1.63774">
        <ele>8.04</ele>
        <time>2014-09-07T07:53:44Z</time>
      </trkpt>
      <trkpt lat="47.04312" lon="-1.63743">
        <ele>9.37</ele>
        <time>2014-09-07T07:53:49Z</time>
      </trkpt>
      <trkpt lat="47.04308" lon="-1.63712">
        <ele>10.01</ele>
        <time>2014-09-07T07:53:54Z</time>
      </trkpt>
      <trkpt lat="47.04304" lon="-1.63682">
        <ele>9.9</ele>
        <time>2014-09-07T07:53:59Z</time>
      </trkpt>
      <trkpt lat="47.04305" lon="-1.63654">
        <ele>9.08</ele>
        <time>2014-09-07T07:54:04Z</time>
      </trkpt>
      <trkpt lat="47.04304" lon="-1.63623">
        <ele>9.03</ele>
        <time>2014-09-07T07:54:10Z</time>
      </trkpt>
      <trkpt lat="47.04315" lon="-1.636">
        <ele>9.03</ele>
        <time>2014-09-07T07:54:16Z</time>
      </trkpt>
      <trkpt lat="47.04302" lon="-1.6358">
        <ele>7.9</ele>
        <time>2014-09-07T07:56:43Z</time>
      </trkpt>
      <trkpt lat="47.04302" lon="-1.6355">
        <ele>8.9</ele>
        <time>2014-09-07T07:56:51Z</time>
      </trkpt>
      <trkpt lat="47.043" lon="-1.63522">
        <ele>9.03</ele>
        <time>2014-09-07T07:56:58Z</time>
      </trkpt>
      <trkpt lat="47.04299" lon="-1.63494">
        <ele>9.03</ele>
        <time>2014-09-07T07:57:04Z</time>
      </trkpt>
      <trkpt lat="47.04295" lon="-1.63463">
        <ele>10.01</ele>
        <time>2014-09-07T07:57:10Z</time>
      </trkpt>
      <trkpt lat="47.04292" lon="-1.63434">
        <ele>10.03</ele>
        <time>2014-09-07T07:57:15Z</time>
      </trkpt>
      <trkpt lat="47.04289" lon="-1.63406">
        <ele>10.03</ele>
        <time>2014-09-07T07:57:20Z</time>
      </trkpt>
      <trkpt lat="47.04284" lon="-1.63379">
        <ele>10.03</ele>
        <time>2014-09-07T07:57:25Z</time>
      </trkpt>
      <trkpt lat="47.0428" lon="-1.63352">
        <ele>10.03</ele>
        <time>2014-09-07T07:57:30Z</time>
      </trkpt>
      <trkpt lat="47.04284" lon="-1.6332">
        <ele>10.03</ele>
        <time>2014-09-07T07:57:36Z</time>
      </trkpt>
      <trkpt lat="47.04288" lon="-1.63294">
        <ele>10.03</ele>
        <time>2014-09-07T07:57:41Z</time>
      </trkpt>
      <trkpt lat="47.04293" lon="-1.63268">
        <ele>10.03</ele>
        <time>2014-09-07T07:57:46Z</time>
      </trkpt>
      <trkpt lat="47.04301" lon="-1.63243">
        <ele>10.53</ele>
        <time>2014-09-07T07:57:51Z</time>
      </trkpt>
      <trkpt lat="47.04283" lon="-1.63232">
        <ele>14.01</ele>
        <time>2014-09-07T07:58:03Z</time>
      </trkpt>
      <trkpt lat="47.04269" lon="-1.63213">
        <ele>13.53</ele>
        <time>2014-09-07T07:58:09Z</time>
      </trkpt>
      <trkpt lat="47.04261" lon="-1.63189">
        <ele>13.04</ele>
        <time>2014-09-07T07:58:14Z</time>
      </trkpt>
      <trkpt lat="47.04258" lon="-1.63159">
        <ele>13.03</ele>
        <time>2014-09-07T07:58:19Z</time>
      </trkpt>
      <trkpt lat="47.04257" lon="-1.63126">
        <ele>12.99</ele>
        <time>2014-09-07T07:58:24Z</time>
      </trkpt>
      <trkpt lat="47.04256" lon="-1.63093">
        <ele>12.09</ele>
        <time>2014-09-07T07:58:29Z</time>
      </trkpt>
      <trkpt lat="47.04258" lon="-1.63062">
        <ele>12.97</ele>
        <time>2014-09-07T07:58:34Z</time>
      </trkpt>
      <trkpt lat="47.04265" lon="-1.63037">
        <ele>12.08</ele>
        <time>2014-09-07T07:58:38Z</time>
      </trkpt>
      <trkpt lat="47.04275" lon="-1.63011">
        <ele>12.03</ele>
        <time>2014-09-07T07:58:42Z</time>
      </trkpt>
      <trkpt lat="47.04284" lon="-1.62988">
        <ele>12.03</ele>
        <time>2014-09-07T07:58:46Z</time>
      </trkpt>
      <trkpt lat="47.04297" lon="-1.62962">
        <ele>11.28</ele>
        <time>2014-09-07T07:58:51Z</time>
      </trkpt>
      <trkpt lat="47.0431" lon="-1.6294">
        <ele>11.03</ele>
        <time>2014-09-07T07:58:56Z</time>
      </trkpt>
      <trkpt lat="47.04325" lon="-1.62922">
        <ele>10.15</ele>
        <time>2014-09-07T07:59:01Z</time>
      </trkpt>
      <trkpt lat="47.04344" lon="-1.62913">
        <ele>10.03</ele>
        <time>2014-09-07T07:59:06Z</time>
      </trkpt>
      <trkpt lat="47.04362" lon="-1.6292">
        <ele>10.96</ele>
        <time>2014-09-07T07:59:10Z</time>
      </trkpt>
      <trkpt lat="47.0438" lon="-1.62925">
        <ele>11.02</ele>
        <time>2014-09-07T07:59:14Z</time>
      </trkpt>
      <trkpt lat="47.04398" lon="-1.62927">
        <ele>11.15</ele>
        <time>2014-09-07T07:59:18Z</time>
      </trkpt>
      <trkpt lat="47.04416" lon="-1.62932">
        <ele>11.22</ele>
        <time>2014-09-07T07:59:22Z</time>
      </trkpt>
      <trkpt lat="47.04435" lon="-1.62943">
        <ele>11.72</ele>
        <time>2014-09-07T07:59:27Z</time>
      </trkpt>
      <trkpt lat="47.04434" lon="-1.62973">
        <ele>15.38</ele>
        <time>2014-09-07T08:00:12Z</time>
      </trkpt>
      <trkpt lat="47.0443" lon="-1.63003">
        <ele>12.1</ele>
        <time>2014-09-07T08:00:17Z</time>
      </trkpt>
      <trkpt lat="47.04438" lon="-1.63028">
        <ele>10.29</ele>
        <time>2014-09-07T08:00:24Z</time>
      </trkpt>
      <trkpt lat="47.04456" lon="-1.63032">
        <ele>10.78</ele>
        <time>2014-09-07T08:00:30Z</time>
      </trkpt>
      <trkpt lat="47.04476" lon="-1.63038">
        <ele>10.08</ele>
        <time>2014-09-07T08:00:36Z</time>
      </trkpt>
      <trkpt lat="47.04495" lon="-1.63043">
        <ele>10.9</ele>
        <time>2014-09-07T08:00:42Z</time>
      </trkpt>
      <trkpt lat="47.04515" lon="-1.63048">
        <ele>11.52</ele>
        <time>2014-09-07T08:00:48Z</time>
      </trkpt>
      <trkpt lat="47.04535" lon="-1.63054">
        <ele>11.08</ele>
        <time>2014-09-07T08:00:54Z</time>
      </trkpt>
      <trkpt lat="47.04555" lon="-1.63044">
        <ele>11.96</ele>
        <time>2014-09-07T08:01:00Z</time>
      </trkpt>
      <trkpt lat="47.04572" lon="-1.6303">
        <ele>12.03</ele>
        <time>2014-09-07T08:01:06Z</time>
      </trkpt>
      <trkpt lat="47.0459" lon="-1.63016">
        <ele>11.56</ele>
        <time>2014-09-07T08:01:11Z</time>
      </trkpt>
      <trkpt lat="47.04608" lon="-1.63002">
        <ele>12.01</ele>
        <time>2014-09-07T08:01:16Z</time>
      </trkpt>
      <trkpt lat="47.04626" lon="-1.62989">
        <ele>12.03</ele>
        <time>2014-09-07T08:01:21Z</time>
      </trkpt>
      <trkpt lat="47.04644" lon="-1.62976">
        <ele>12.03</ele>
        <time>2014-09-07T08:01:26Z</time>
      </trkpt>
      <trkpt lat="47.04663" lon="-1.62962">
        <ele>12.03</ele>
        <time>2014-09-07T08:01:31Z</time>
      </trkpt>
      <trkpt lat="47.04683" lon="-1.62949">
        <ele>11.81</ele>
        <time>2014-09-07T08:01:36Z</time>
      </trkpt>
      <trkpt lat="47.04702" lon="-1.62936">
        <ele>12.02</ele>
        <time>2014-09-07T08:01:41Z</time>
      </trkpt>
      <trkpt lat="47.04721" lon="-1.62924">
        <ele>12.53</ele>
        <time>2014-09-07T08:01:46Z</time>
      </trkpt>
      <trkpt lat="47.0474" lon="-1.62912">
        <ele>12.07</ele>
        <time>2014-09-07T08:01:51Z</time>
      </trkpt>
      <trkpt lat="47.04759" lon="-1.62901">
        <ele>11.75</ele>
        <time>2014-09-07T08:01:56Z</time>
      </trkpt>
      <trkpt lat="47.04778" lon="-1.6289">
        <ele>12.02</ele>
        <time>2014-09-07T08:02:01Z</time>
      </trkpt>
      <trkpt lat="47.04797" lon="-1.62879">
        <ele>11.53</ele>
        <time>2014-09-07T08:02:06Z</time>
      </trkpt>
      <trkpt lat="47.04815" lon="-1.62871">
        <ele>11.78</ele>
        <time>2014-09-07T08:02:16Z</time>
      </trkpt>
      <trkpt lat="47.0482" lon="-1.629">
        <ele>12.02</ele>
        <time>2014-09-07T08:02:23Z</time>
      </trkpt>
      <trkpt lat="47.04819" lon="-1.62927">
        <ele>12.03</ele>
        <time>2014-09-07T08:02:29Z</time>
      </trkpt>
      <trkpt lat="47.0482" lon="-1.62955">
        <ele>12.9</ele>
        <time>2014-09-07T08:02:35Z</time>
      </trkpt>
      <trkpt lat="47.04822" lon="-1.62985">
        <ele>13.02</ele>
        <time>2014-09-07T08:02:40Z</time>
      </trkpt>
      <trkpt lat="47.04822" lon="-1.63015">
        <ele>13.03</ele>
        <time>2014-09-07T08:02:45Z</time>
      </trkpt>
      <trkpt lat="47.04844" lon="-1.63021">
        <ele>12.21</ele>
        <time>2014-09-07T08:02:52Z</time>
      </trkpt>
      <trkpt lat="47.04864" lon="-1.63019">
        <ele>12.78</ele>
        <time>2014-09-07T08:02:57Z</time>
      </trkpt>
      <trkpt lat="47.04884" lon="-1.63017">
        <ele>13.02</ele>
        <time>2014-09-07T08:03:02Z</time>
      </trkpt>
      <trkpt lat="47.04902" lon="-1.63015">
        <ele>13.03</ele>
        <time>2014-09-07T08:03:07Z</time>
      </trkpt>
      <trkpt lat="47.04921" lon="-1.63015">
        <ele>13.03</ele>
        <time>2014-09-07T08:03:12Z</time>
      </trkpt>
      <trkpt lat="47.04942" lon="-1.63015">
        <ele>13.96</ele>
        <time>2014-09-07T08:03:18Z</time>
      </trkpt>
      <trkpt lat="47.0496" lon="-1.63023">
        <ele>14.9</ele>
        <time>2014-09-07T08:03:27Z</time>
      </trkpt>
      <trkpt lat="47.04978" lon="-1.63042">
        <ele>14.24</ele>
        <time>2014-09-07T08:03:33Z</time>
      </trkpt>
      <trkpt lat="47.04993" lon="-1.63058">
        <ele>14.78</ele>
        <time>2014-09-07T08:03:38Z</time>
      </trkpt>
      <trkpt lat="47.05011" lon="-1.63065">
        <ele>15.03</ele>
        <time>2014-09-07T08:03:46Z</time>
      </trkpt>
      <trkpt lat="47.05018" lon="-1.63038">
        <ele>14.15</ele>
        <time>2014-09-07T08:03:52Z</time>
      </trkpt>
      <trkpt lat="47.05028" lon="-1.63013">
        <ele>13.53</ele>
        <time>2014-09-07T08:03:57Z</time>
      </trkpt>
      <trkpt lat="47.05038" lon="-1.62985">
        <ele>13.04</ele>
        <time>2014-09-07T08:04:02Z</time>
      </trkpt>
      <trkpt lat="47.05047" lon="-1.62961">
        <ele>13.03</ele>
        <time>2014-09-07T08:04:07Z</time>
      </trkpt>
      <trkpt lat="47.05056" lon="-1.62938">
        <ele>13.03</ele>
        <time>2014-09-07T08:04:12Z</time>
      </trkpt>
      <trkpt lat="47.05066" lon="-1.62911">
        <ele>13.03</ele>
        <time>2014-09-07T08:04:18Z</time>
      </trkpt>
      <trkpt lat="47.05076" lon="-1.62886">
        <ele>13.03</ele>
        <time>2014-09-07T08:04:24Z</time>
      </trkpt>
      <trkpt lat="47.05086" lon="-1.62861">
        <ele>12.84</ele>
        <time>2014-09-07T08:04:30Z</time>
      </trkpt>
      <trkpt lat="47.05098" lon="-1.6284">
        <ele>13.02</ele>
        <time>2014-09-07T08:04:36Z</time>
      </trkpt>
      <trkpt lat="47.05116" lon="-1.62824">
        <ele>13.03</ele>
        <time>2014-09-07T08:04:42Z</time>
      </trkpt>
      <trkpt lat="47.05127" lon="-1.62799">
        <ele>13.03</ele>
        <time>2014-09-07T08:04:48Z</time>
      </trkpt>
      <trkpt lat="47.05137" lon="-1.62772">
        <ele>13.03</ele>
        <time>2014-09-07T08:04:54Z</time>
      </trkpt>
      <trkpt lat="47.05146" lon="-1.62746">
        <ele>13.03</ele>
        <time>2014-09-07T08:04:59Z</time>
      </trkpt>
      <trkpt lat="47.05157" lon="-1.62718">
        <ele>13.78</ele>
        <time>2014-09-07T08:05:04Z</time>
      </trkpt>
      <trkpt lat="47.05167" lon="-1.62694">
        <ele>14.01</ele>
        <time>2014-09-07T08:05:08Z</time>
      </trkpt>
      <trkpt lat="47.05177" lon="-1.62664">
        <ele>13.96</ele>
        <time>2014-09-07T08:05:13Z</time>
      </trkpt>
      <trkpt lat="47.05187" lon="-1.62641">
        <ele>14.02</ele>
        <time>2014-09-07T08:05:17Z</time>
      </trkpt>
      <trkpt lat="47.05195" lon="-1.62616">
        <ele>14.03</ele>
        <time>2014-09-07T08:05:21Z</time>
      </trkpt>
      <trkpt lat="47.05204" lon="-1.62591">
        <ele>14.03</ele>
        <time>2014-09-07T08:05:25Z</time>
      </trkpt>
      <trkpt lat="47.05213" lon="-1.62567">
        <ele>13.28</ele>
        <time>2014-09-07T08:05:29Z</time>
      </trkpt>
      <trkpt lat="47.05222" lon="-1.62542">
        <ele>13.04</ele>
        <time>2014-09-07T08:05:33Z</time>
      </trkpt>
      <trkpt lat="47.05233" lon="-1.62518">
        <ele>13.09</ele>
        <time>2014-09-07T08:05:37Z</time>
      </trkpt>
      <trkpt lat="47.05243" lon="-1.62496">
        <ele>13.03</ele>
        <time>2014-09-07T08:05:41Z</time>
      </trkpt>
      <trkpt lat="47.05254" lon="-1.62472">
        <ele>13.03</ele>
        <time>2014-09-07T08:05:45Z</time>
      </trkpt>
      <trkpt lat="47.05266" lon="-1.62449">
        <ele>13.78</ele>
        <time>2014-09-07T08:05:49Z</time>
      </trkpt>
      <trkpt lat="47.05276" lon="-1.62427">
        <ele>14.01</ele>
        <time>2014-09-07T08:05:53Z</time>
      </trkpt>
      <trkpt lat="47.05288" lon="-1.62404">
        <ele>14.28</ele>
        <time>2014-09-07T08:05:57Z</time>
      </trkpt>
      <trkpt lat="47.05302" lon="-1.62381">
        <ele>14.04</ele>
        <time>2014-09-07T08:06:01Z</time>
      </trkpt>
      <trkpt lat="47.05316" lon="-1.62361">
        <ele>13.15</ele>
        <time>2014-09-07T08:06:05Z</time>
      </trkpt>
      <trkpt lat="47.0533" lon="-1.62341">
        <ele>13.16</ele>
        <time>2014-09-07T08:06:09Z</time>
      </trkpt>
      <trkpt lat="47.05343" lon="-1.62319">
        <ele>13.03</ele>
        <time>2014-09-07T08:06:13Z</time>
      </trkpt>
      <trkpt lat="47.05357" lon="-1.62296">
        <ele>11.59</ele>
        <time>2014-09-07T08:06:17Z</time>
      </trkpt>
      <trkpt lat="47.05371" lon="-1.62276">
        <ele>12</ele>
        <time>2014-09-07T08:06:21Z</time>
      </trkpt>
      <trkpt lat="47.05384" lon="-1.62254">
        <ele>12.02</ele>
        <time>2014-09-07T08:06:25Z</time>
      </trkpt>
      <trkpt lat="47.05395" lon="-1.6223">
        <ele>12.03</ele>
        <time>2014-09-07T08:06:29Z</time>
      </trkpt>
      <trkpt lat="47.05408" lon="-1.62206">
        <ele>11.9</ele>
        <time>2014-09-07T08:06:33Z</time>
      </trkpt>
      <trkpt lat="47.05421" lon="-1.62184">
        <ele>12.27</ele>
        <time>2014-09-07T08:06:37Z</time>
      </trkpt>
      <trkpt lat="47.05435" lon="-1.62158">
        <ele>12.75</ele>
        <time>2014-09-07T08:06:42Z</time>
      </trkpt>
      <trkpt lat="47.05448" lon="-1.62136">
        <ele>13.01</ele>
        <time>2014-09-07T08:06:46Z</time>
      </trkpt>
      <trkpt lat="47.05461" lon="-1.62114">
        <ele>13.02</ele>
        <time>2014-09-07T08:06:50Z</time>
      </trkpt>
      <trkpt lat="47.05474" lon="-1.6209">
        <ele>13.78</ele>
        <time>2014-09-07T08:06:54Z</time>
      </trkpt>
      <trkpt lat="47.05487" lon="-1.62067">
        <ele>14.01</ele>
        <time>2014-09-07T08:06:58Z</time>
      </trkpt>
      <trkpt lat="47.05501" lon="-1.62042">
        <ele>14.03</ele>
        <time>2014-09-07T08:07:02Z</time>
      </trkpt>
      <trkpt lat="47.05515" lon="-1.62018">
        <ele>14.03</ele>
        <time>2014-09-07T08:07:06Z</time>
      </trkpt>
      <trkpt lat="47.05531" lon="-1.61993">
        <ele>14.15</ele>
        <time>2014-09-07T08:07:10Z</time>
      </trkpt>
      <trkpt lat="47.05545" lon="-1.61969">
        <ele>14.03</ele>
        <time>2014-09-07T08:07:14Z</time>
      </trkpt>
      <trkpt lat="47.0556" lon="-1.61945">
        <ele>14.03</ele>
        <time>2014-09-07T08:07:18Z</time>
      </trkpt>
      <trkpt lat="47.05574" lon="-1.61922">
        <ele>15.4</ele>
        <time>2014-09-07T08:07:22Z</time>
      </trkpt>
      <trkpt lat="47.05587" lon="-1.61899">
        <ele>15.99</ele>
        <time>2014-09-07T08:07:26Z</time>
      </trkpt>
      <trkpt lat="47.05601" lon="-1.61876">
        <ele>16.02</ele>
        <time>2014-09-07T08:07:30Z</time>
      </trkpt>
      <trkpt lat="47.05615" lon="-1.61854">
        <ele>16.03</ele>
        <time>2014-09-07T08:07:34Z</time>
      </trkpt>
      <trkpt lat="47.05628" lon="-1.61833">
        <ele>16.4</ele>
        <time>2014-09-07T08:07:38Z</time>
      </trkpt>
      <trkpt lat="47.0564" lon="-1.6181">
        <ele>16.42</ele>
        <time>2014-09-07T08:07:42Z</time>
      </trkpt>
      <trkpt lat="47.05653" lon="-1.61788">
        <ele>16.99</ele>
        <time>2014-09-07T08:07:46Z</time>
      </trkpt>
      <trkpt lat="47.05664" lon="-1.61766">
        <ele>17.02</ele>
        <time>2014-09-07T08:07:50Z</time>
      </trkpt>
      <trkpt lat="47.0568" lon="-1.61747">
        <ele>19.68</ele>
        <time>2014-09-07T08:07:55Z</time>
      </trkpt>
      <trkpt lat="47.05694" lon="-1.61766">
        <ele>20.49</ele>
        <time>2014-09-07T08:08:03Z</time>
      </trkpt>
      <trkpt lat="47.05697" lon="-1.61795">
        <ele>21.42</ele>
        <time>2014-09-07T08:08:08Z</time>
      </trkpt>
      <trkpt lat="47.05703" lon="-1.61822">
        <ele>22.88</ele>
        <time>2014-09-07T08:08:13Z</time>
      </trkpt>
      <trkpt lat="47.05711" lon="-1.61849">
        <ele>23.77</ele>
        <time>2014-09-07T08:08:18Z</time>
      </trkpt>
      <trkpt lat="47.0572" lon="-1.61877">
        <ele>23.52</ele>
        <time>2014-09-07T08:08:23Z</time>
      </trkpt>
      <trkpt lat="47.05728" lon="-1.61904">
        <ele>23.06</ele>
        <time>2014-09-07T08:08:27Z</time>
      </trkpt>
      <trkpt lat="47.05736" lon="-1.6193">
        <ele>23.03</ele>
        <time>2014-09-07T08:08:31Z</time>
      </trkpt>
      <trkpt lat="47.05744" lon="-1.61958">
        <ele>22.28</ele>
        <time>2014-09-07T08:08:35Z</time>
      </trkpt>
      <trkpt lat="47.05752" lon="-1.61983">
        <ele>21.56</ele>
        <time>2014-09-07T08:08:38Z</time>
      </trkpt>
      <trkpt lat="47.0576" lon="-1.6201">
        <ele>20.34</ele>
        <time>2014-09-07T08:08:41Z</time>
      </trkpt>
      <trkpt lat="47.05769" lon="-1.6204">
        <ele>18.69</ele>
        <time>2014-09-07T08:08:44Z</time>
      </trkpt>
      <trkpt lat="47.05778" lon="-1.6207">
        <ele>17.61</ele>
        <time>2014-09-07T08:08:47Z</time>
      </trkpt>
      <trkpt lat="47.05787" lon="-1.62098">
        <ele>17.6</ele>
        <time>2014-09-07T08:08:50Z</time>
      </trkpt>
      <trkpt lat="47.05797" lon="-1.6213">
        <ele>17.37</ele>
        <time>2014-09-07T08:08:54Z</time>
      </trkpt>
      <trkpt lat="47.05804" lon="-1.62154">
        <ele>17.07</ele>
        <time>2014-09-07T08:08:57Z</time>
      </trkpt>
      <trkpt lat="47.05812" lon="-1.62179">
        <ele>16.66</ele>
        <time>2014-09-07T08:09:00Z</time>
      </trkpt>
      <trkpt lat="47.0582" lon="-1.62204">
        <ele>16.98</ele>
        <time>2014-09-07T08:09:03Z</time>
      </trkpt>
      <trkpt lat="47.05827" lon="-1.62229">
        <ele>17.02</ele>
        <time>2014-09-07T08:09:06Z</time>
      </trkpt>
      <trkpt lat="47.05835" lon="-1.62254">
        <ele>16.9</ele>
        <time>2014-09-07T08:09:09Z</time>
      </trkpt>
      <trkpt lat="47.05845" lon="-1.62286">
        <ele>15.21</ele>
        <time>2014-09-07T08:09:13Z</time>
      </trkpt>
      <trkpt lat="47.05852" lon="-1.62317">
        <ele>15.72</ele>
        <time>2014-09-07T08:09:17Z</time>
      </trkpt>
      <trkpt lat="47.05856" lon="-1.62344">
        <ele>16.01</ele>
        <time>2014-09-07T08:09:21Z</time>
      </trkpt>
      <trkpt lat="47.0586" lon="-1.62373">
        <ele>15.52</ele>
        <time>2014-09-07T08:09:25Z</time>
      </trkpt>
      <trkpt lat="47.05878" lon="-1.62377">
        <ele>16.01</ele>
        <time>2014-09-07T08:09:34Z</time>
      </trkpt>
      <trkpt lat="47.05893" lon="-1.62356">
        <ele>16.24</ele>
        <time>2014-09-07T08:09:39Z</time>
      </trkpt>
      <trkpt lat="47.05907" lon="-1.62338">
        <ele>16.91</ele>
        <time>2014-09-07T08:09:43Z</time>
      </trkpt>
      <trkpt lat="47.0592" lon="-1.62318">
        <ele>16.14</ele>
        <time>2014-09-07T08:09:47Z</time>
      </trkpt>
      <trkpt lat="47.05935" lon="-1.62297">
        <ele>16.03</ele>
        <time>2014-09-07T08:09:52Z</time>
      </trkpt>
      <trkpt lat="47.05939" lon="-1.62269">
        <ele>16.03</ele>
        <time>2014-09-07T08:10:03Z</time>
      </trkpt>
      <trkpt lat="47.05925" lon="-1.62247">
        <ele>16.99</ele>
        <time>2014-09-07T08:10:09Z</time>
      </trkpt>
      <trkpt lat="47.0591" lon="-1.62227">
        <ele>16.04</ele>
        <time>2014-09-07T08:10:16Z</time>
      </trkpt>
      <trkpt lat="47.0592" lon="-1.62202">
        <ele>18.14</ele>
        <time>2014-09-07T08:10:34Z</time>
      </trkpt>
      <trkpt lat="47.0592" lon="-1.62175">
        <ele>19.06</ele>
        <time>2014-09-07T08:12:35Z</time>
      </trkpt>
      <trkpt lat="47.05905" lon="-1.62159">
        <ele>17.08</ele>
        <time>2014-09-07T08:12:48Z</time>
      </trkpt>
      <trkpt lat="47.0589" lon="-1.6214">
        <ele>16.04</ele>
        <time>2014-09-07T08:12:57Z</time>
      </trkpt>
      <trkpt lat="47.05876" lon="-1.62121">
        <ele>16.03</ele>
        <time>2014-09-07T08:13:03Z</time>
      </trkpt>
      <trkpt lat="47.05863" lon="-1.62102">
        <ele>16.03</ele>
        <time>2014-09-07T08:13:08Z</time>
      </trkpt>
      <trkpt lat="47.05857" lon="-1.62074">
        <ele>16.96</ele>
        <time>2014-09-07T08:13:14Z</time>
      </trkpt>
      <trkpt lat="47.05868" lon="-1.6205">
        <ele>16.43</ele>
        <time>2014-09-07T08:13:19Z</time>
      </trkpt>
      <trkpt lat="47.0588" lon="-1.62024">
        <ele>16.04</ele>
        <time>2014-09-07T08:13:24Z</time>
      </trkpt>
      <trkpt lat="47.05893" lon="-1.61998">
        <ele>16.03</ele>
        <time>2014-09-07T08:13:29Z</time>
      </trkpt>
      <trkpt lat="47.05906" lon="-1.61979">
        <ele>15.09</ele>
        <time>2014-09-07T08:13:33Z</time>
      </trkpt>
      <trkpt lat="47.05919" lon="-1.6196">
        <ele>15.03</ele>
        <time>2014-09-07T08:13:37Z</time>
      </trkpt>
      <trkpt lat="47.05932" lon="-1.61941">
        <ele>14.09</ele>
        <time>2014-09-07T08:13:41Z</time>
      </trkpt>
      <trkpt lat="47.05945" lon="-1.61922">
        <ele>14.9</ele>
        <time>2014-09-07T08:13:45Z</time>
      </trkpt>
      <trkpt lat="47.05965" lon="-1.61924">
        <ele>15.02</ele>
        <time>2014-09-07T08:13:51Z</time>
      </trkpt>
      <trkpt lat="47.05978" lon="-1.61945">
        <ele>15.84</ele>
        <time>2014-09-07T08:13:56Z</time>
      </trkpt>
      <trkpt lat="47.05992" lon="-1.61966">
        <ele>16.9</ele>
        <time>2014-09-07T08:14:01Z</time>
      </trkpt>
      <trkpt lat="47.06007" lon="-1.6199">
        <ele>17.27</ele>
        <time>2014-09-07T08:14:06Z</time>
      </trkpt>
      <trkpt lat="47.0602" lon="-1.62009">
        <ele>17.79</ele>
        <time>2014-09-07T08:14:10Z</time>
      </trkpt>
      <trkpt lat="47.06036" lon="-1.62032">
        <ele>18.02</ele>
        <time>2014-09-07T08:14:15Z</time>
      </trkpt>
      <trkpt lat="47.06051" lon="-1.62055">
        <ele>17.87</ele>
        <time>2014-09-07T08:14:20Z</time>
      </trkpt>
      <trkpt lat="47.06065" lon="-1.62075">
        <ele>18.02</ele>
        <time>2014-09-07T08:14:25Z</time>
      </trkpt>
      <trkpt lat="47.06079" lon="-1.62096">
        <ele>18.01</ele>
        <time>2014-09-07T08:14:31Z</time>
      </trkpt>
      <trkpt lat="47.06098" lon="-1.62086">
        <ele>19.03</ele>
        <time>2014-09-07T08:15:37Z</time>
      </trkpt>
      <trkpt lat="47.06117" lon="-1.62072">
        <ele>18.15</ele>
        <time>2014-09-07T08:15:42Z</time>
      </trkpt>
      <trkpt lat="47.06134" lon="-1.62058">
        <ele>18.03</ele>
        <time>2014-09-07T08:15:48Z</time>
      </trkpt>
      <trkpt lat="47.06115" lon="-1.62072">
        <ele>17.09</ele>
        <time>2014-09-07T08:16:16Z</time>
      </trkpt>
      <trkpt lat="47.06099" lon="-1.62087">
        <ele>17.15</ele>
        <time>2014-09-07T08:16:21Z</time>
      </trkpt>
      <trkpt lat="47.06082" lon="-1.62103">
        <ele>17.65</ele>
        <time>2014-09-07T08:16:26Z</time>
      </trkpt>
      <trkpt lat="47.0609" lon="-1.62131">
        <ele>17.41</ele>
        <time>2014-09-07T08:16:33Z</time>
      </trkpt>
      <trkpt lat="47.061" lon="-1.62155">
        <ele>17.13</ele>
        <time>2014-09-07T08:16:38Z</time>
      </trkpt>
      <trkpt lat="47.06109" lon="-1.62179">
        <ele>16.94</ele>
        <time>2014-09-07T08:16:43Z</time>
      </trkpt>
      <trkpt lat="47.06119" lon="-1.62205">
        <ele>16.52</ele>
        <time>2014-09-07T08:16:48Z</time>
      </trkpt>
      <trkpt lat="47.06129" lon="-1.62232">
        <ele>17.51</ele>
        <time>2014-09-07T08:16:53Z</time>
      </trkpt>
      <trkpt lat="47.06139" lon="-1.62255">
        <ele>17.26</ele>
        <time>2014-09-07T08:16:58Z</time>
      </trkpt>
      <trkpt lat="47.06149" lon="-1.62279">
        <ele>16.28</ele>
        <time>2014-09-07T08:17:03Z</time>
      </trkpt>
      <trkpt lat="47.06159" lon="-1.62303">
        <ele>16.91</ele>
        <time>2014-09-07T08:17:08Z</time>
      </trkpt>
      <trkpt lat="47.0617" lon="-1.62328">
        <ele>17.02</ele>
        <time>2014-09-07T08:17:13Z</time>
      </trkpt>
      <trkpt lat="47.06181" lon="-1.62353">
        <ele>16.15</ele>
        <time>2014-09-07T08:17:18Z</time>
      </trkpt>
      <trkpt lat="47.06192" lon="-1.62378">
        <ele>17</ele>
        <time>2014-09-07T08:17:23Z</time>
      </trkpt>
      <trkpt lat="47.06203" lon="-1.62405">
        <ele>16.06</ele>
        <time>2014-09-07T08:17:28Z</time>
      </trkpt>
      <trkpt lat="47.06214" lon="-1.62432">
        <ele>16.03</ele>
        <time>2014-09-07T08:17:33Z</time>
      </trkpt>
      <trkpt lat="47.06226" lon="-1.62457">
        <ele>16.59</ele>
        <time>2014-09-07T08:17:38Z</time>
      </trkpt>
      <trkpt lat="47.06238" lon="-1.62481">
        <ele>16.95</ele>
        <time>2014-09-07T08:17:43Z</time>
      </trkpt>
      <trkpt lat="47.0625" lon="-1.62506">
        <ele>16.09</ele>
        <time>2014-09-07T08:17:48Z</time>
      </trkpt>
      <trkpt lat="47.06261" lon="-1.62531">
        <ele>16.03</ele>
        <time>2014-09-07T08:17:53Z</time>
      </trkpt>
      <trkpt lat="47.06272" lon="-1.62556">
        <ele>15.93</ele>
        <time>2014-09-07T08:17:58Z</time>
      </trkpt>
      <trkpt lat="47.06283" lon="-1.6258">
        <ele>16.02</ele>
        <time>2014-09-07T08:18:03Z</time>
      </trkpt>
      <trkpt lat="47.06294" lon="-1.62605">
        <ele>15.59</ele>
        <time>2014-09-07T08:18:08Z</time>
      </trkpt>
      <trkpt lat="47.06305" lon="-1.6263">
        <ele>16.01</ele>
        <time>2014-09-07T08:18:13Z</time>
      </trkpt>
      <trkpt lat="47.06319" lon="-1.62652">
        <ele>16.34</ele>
        <time>2014-09-07T08:18:18Z</time>
      </trkpt>
      <trkpt lat="47.06332" lon="-1.62673">
        <ele>16.79</ele>
        <time>2014-09-07T08:18:23Z</time>
      </trkpt>
      <trkpt lat="47.06343" lon="-1.62696">
        <ele>17.02</ele>
        <time>2014-09-07T08:18:28Z</time>
      </trkpt>
      <trkpt lat="47.06351" lon="-1.62722">
        <ele>16.46</ele>
        <time>2014-09-07T08:18:33Z</time>
      </trkpt>
      <trkpt lat="47.06362" lon="-1.62746">
        <ele>16.04</ele>
        <time>2014-09-07T08:18:38Z</time>
      </trkpt>
      <trkpt lat="47.06375" lon="-1.6277">
        <ele>16.03</ele>
        <time>2014-09-07T08:18:43Z</time>
      </trkpt>
      <trkpt lat="47.06386" lon="-1.62793">
        <ele>15.74</ele>
        <time>2014-09-07T08:18:48Z</time>
      </trkpt>
      <trkpt lat="47.06398" lon="-1.62815">
        <ele>16.02</ele>
        <time>2014-09-07T08:18:53Z</time>
      </trkpt>
      <trkpt lat="47.0641" lon="-1.62838">
        <ele>15.53</ele>
        <time>2014-09-07T08:18:58Z</time>
      </trkpt>
      <trkpt lat="47.06422" lon="-1.62861">
        <ele>15.23</ele>
        <time>2014-09-07T08:19:03Z</time>
      </trkpt>
      <trkpt lat="47.06434" lon="-1.62884">
        <ele>15.91</ele>
        <time>2014-09-07T08:19:08Z</time>
      </trkpt>
      <trkpt lat="47.06446" lon="-1.62908">
        <ele>16.02</ele>
        <time>2014-09-07T08:19:13Z</time>
      </trkpt>
      <trkpt lat="47.06457" lon="-1.6293">
        <ele>16.03</ele>
        <time>2014-09-07T08:19:18Z</time>
      </trkpt>
      <trkpt lat="47.06469" lon="-1.62954">
        <ele>16.03</ele>
        <time>2014-09-07T08:19:24Z</time>
      </trkpt>
      <trkpt lat="47.06462" lon="-1.6298">
        <ele>16.14</ele>
        <time>2014-09-07T08:19:44Z</time>
      </trkpt>
      <trkpt lat="47.06458" lon="-1.63008">
        <ele>16.03</ele>
        <time>2014-09-07T08:19:50Z</time>
      </trkpt>
      <trkpt lat="47.06472" lon="-1.63031">
        <ele>16.09</ele>
        <time>2014-09-07T08:19:54Z</time>
      </trkpt>
      <trkpt lat="47.06484" lon="-1.63052">
        <ele>16.03</ele>
        <time>2014-09-07T08:19:59Z</time>
      </trkpt>
      <trkpt lat="47.06495" lon="-1.63078">
        <ele>16.03</ele>
        <time>2014-09-07T08:20:06Z</time>
      </trkpt>
      <trkpt lat="47.06506" lon="-1.63101">
        <ele>15.96</ele>
        <time>2014-09-07T08:20:14Z</time>
      </trkpt>
      <trkpt lat="47.06524" lon="-1.63114">
        <ele>16.96</ele>
        <time>2014-09-07T08:20:23Z</time>
      </trkpt>
      <trkpt lat="47.0654" lon="-1.63132">
        <ele>16.28</ele>
        <time>2014-09-07T08:20:30Z</time>
      </trkpt>
      <trkpt lat="47.06557" lon="-1.63144">
        <ele>16.97</ele>
        <time>2014-09-07T08:20:36Z</time>
      </trkpt>
      <trkpt lat="47.06576" lon="-1.63147">
        <ele>17.37</ele>
        <time>2014-09-07T08:20:42Z</time>
      </trkpt>
      <trkpt lat="47.06594" lon="-1.63146">
        <ele>18</ele>
        <time>2014-09-07T08:20:48Z</time>
      </trkpt>
      <trkpt lat="47.06614" lon="-1.63146">
        <ele>17.53</ele>
        <time>2014-09-07T08:20:54Z</time>
      </trkpt>
      <trkpt lat="47.06636" lon="-1.63146">
        <ele>17.03</ele>
        <time>2014-09-07T08:21:00Z</time>
      </trkpt>
      <trkpt lat="47.06654" lon="-1.63145">
        <ele>17.03</ele>
        <time>2014-09-07T08:21:05Z</time>
      </trkpt>
      <trkpt lat="47.06675" lon="-1.63141">
        <ele>16.15</ele>
        <time>2014-09-07T08:21:11Z</time>
      </trkpt>
      <trkpt lat="47.06696" lon="-1.63136">
        <ele>16.03</ele>
        <time>2014-09-07T08:21:17Z</time>
      </trkpt>
      <trkpt lat="47.06714" lon="-1.63131">
        <ele>16.03</ele>
        <time>2014-09-07T08:21:22Z</time>
      </trkpt>
      <trkpt lat="47.06733" lon="-1.63125">
        <ele>16.03</ele>
        <time>2014-09-07T08:21:27Z</time>
      </trkpt>
      <trkpt lat="47.06753" lon="-1.6312">
        <ele>16.4</ele>
        <time>2014-09-07T08:21:32Z</time>
      </trkpt>
      <trkpt lat="47.06772" lon="-1.63114">
        <ele>17.01</ele>
        <time>2014-09-07T08:21:37Z</time>
      </trkpt>
      <trkpt lat="47.06792" lon="-1.63109">
        <ele>16.68</ele>
        <time>2014-09-07T08:21:42Z</time>
      </trkpt>
      <trkpt lat="47.06812" lon="-1.63105">
        <ele>17.02</ele>
        <time>2014-09-07T08:21:47Z</time>
      </trkpt>
      <trkpt lat="47.06832" lon="-1.63103">
        <ele>17.9</ele>
        <time>2014-09-07T08:21:52Z</time>
      </trkpt>
      <trkpt lat="47.06851" lon="-1.63102">
        <ele>16.3</ele>
        <time>2014-09-07T08:21:57Z</time>
      </trkpt>
      <trkpt lat="47.06871" lon="-1.63101">
        <ele>15.53</ele>
        <time>2014-09-07T08:22:02Z</time>
      </trkpt>
      <trkpt lat="47.0689" lon="-1.63102">
        <ele>15.04</ele>
        <time>2014-09-07T08:22:07Z</time>
      </trkpt>
      <trkpt lat="47.06908" lon="-1.63103">
        <ele>14.53</ele>
        <time>2014-09-07T08:22:12Z</time>
      </trkpt>
      <trkpt lat="47.06927" lon="-1.6311">
        <ele>13.47</ele>
        <time>2014-09-07T08:22:18Z</time>
      </trkpt>
      <trkpt lat="47.06942" lon="-1.63129">
        <ele>13.53</ele>
        <time>2014-09-07T08:22:24Z</time>
      </trkpt>
      <trkpt lat="47.06957" lon="-1.63148">
        <ele>13.47</ele>
        <time>2014-09-07T08:22:30Z</time>
      </trkpt>
      <trkpt lat="47.06972" lon="-1.63165">
        <ele>13.29</ele>
        <time>2014-09-07T08:22:35Z</time>
      </trkpt>
      <trkpt lat="47.06987" lon="-1.63182">
        <ele>13.03</ele>
        <time>2014-09-07T08:22:40Z</time>
      </trkpt>
      <trkpt lat="47.07003" lon="-1.63197">
        <ele>13.53</ele>
        <time>2014-09-07T08:22:46Z</time>
      </trkpt>
      <trkpt lat="47.07016" lon="-1.63179">
        <ele>13.03</ele>
        <time>2014-09-07T08:22:55Z</time>
      </trkpt>
      <trkpt lat="47.07027" lon="-1.63155">
        <ele>12.06</ele>
        <time>2014-09-07T08:23:01Z</time>
      </trkpt>
      <trkpt lat="47.07039" lon="-1.63133">
        <ele>12.03</ele>
        <time>2014-09-07T08:23:07Z</time>
      </trkpt>
      <trkpt lat="47.07058" lon="-1.63132">
        <ele>12.9</ele>
        <time>2014-09-07T08:23:25Z</time>
      </trkpt>
      <trkpt lat="47.0707" lon="-1.63155">
        <ele>14.95</ele>
        <time>2014-09-07T08:23:32Z</time>
      </trkpt>
      <trkpt lat="47.07087" lon="-1.63166">
        <ele>13.9</ele>
        <time>2014-09-07T08:23:41Z</time>
      </trkpt>
      <trkpt lat="47.07089" lon="-1.63195">
        <ele>15.03</ele>
        <time>2014-09-07T08:24:42Z</time>
      </trkpt>
      <trkpt lat="47.07085" lon="-1.63223">
        <ele>14.53</ele>
        <time>2014-09-07T08:24:49Z</time>
      </trkpt>
      <trkpt lat="47.07082" lon="-1.63253">
        <ele>15.77</ele>
        <time>2014-09-07T08:24:55Z</time>
      </trkpt>
      <trkpt lat="47.07075" lon="-1.6328">
        <ele>15.05</ele>
        <time>2014-09-07T08:25:00Z</time>
      </trkpt>
      <trkpt lat="47.07065" lon="-1.63305">
        <ele>14.65</ele>
        <time>2014-09-07T08:25:05Z</time>
      </trkpt>
      <trkpt lat="47.07053" lon="-1.63326">
        <ele>15.88</ele>
        <time>2014-09-07T08:25:09Z</time>
      </trkpt>
      <trkpt lat="47.07034" lon="-1.63345">
        <ele>16.02</ele>
        <time>2014-09-07T08:25:14Z</time>
      </trkpt>
      <trkpt lat="47.0702" lon="-1.63361">
        <ele>16.03</ele>
        <time>2014-09-07T08:25:18Z</time>
      </trkpt>
      <trkpt lat="47.07005" lon="-1.63377">
        <ele>15.78</ele>
        <time>2014-09-07T08:25:22Z</time>
      </trkpt>
      <trkpt lat="47.06988" lon="-1.63393">
        <ele>15.51</ele>
        <time>2014-09-07T08:25:26Z</time>
      </trkpt>
      <trkpt lat="47.06971" lon="-1.63411">
        <ele>15.49</ele>
        <time>2014-09-07T08:25:30Z</time>
      </trkpt>
      <trkpt lat="47.06954" lon="-1.63427">
        <ele>15.49</ele>
        <time>2014-09-07T08:25:34Z</time>
      </trkpt>
      <trkpt lat="47.06937" lon="-1.63439">
        <ele>15.99</ele>
        <time>2014-09-07T08:25:38Z</time>
      </trkpt>
      <trkpt lat="47.06919" lon="-1.63449">
        <ele>15.96</ele>
        <time>2014-09-07T08:25:42Z</time>
      </trkpt>
      <trkpt lat="47.06901" lon="-1.63462">
        <ele>15.52</ele>
        <time>2014-09-07T08:25:46Z</time>
      </trkpt>
      <trkpt lat="47.06887" lon="-1.63483">
        <ele>13.68</ele>
        <time>2014-09-07T08:25:50Z</time>
      </trkpt>
      <trkpt lat="47.06875" lon="-1.63507">
        <ele>13.07</ele>
        <time>2014-09-07T08:25:54Z</time>
      </trkpt>
      <trkpt lat="47.06868" lon="-1.63534">
        <ele>13.03</ele>
        <time>2014-09-07T08:25:58Z</time>
      </trkpt>
      <trkpt lat="47.06864" lon="-1.63563">
        <ele>13.03</ele>
        <time>2014-09-07T08:26:02Z</time>
      </trkpt>
      <trkpt lat="47.0686" lon="-1.63591">
        <ele>13.03</ele>
        <time>2014-09-07T08:26:06Z</time>
      </trkpt>
      <trkpt lat="47.06857" lon="-1.63617">
        <ele>12.9</ele>
        <time>2014-09-07T08:26:10Z</time>
      </trkpt>
      <trkpt lat="47.06855" lon="-1.63646">
        <ele>12.08</ele>
        <time>2014-09-07T08:26:14Z</time>
      </trkpt>
      <trkpt lat="47.06852" lon="-1.63675">
        <ele>12.9</ele>
        <time>2014-09-07T08:26:18Z</time>
      </trkpt>
      <trkpt lat="47.06845" lon="-1.637">
        <ele>13.02</ele>
        <time>2014-09-07T08:26:22Z</time>
      </trkpt>
      <trkpt lat="47.06835" lon="-1.63725">
        <ele>13.03</ele>
        <time>2014-09-07T08:26:26Z</time>
      </trkpt>
      <trkpt lat="47.0682" lon="-1.63743">
        <ele>13.78</ele>
        <time>2014-09-07T08:26:30Z</time>
      </trkpt>
      <trkpt lat="47.06803" lon="-1.6376">
        <ele>14.01</ele>
        <time>2014-09-07T08:26:34Z</time>
      </trkpt>
      <trkpt lat="47.06786" lon="-1.63775">
        <ele>14.59</ele>
        <time>2014-09-07T08:26:38Z</time>
      </trkpt>
      <trkpt lat="47.06768" lon="-1.63793">
        <ele>14.25</ele>
        <time>2014-09-07T08:26:42Z</time>
      </trkpt>
      <trkpt lat="47.06749" lon="-1.63813">
        <ele>14.04</ele>
        <time>2014-09-07T08:26:46Z</time>
      </trkpt>
      <trkpt lat="47.06733" lon="-1.6383">
        <ele>13.09</ele>
        <time>2014-09-07T08:26:50Z</time>
      </trkpt>
      <trkpt lat="47.06736" lon="-1.63858">
        <ele>12.4</ele>
        <time>2014-09-07T08:26:59Z</time>
      </trkpt>
      <trkpt lat="47.0675" lon="-1.63876">
        <ele>12.04</ele>
        <time>2014-09-07T08:27:04Z</time>
      </trkpt>
      <trkpt lat="47.06765" lon="-1.63895">
        <ele>12.03</ele>
        <time>2014-09-07T08:27:09Z</time>
      </trkpt>
      <trkpt lat="47.0678" lon="-1.63915">
        <ele>12.03</ele>
        <time>2014-09-07T08:27:14Z</time>
      </trkpt>
      <trkpt lat="47.06796" lon="-1.63935">
        <ele>12.03</ele>
        <time>2014-09-07T08:27:19Z</time>
      </trkpt>
      <trkpt lat="47.06812" lon="-1.63955">
        <ele>12.78</ele>
        <time>2014-09-07T08:27:24Z</time>
      </trkpt>
      <trkpt lat="47.06827" lon="-1.63975">
        <ele>13.02</ele>
        <time>2014-09-07T08:27:29Z</time>
      </trkpt>
      <trkpt lat="47.06844" lon="-1.63994">
        <ele>12.78</ele>
        <time>2014-09-07T08:27:34Z</time>
      </trkpt>
      <trkpt lat="47.06861" lon="-1.64015">
        <ele>12.14</ele>
        <time>2014-09-07T08:27:39Z</time>
      </trkpt>
      <trkpt lat="47.06878" lon="-1.64034">
        <ele>12.03</ele>
        <time>2014-09-07T08:27:44Z</time>
      </trkpt>
      <trkpt lat="47.06894" lon="-1.64053">
        <ele>12.03</ele>
        <time>2014-09-07T08:27:49Z</time>
      </trkpt>
      <trkpt lat="47.06911" lon="-1.64073">
        <ele>12.03</ele>
        <time>2014-09-07T08:27:54Z</time>
      </trkpt>
      <trkpt lat="47.06926" lon="-1.6409">
        <ele>11.15</ele>
        <time>2014-09-07T08:27:58Z</time>
      </trkpt>
      <trkpt lat="47.06941" lon="-1.64107">
        <ele>11.03</ele>
        <time>2014-09-07T08:28:02Z</time>
      </trkpt>
      <trkpt lat="47.06955" lon="-1.64123">
        <ele>11.03</ele>
        <time>2014-09-07T08:28:06Z</time>
      </trkpt>
      <trkpt lat="47.06972" lon="-1.64143">
        <ele>11.03</ele>
        <time>2014-09-07T08:28:11Z</time>
      </trkpt>
      <trkpt lat="47.06989" lon="-1.64163">
        <ele>10.15</ele>
        <time>2014-09-07T08:28:16Z</time>
      </trkpt>
      <trkpt lat="47.07004" lon="-1.6418">
        <ele>10.03</ele>
        <time>2014-09-07T08:28:20Z</time>
      </trkpt>
      <trkpt lat="47.07018" lon="-1.64197">
        <ele>9.53</ele>
        <time>2014-09-07T08:28:24Z</time>
      </trkpt>
      <trkpt lat="47.07032" lon="-1.64213">
        <ele>9.93</ele>
        <time>2014-09-07T08:28:28Z</time>
      </trkpt>
      <trkpt lat="47.07049" lon="-1.64232">
        <ele>10.52</ele>
        <time>2014-09-07T08:28:33Z</time>
      </trkpt>
      <trkpt lat="47.07066" lon="-1.64252">
        <ele>10.98</ele>
        <time>2014-09-07T08:28:38Z</time>
      </trkpt>
      <trkpt lat="47.07082" lon="-1.6427">
        <ele>9.77</ele>
        <time>2014-09-07T08:28:43Z</time>
      </trkpt>
      <trkpt lat="47.07097" lon="-1.64287">
        <ele>9.05</ele>
        <time>2014-09-07T08:28:48Z</time>
      </trkpt>
      <trkpt lat="47.07114" lon="-1.64301">
        <ele>9.12</ele>
        <time>2014-09-07T08:28:53Z</time>
      </trkpt>
      <trkpt lat="47.07134" lon="-1.643">
        <ele>9.28</ele>
        <time>2014-09-07T08:28:58Z</time>
      </trkpt>
      <trkpt lat="47.07156" lon="-1.64306">
        <ele>9.88</ele>
        <time>2014-09-07T08:29:03Z</time>
      </trkpt>
      <trkpt lat="47.07173" lon="-1.64323">
        <ele>10.02</ele>
        <time>2014-09-07T08:29:08Z</time>
      </trkpt>
      <trkpt lat="47.07192" lon="-1.64341">
        <ele>10.03</ele>
        <time>2014-09-07T08:29:13Z</time>
      </trkpt>
      <trkpt lat="47.07208" lon="-1.64356">
        <ele>10.53</ele>
        <time>2014-09-07T08:29:17Z</time>
      </trkpt>
      <trkpt lat="47.07227" lon="-1.64373">
        <ele>9.54</ele>
        <time>2014-09-07T08:29:22Z</time>
      </trkpt>
      <trkpt lat="47.07245" lon="-1.64391">
        <ele>9.57</ele>
        <time>2014-09-07T08:29:27Z</time>
      </trkpt>
      <trkpt lat="47.07264" lon="-1.64409">
        <ele>9.51</ele>
        <time>2014-09-07T08:29:32Z</time>
      </trkpt>
      <trkpt lat="47.07281" lon="-1.64423">
        <ele>10.73</ele>
        <time>2014-09-07T08:29:37Z</time>
      </trkpt>
      <trkpt lat="47.07283" lon="-1.64454">
        <ele>10</ele>
        <time>2014-09-07T08:29:44Z</time>
      </trkpt>
      <trkpt lat="47.07267" lon="-1.64473">
        <ele>10.02</ele>
        <time>2014-09-07T08:29:48Z</time>
      </trkpt>
      <trkpt lat="47.07255" lon="-1.64495">
        <ele>10.15</ele>
        <time>2014-09-07T08:29:52Z</time>
      </trkpt>
      <trkpt lat="47.07244" lon="-1.64519">
        <ele>10</ele>
        <time>2014-09-07T08:29:57Z</time>
      </trkpt>
      <trkpt lat="47.07232" lon="-1.64545">
        <ele>10.03</ele>
        <time>2014-09-07T08:30:02Z</time>
      </trkpt>
      <trkpt lat="47.07222" lon="-1.6457">
        <ele>10.99</ele>
        <time>2014-09-07T08:30:07Z</time>
      </trkpt>
      <trkpt lat="47.07211" lon="-1.64591">
        <ele>11.99</ele>
        <time>2014-09-07T08:30:12Z</time>
      </trkpt>
      <trkpt lat="47.07196" lon="-1.64611">
        <ele>11.12</ele>
        <time>2014-09-07T08:30:19Z</time>
      </trkpt>
      <trkpt lat="47.07181" lon="-1.64631">
        <ele>10.84</ele>
        <time>2014-09-07T08:30:25Z</time>
      </trkpt>
      <trkpt lat="47.07165" lon="-1.6465">
        <ele>11.02</ele>
        <time>2014-09-07T08:30:31Z</time>
      </trkpt>
      <trkpt lat="47.0715" lon="-1.64671">
        <ele>11.9</ele>
        <time>2014-09-07T08:30:37Z</time>
      </trkpt>
      <trkpt lat="47.07136" lon="-1.6469">
        <ele>12.02</ele>
        <time>2014-09-07T08:30:42Z</time>
      </trkpt>
      <trkpt lat="47.07118" lon="-1.64684">
        <ele>11.6</ele>
        <time>2014-09-07T08:35:11Z</time>
      </trkpt>
      <trkpt lat="47.07101" lon="-1.6467">
        <ele>11.03</ele>
        <time>2014-09-07T08:35:17Z</time>
      </trkpt>
      <trkpt lat="47.07083" lon="-1.64654">
        <ele>10.06</ele>
        <time>2014-09-07T08:35:23Z</time>
      </trkpt>
      <trkpt lat="47.07067" lon="-1.6464">
        <ele>10.03</ele>
        <time>2014-09-07T08:35:28Z</time>
      </trkpt>
      <trkpt lat="47.0705" lon="-1.64625">
        <ele>10.03</ele>
        <time>2014-09-07T08:35:33Z</time>
      </trkpt>
      <trkpt lat="47.07032" lon="-1.64609">
        <ele>10.03</ele>
        <time>2014-09-07T08:35:38Z</time>
      </trkpt>
      <trkpt lat="47.07015" lon="-1.64594">
        <ele>10.03</ele>
        <time>2014-09-07T08:35:43Z</time>
      </trkpt>
      <trkpt lat="47.06998" lon="-1.64578">
        <ele>10.03</ele>
        <time>2014-09-07T08:35:48Z</time>
      </trkpt>
      <trkpt lat="47.06981" lon="-1.64563">
        <ele>10.03</ele>
        <time>2014-09-07T08:35:53Z</time>
      </trkpt>
      <trkpt lat="47.06966" lon="-1.64548">
        <ele>10.03</ele>
        <time>2014-09-07T08:36:01Z</time>
      </trkpt>
      <trkpt lat="47.06948" lon="-1.64554">
        <ele>8.65</ele>
        <time>2014-09-07T08:36:10Z</time>
      </trkpt>
      <trkpt lat="47.06931" lon="-1.64561">
        <ele>9.39</ele>
        <time>2014-09-07T08:36:15Z</time>
      </trkpt>
      <trkpt lat="47.06914" lon="-1.64573">
        <ele>12.13</ele>
        <time>2014-09-07T08:36:21Z</time>
      </trkpt>
      <trkpt lat="47.06902" lon="-1.64597">
        <ele>11.04</ele>
        <time>2014-09-07T08:36:27Z</time>
      </trkpt>
      <trkpt lat="47.06888" lon="-1.64617">
        <ele>14.27</ele>
        <time>2014-09-07T08:36:35Z</time>
      </trkpt>
      <trkpt lat="47.06877" lon="-1.64639">
        <ele>12.04</ele>
        <time>2014-09-07T08:36:45Z</time>
      </trkpt>
      <trkpt lat="47.06859" lon="-1.6465">
        <ele>11.62</ele>
        <time>2014-09-07T08:36:54Z</time>
      </trkpt>
      <trkpt lat="47.06842" lon="-1.64669">
        <ele>11.14</ele>
        <time>2014-09-07T08:37:00Z</time>
      </trkpt>
      <trkpt lat="47.0683" lon="-1.64692">
        <ele>11.16</ele>
        <time>2014-09-07T08:37:04Z</time>
      </trkpt>
      <trkpt lat="47.06817" lon="-1.6471">
        <ele>11.16</ele>
        <time>2014-09-07T08:37:08Z</time>
      </trkpt>
      <trkpt lat="47.06802" lon="-1.64726">
        <ele>11.03</ele>
        <time>2014-09-07T08:37:12Z</time>
      </trkpt>
      <trkpt lat="47.06787" lon="-1.64741">
        <ele>11.15</ele>
        <time>2014-09-07T08:37:16Z</time>
      </trkpt>
      <trkpt lat="47.0677" lon="-1.64754">
        <ele>10.16</ele>
        <time>2014-09-07T08:37:20Z</time>
      </trkpt>
      <trkpt lat="47.06753" lon="-1.64772">
        <ele>11.87</ele>
        <time>2014-09-07T08:37:25Z</time>
      </trkpt>
      <trkpt lat="47.06733" lon="-1.64774">
        <ele>13.01</ele>
        <time>2014-09-07T08:37:32Z</time>
      </trkpt>
      <trkpt lat="47.06715" lon="-1.64758">
        <ele>12.28</ele>
        <time>2014-09-07T08:37:38Z</time>
      </trkpt>
      <trkpt lat="47.06697" lon="-1.64742">
        <ele>11.53</ele>
        <time>2014-09-07T08:37:44Z</time>
      </trkpt>
      <trkpt lat="47.06679" lon="-1.64726">
        <ele>11.03</ele>
        <time>2014-09-07T08:37:50Z</time>
      </trkpt>
      <trkpt lat="47.06661" lon="-1.64711">
        <ele>10.09</ele>
        <time>2014-09-07T08:37:55Z</time>
      </trkpt>
      <trkpt lat="47.06645" lon="-1.64696">
        <ele>9.15</ele>
        <time>2014-09-07T08:38:00Z</time>
      </trkpt>
      <trkpt lat="47.06627" lon="-1.64694">
        <ele>9.03</ele>
        <time>2014-09-07T08:38:05Z</time>
      </trkpt>
      <trkpt lat="47.06613" lon="-1.64718">
        <ele>9.96</ele>
        <time>2014-09-07T08:38:10Z</time>
      </trkpt>
      <trkpt lat="47.066" lon="-1.64743">
        <ele>9.09</ele>
        <time>2014-09-07T08:38:15Z</time>
      </trkpt>
      <trkpt lat="47.06587" lon="-1.64765">
        <ele>9.28</ele>
        <time>2014-09-07T08:38:20Z</time>
      </trkpt>
      <trkpt lat="47.06573" lon="-1.64787">
        <ele>9.03</ele>
        <time>2014-09-07T08:38:25Z</time>
      </trkpt>
      <trkpt lat="47.06559" lon="-1.64812">
        <ele>9.03</ele>
        <time>2014-09-07T08:38:30Z</time>
      </trkpt>
      <trkpt lat="47.06545" lon="-1.64837">
        <ele>8.06</ele>
        <time>2014-09-07T08:38:35Z</time>
      </trkpt>
      <trkpt lat="47.06532" lon="-1.64861">
        <ele>9</ele>
        <time>2014-09-07T08:38:40Z</time>
      </trkpt>
      <trkpt lat="47.06516" lon="-1.64876">
        <ele>10.03</ele>
        <time>2014-09-07T08:38:51Z</time>
      </trkpt>
      <trkpt lat="47.06504" lon="-1.64897">
        <ele>10.21</ele>
        <time>2014-09-07T08:38:57Z</time>
      </trkpt>
      <trkpt lat="47.0649" lon="-1.64918">
        <ele>11</ele>
        <time>2014-09-07T08:39:03Z</time>
      </trkpt>
      <trkpt lat="47.06477" lon="-1.6494">
        <ele>10.23</ele>
        <time>2014-09-07T08:39:11Z</time>
      </trkpt>
      <trkpt lat="47.06465" lon="-1.64961">
        <ele>10.78</ele>
        <time>2014-09-07T08:39:16Z</time>
      </trkpt>
      <trkpt lat="47.06453" lon="-1.64981">
        <ele>10.99</ele>
        <time>2014-09-07T08:39:21Z</time>
      </trkpt>
      <trkpt lat="47.0644" lon="-1.65003">
        <ele>11.02</ele>
        <time>2014-09-07T08:39:26Z</time>
      </trkpt>
      <trkpt lat="47.06426" lon="-1.65025">
        <ele>10.53</ele>
        <time>2014-09-07T08:39:31Z</time>
      </trkpt>
      <trkpt lat="47.06412" lon="-1.65049">
        <ele>10.23</ele>
        <time>2014-09-07T08:39:36Z</time>
      </trkpt>
      <trkpt lat="47.064" lon="-1.65069">
        <ele>10.04</ele>
        <time>2014-09-07T08:39:40Z</time>
      </trkpt>
      <trkpt lat="47.06388" lon="-1.65089">
        <ele>10.03</ele>
        <time>2014-09-07T08:39:44Z</time>
      </trkpt>
      <trkpt lat="47.06376" lon="-1.6511">
        <ele>10.03</ele>
        <time>2014-09-07T08:39:48Z</time>
      </trkpt>
      <trkpt lat="47.06364" lon="-1.65131">
        <ele>10.46</ele>
        <time>2014-09-07T08:39:52Z</time>
      </trkpt>
      <trkpt lat="47.06351" lon="-1.65151">
        <ele>10.05</ele>
        <time>2014-09-07T08:39:56Z</time>
      </trkpt>
      <trkpt lat="47.06338" lon="-1.65173">
        <ele>10.03</ele>
        <time>2014-09-07T08:40:00Z</time>
      </trkpt>
      <trkpt lat="47.06326" lon="-1.65195">
        <ele>9.09</ele>
        <time>2014-09-07T08:40:04Z</time>
      </trkpt>
      <trkpt lat="47.06314" lon="-1.65216">
        <ele>9.03</ele>
        <time>2014-09-07T08:40:08Z</time>
      </trkpt>
      <trkpt lat="47.06301" lon="-1.65238">
        <ele>9.9</ele>
        <time>2014-09-07T08:40:12Z</time>
      </trkpt>
      <trkpt lat="47.06287" lon="-1.6526">
        <ele>10.02</ele>
        <time>2014-09-07T08:40:16Z</time>
      </trkpt>
      <trkpt lat="47.06274" lon="-1.6528">
        <ele>10.03</ele>
        <time>2014-09-07T08:40:20Z</time>
      </trkpt>
      <trkpt lat="47.06264" lon="-1.65303">
        <ele>10.03</ele>
        <time>2014-09-07T08:40:24Z</time>
      </trkpt>
      <trkpt lat="47.06249" lon="-1.65326">
        <ele>10.03</ele>
        <time>2014-09-07T08:40:29Z</time>
      </trkpt>
      <trkpt lat="47.06234" lon="-1.65341">
        <ele>10.78</ele>
        <time>2014-09-07T08:40:33Z</time>
      </trkpt>
      <trkpt lat="47.06218" lon="-1.65352">
        <ele>11.01</ele>
        <time>2014-09-07T08:40:37Z</time>
      </trkpt>
      <trkpt lat="47.06202" lon="-1.65365">
        <ele>12.28</ele>
        <time>2014-09-07T08:40:41Z</time>
      </trkpt>
      <trkpt lat="47.06185" lon="-1.65376">
        <ele>14.6</ele>
        <time>2014-09-07T08:40:45Z</time>
      </trkpt>
      <trkpt lat="47.06166" lon="-1.65387">
        <ele>15.51</ele>
        <time>2014-09-07T08:40:50Z</time>
      </trkpt>
      <trkpt lat="47.0615" lon="-1.65401">
        <ele>14.58</ele>
        <time>2014-09-07T08:40:56Z</time>
      </trkpt>
      <trkpt lat="47.0614" lon="-1.65423">
        <ele>13.09</ele>
        <time>2014-09-07T08:41:03Z</time>
      </trkpt>
      <trkpt lat="47.06134" lon="-1.65451">
        <ele>12.06</ele>
        <time>2014-09-07T08:41:08Z</time>
      </trkpt>
      <trkpt lat="47.06128" lon="-1.65479">
        <ele>11.09</ele>
        <time>2014-09-07T08:41:13Z</time>
      </trkpt>
      <trkpt lat="47.06121" lon="-1.65506">
        <ele>11.06</ele>
        <time>2014-09-07T08:41:18Z</time>
      </trkpt>
      <trkpt lat="47.06114" lon="-1.65538">
        <ele>11.03</ele>
        <time>2014-09-07T08:41:23Z</time>
      </trkpt>
      <trkpt lat="47.06105" lon="-1.65567">
        <ele>10.06</ele>
        <time>2014-09-07T08:41:28Z</time>
      </trkpt>
      <trkpt lat="47.06093" lon="-1.65594">
        <ele>10.03</ele>
        <time>2014-09-07T08:41:33Z</time>
      </trkpt>
      <trkpt lat="47.0608" lon="-1.6562">
        <ele>9.65</ele>
        <time>2014-09-07T08:41:38Z</time>
      </trkpt>
      <trkpt lat="47.06067" lon="-1.65645">
        <ele>10.01</ele>
        <time>2014-09-07T08:41:43Z</time>
      </trkpt>
      <trkpt lat="47.06054" lon="-1.6567">
        <ele>10.03</ele>
        <time>2014-09-07T08:41:48Z</time>
      </trkpt>
      <trkpt lat="47.06042" lon="-1.65694">
        <ele>10.03</ele>
        <time>2014-09-07T08:41:53Z</time>
      </trkpt>
      <trkpt lat="47.06029" lon="-1.65715">
        <ele>10.03</ele>
        <time>2014-09-07T08:41:58Z</time>
      </trkpt>
      <trkpt lat="47.06018" lon="-1.65738">
        <ele>9.67</ele>
        <time>2014-09-07T08:42:06Z</time>
      </trkpt>
      <trkpt lat="47.06034" lon="-1.65753">
        <ele>10.08</ele>
        <time>2014-09-07T08:42:29Z</time>
      </trkpt>
      <trkpt lat="47.06048" lon="-1.65771">
        <ele>9.09</ele>
        <time>2014-09-07T08:42:35Z</time>
      </trkpt>
      <trkpt lat="47.06062" lon="-1.65788">
        <ele>9.53</ele>
        <time>2014-09-07T08:42:40Z</time>
      </trkpt>
      <trkpt lat="47.06077" lon="-1.65806">
        <ele>9.04</ele>
        <time>2014-09-07T08:42:45Z</time>
      </trkpt>
      <trkpt lat="47.06092" lon="-1.65826">
        <ele>9.03</ele>
        <time>2014-09-07T08:42:50Z</time>
      </trkpt>
      <trkpt lat="47.06109" lon="-1.65846">
        <ele>9.03</ele>
        <time>2014-09-07T08:42:55Z</time>
      </trkpt>
      <trkpt lat="47.06126" lon="-1.65867">
        <ele>9.03</ele>
        <time>2014-09-07T08:43:00Z</time>
      </trkpt>
      <trkpt lat="47.06141" lon="-1.65885">
        <ele>9.03</ele>
        <time>2014-09-07T08:43:04Z</time>
      </trkpt>
      <trkpt lat="47.06158" lon="-1.65906">
        <ele>9.03</ele>
        <time>2014-09-07T08:43:09Z</time>
      </trkpt>
      <trkpt lat="47.06172" lon="-1.65924">
        <ele>9.03</ele>
        <time>2014-09-07T08:43:13Z</time>
      </trkpt>
      <trkpt lat="47.06187" lon="-1.65942">
        <ele>8.4</ele>
        <time>2014-09-07T08:43:17Z</time>
      </trkpt>
      <trkpt lat="47.06202" lon="-1.6596">
        <ele>8.11</ele>
        <time>2014-09-07T08:43:21Z</time>
      </trkpt>
      <trkpt lat="47.06216" lon="-1.65977">
        <ele>8.03</ele>
        <time>2014-09-07T08:43:25Z</time>
      </trkpt>
      <trkpt lat="47.06231" lon="-1.65995">
        <ele>7.53</ele>
        <time>2014-09-07T08:43:29Z</time>
      </trkpt>
      <trkpt lat="47.06246" lon="-1.66014">
        <ele>7.06</ele>
        <time>2014-09-07T08:43:33Z</time>
      </trkpt>
      <trkpt lat="47.0626" lon="-1.66032">
        <ele>6.28</ele>
        <time>2014-09-07T08:43:37Z</time>
      </trkpt>
      <trkpt lat="47.06275" lon="-1.6605">
        <ele>6.98</ele>
        <time>2014-09-07T08:43:41Z</time>
      </trkpt>
      <trkpt lat="47.06293" lon="-1.66071">
        <ele>7.09</ele>
        <time>2014-09-07T08:43:46Z</time>
      </trkpt>
      <trkpt lat="47.06308" lon="-1.6609">
        <ele>7.65</ele>
        <time>2014-09-07T08:43:50Z</time>
      </trkpt>
      <trkpt lat="47.06323" lon="-1.66109">
        <ele>8</ele>
        <time>2014-09-07T08:43:54Z</time>
      </trkpt>
      <trkpt lat="47.06337" lon="-1.66126">
        <ele>7.27</ele>
        <time>2014-09-07T08:43:58Z</time>
      </trkpt>
      <trkpt lat="47.06353" lon="-1.66146">
        <ele>7.23</ele>
        <time>2014-09-07T08:44:02Z</time>
      </trkpt>
      <trkpt lat="47.06369" lon="-1.66165">
        <ele>7.98</ele>
        <time>2014-09-07T08:44:06Z</time>
      </trkpt>
      <trkpt lat="47.06384" lon="-1.66184">
        <ele>8.02</ele>
        <time>2014-09-07T08:44:10Z</time>
      </trkpt>
      <trkpt lat="47.06398" lon="-1.66202">
        <ele>7.78</ele>
        <time>2014-09-07T08:44:14Z</time>
      </trkpt>
      <trkpt lat="47.06414" lon="-1.66221">
        <ele>7.14</ele>
        <time>2014-09-07T08:44:18Z</time>
      </trkpt>
      <trkpt lat="47.06429" lon="-1.66241">
        <ele>7.03</ele>
        <time>2014-09-07T08:44:22Z</time>
      </trkpt>
      <trkpt lat="47.06445" lon="-1.6626">
        <ele>7.03</ele>
        <time>2014-09-07T08:44:26Z</time>
      </trkpt>
      <trkpt lat="47.0646" lon="-1.6628">
        <ele>7.03</ele>
        <time>2014-09-07T08:44:30Z</time>
      </trkpt>
      <trkpt lat="47.06476" lon="-1.66299">
        <ele>6.28</ele>
        <time>2014-09-07T08:44:34Z</time>
      </trkpt>
      <trkpt lat="47.06492" lon="-1.66318">
        <ele>6.04</ele>
        <time>2014-09-07T08:44:38Z</time>
      </trkpt>
      <trkpt lat="47.06507" lon="-1.66338">
        <ele>6.03</ele>
        <time>2014-09-07T08:44:42Z</time>
      </trkpt>
      <trkpt lat="47.06521" lon="-1.66357">
        <ele>6.03</ele>
        <time>2014-09-07T08:44:46Z</time>
      </trkpt>
      <trkpt lat="47.06535" lon="-1.66375">
        <ele>5.53</ele>
        <time>2014-09-07T08:44:50Z</time>
      </trkpt>
      <trkpt lat="47.0655" lon="-1.66393">
        <ele>5.93</ele>
        <time>2014-09-07T08:44:54Z</time>
      </trkpt>
      <trkpt lat="47.06564" lon="-1.66411">
        <ele>5.52</ele>
        <time>2014-09-07T08:44:58Z</time>
      </trkpt>
      <trkpt lat="47.06579" lon="-1.6643">
        <ele>5.06</ele>
        <time>2014-09-07T08:45:02Z</time>
      </trkpt>
      <trkpt lat="47.06596" lon="-1.66451">
        <ele>5.06</ele>
        <time>2014-09-07T08:45:07Z</time>
      </trkpt>
      <trkpt lat="47.0661" lon="-1.66468">
        <ele>5.03</ele>
        <time>2014-09-07T08:45:12Z</time>
      </trkpt>
      <trkpt lat="47.06628" lon="-1.6648">
        <ele>4.53</ele>
        <time>2014-09-07T08:45:51Z</time>
      </trkpt>
      <trkpt lat="47.06646" lon="-1.66479">
        <ele>5.02</ele>
        <time>2014-09-07T08:45:58Z</time>
      </trkpt>
      <trkpt lat="47.06665" lon="-1.66481">
        <ele>6.03</ele>
        <time>2014-09-07T08:46:09Z</time>
      </trkpt>
      <trkpt lat="47.06684" lon="-1.66487">
        <ele>6.03</ele>
        <time>2014-09-07T08:46:21Z</time>
      </trkpt>
      <trkpt lat="47.06703" lon="-1.66495">
        <ele>6.03</ele>
        <time>2014-09-07T08:46:27Z</time>
      </trkpt>
      <trkpt lat="47.06721" lon="-1.66502">
        <ele>6.08</ele>
        <time>2014-09-07T08:46:34Z</time>
      </trkpt>
      <trkpt lat="47.0674" lon="-1.6651">
        <ele>5.28</ele>
        <time>2014-09-07T08:46:42Z</time>
      </trkpt>
      <trkpt lat="47.06758" lon="-1.66521">
        <ele>4.06</ele>
        <time>2014-09-07T08:46:50Z</time>
      </trkpt>
      <trkpt lat="47.06775" lon="-1.66533">
        <ele>3.04</ele>
        <time>2014-09-07T08:46:58Z</time>
      </trkpt>
      <trkpt lat="47.06792" lon="-1.66549">
        <ele>3.03</ele>
        <time>2014-09-07T08:47:09Z</time>
      </trkpt>
      <trkpt lat="47.06807" lon="-1.66565">
        <ele>2.03</ele>
        <time>2014-09-07T08:47:16Z</time>
      </trkpt>
      <trkpt lat="47.06823" lon="-1.66583">
        <ele>2.03</ele>
        <time>2014-09-07T08:47:23Z</time>
      </trkpt>
      <trkpt lat="47.06838" lon="-1.66599">
        <ele>2.03</ele>
        <time>2014-09-07T08:47:30Z</time>
      </trkpt>
      <trkpt lat="47.06853" lon="-1.66616">
        <ele>1.03</ele>
        <time>2014-09-07T08:47:39Z</time>
      </trkpt>
      <trkpt lat="47.06868" lon="-1.66633">
        <ele>2.03</ele>
        <time>2014-09-07T08:48:29Z</time>
      </trkpt>
      <trkpt lat="47.06884" lon="-1.66651">
        <ele>2.03</ele>
        <time>2014-09-07T08:48:36Z</time>
      </trkpt>
      <trkpt lat="47.06899" lon="-1.66669">
        <ele>2.03</ele>
        <time>2014-09-07T08:48:44Z</time>
      </trkpt>
      <trkpt lat="47.06915" lon="-1.66687">
        <ele>1.03</ele>
        <time>2014-09-07T08:48:52Z</time>
      </trkpt>
      <trkpt lat="47.0693" lon="-1.66705">
        <ele>2.02</ele>
        <time>2014-09-07T08:49:00Z</time>
      </trkpt>
      <trkpt lat="47.06946" lon="-1.66724">
        <ele>2.03</ele>
        <time>2014-09-07T08:49:08Z</time>
      </trkpt>
      <trkpt lat="47.0696" lon="-1.66741">
        <ele>1.56</ele>
        <time>2014-09-07T08:49:15Z</time>
      </trkpt>
      <trkpt lat="47.06974" lon="-1.66758">
        <ele>2.02</ele>
        <time>2014-09-07T08:49:22Z</time>
      </trkpt>
      <trkpt lat="47.06989" lon="-1.66775">
        <ele>2.03</ele>
        <time>2014-09-07T08:49:29Z</time>
      </trkpt>
      <trkpt lat="47.07003" lon="-1.66791">
        <ele>2.03</ele>
        <time>2014-09-07T08:49:36Z</time>
      </trkpt>
      <trkpt lat="47.07018" lon="-1.66808">
        <ele>2.03</ele>
        <time>2014-09-07T08:49:43Z</time>
      </trkpt>
      <trkpt lat="47.07032" lon="-1.66824">
        <ele>2.03</ele>
        <time>2014-09-07T08:49:50Z</time>
      </trkpt>
      <trkpt lat="47.07047" lon="-1.66842">
        <ele>2.03</ele>
        <time>2014-09-07T08:49:57Z</time>
      </trkpt>
      <trkpt lat="47.07062" lon="-1.6686">
        <ele>2.03</ele>
        <time>2014-09-07T08:50:04Z</time>
      </trkpt>
      <trkpt lat="47.07077" lon="-1.66877">
        <ele>2.03</ele>
        <time>2014-09-07T08:50:11Z</time>
      </trkpt>
      <trkpt lat="47.07092" lon="-1.66896">
        <ele>2.03</ele>
        <time>2014-09-07T08:50:19Z</time>
      </trkpt>
      <trkpt lat="47.07108" lon="-1.66914">
        <ele>2.03</ele>
        <time>2014-09-07T08:50:27Z</time>
      </trkpt>
      <trkpt lat="47.07122" lon="-1.66931">
        <ele>2.03</ele>
        <time>2014-09-07T08:50:34Z</time>
      </trkpt>
      <trkpt lat="47.07138" lon="-1.66949">
        <ele>2.03</ele>
        <time>2014-09-07T08:50:42Z</time>
      </trkpt>
      <trkpt lat="47.07154" lon="-1.66967">
        <ele>2.41</ele>
        <time>2014-09-07T08:50:50Z</time>
      </trkpt>
      <trkpt lat="47.07169" lon="-1.66983">
        <ele>2.03</ele>
        <time>2014-09-07T08:50:58Z</time>
      </trkpt>
      <trkpt lat="47.07187" lon="-1.66996">
        <ele>2.65</ele>
        <time>2014-09-07T08:51:08Z</time>
      </trkpt>
      <trkpt lat="47.07201" lon="-1.67016">
        <ele>3.02</ele>
        <time>2014-09-07T08:51:21Z</time>
      </trkpt>
      <trkpt lat="47.07187" lon="-1.66997">
        <ele>5.03</ele>
        <time>2014-09-07T08:54:26Z</time>
      </trkpt>
      <trkpt lat="47.07171" lon="-1.66982">
        <ele>5.99</ele>
        <time>2014-09-07T08:54:35Z</time>
      </trkpt>
      <trkpt lat="47.07154" lon="-1.66965">
        <ele>6.03</ele>
        <time>2014-09-07T08:54:41Z</time>
      </trkpt>
      <trkpt lat="47.0714" lon="-1.66949">
        <ele>6.03</ele>
        <time>2014-09-07T08:54:46Z</time>
      </trkpt>
      <trkpt lat="47.07126" lon="-1.66932">
        <ele>6.03</ele>
        <time>2014-09-07T08:54:51Z</time>
      </trkpt>
      <trkpt lat="47.07111" lon="-1.66916">
        <ele>6.03</ele>
        <time>2014-09-07T08:54:56Z</time>
      </trkpt>
      <trkpt lat="47.07097" lon="-1.66899">
        <ele>6.03</ele>
        <time>2014-09-07T08:55:01Z</time>
      </trkpt>
      <trkpt lat="47.07081" lon="-1.6688">
        <ele>6.06</ele>
        <time>2014-09-07T08:55:07Z</time>
      </trkpt>
      <trkpt lat="47.07065" lon="-1.66862">
        <ele>7.01</ele>
        <time>2014-09-07T08:55:13Z</time>
      </trkpt>
      <trkpt lat="47.0705" lon="-1.66843">
        <ele>7.03</ele>
        <time>2014-09-07T08:55:19Z</time>
      </trkpt>
      <trkpt lat="47.07036" lon="-1.66826">
        <ele>7.03</ele>
        <time>2014-09-07T08:55:25Z</time>
      </trkpt>
      <trkpt lat="47.0702" lon="-1.66807">
        <ele>7.28</ele>
        <time>2014-09-07T08:55:32Z</time>
      </trkpt>
      <trkpt lat="47.07003" lon="-1.66789">
        <ele>7.36</ele>
        <time>2014-09-07T08:55:39Z</time>
      </trkpt>
      <trkpt lat="47.06988" lon="-1.66772">
        <ele>7.14</ele>
        <time>2014-09-07T08:55:45Z</time>
      </trkpt>
      <trkpt lat="47.06973" lon="-1.66754">
        <ele>7.06</ele>
        <time>2014-09-07T08:55:51Z</time>
      </trkpt>
      <trkpt lat="47.06958" lon="-1.66736">
        <ele>7.03</ele>
        <time>2014-09-07T08:55:57Z</time>
      </trkpt>
      <trkpt lat="47.06942" lon="-1.66718">
        <ele>7.03</ele>
        <time>2014-09-07T08:56:03Z</time>
      </trkpt>
      <trkpt lat="47.06926" lon="-1.66699">
        <ele>7.03</ele>
        <time>2014-09-07T08:56:09Z</time>
      </trkpt>
      <trkpt lat="47.0691" lon="-1.66681">
        <ele>7.03</ele>
        <time>2014-09-07T08:56:15Z</time>
      </trkpt>
      <trkpt lat="47.06895" lon="-1.66663">
        <ele>6.28</ele>
        <time>2014-09-07T08:56:21Z</time>
      </trkpt>
      <trkpt lat="47.06879" lon="-1.66644">
        <ele>6.26</ele>
        <time>2014-09-07T08:56:27Z</time>
      </trkpt>
      <trkpt lat="47.06863" lon="-1.66625">
        <ele>6.97</ele>
        <time>2014-09-07T08:56:33Z</time>
      </trkpt>
      <trkpt lat="47.06847" lon="-1.66607">
        <ele>6.15</ele>
        <time>2014-09-07T08:56:39Z</time>
      </trkpt>
      <trkpt lat="47.0683" lon="-1.66589">
        <ele>6.03</ele>
        <time>2014-09-07T08:56:45Z</time>
      </trkpt>
      <trkpt lat="47.06815" lon="-1.66573">
        <ele>6.03</ele>
        <time>2014-09-07T08:56:50Z</time>
      </trkpt>
      <trkpt lat="47.06801" lon="-1.66557">
        <ele>6.21</ele>
        <time>2014-09-07T08:56:55Z</time>
      </trkpt>
      <trkpt lat="47.06786" lon="-1.66542">
        <ele>6.09</ele>
        <time>2014-09-07T08:57:00Z</time>
      </trkpt>
      <trkpt lat="47.06767" lon="-1.66527">
        <ele>6.67</ele>
        <time>2014-09-07T08:57:06Z</time>
      </trkpt>
      <trkpt lat="47.06748" lon="-1.66515">
        <ele>7.02</ele>
        <time>2014-09-07T08:57:12Z</time>
      </trkpt>
      <trkpt lat="47.06728" lon="-1.66506">
        <ele>6.78</ele>
        <time>2014-09-07T08:57:18Z</time>
      </trkpt>
      <trkpt lat="47.06708" lon="-1.665">
        <ele>6.15</ele>
        <time>2014-09-07T08:57:24Z</time>
      </trkpt>
      <trkpt lat="47.06688" lon="-1.66494">
        <ele>6.03</ele>
        <time>2014-09-07T08:57:30Z</time>
      </trkpt>
      <trkpt lat="47.06668" lon="-1.66488">
        <ele>6.03</ele>
        <time>2014-09-07T08:57:36Z</time>
      </trkpt>
      <trkpt lat="47.06648" lon="-1.66481">
        <ele>6.28</ele>
        <time>2014-09-07T08:57:42Z</time>
      </trkpt>
      <trkpt lat="47.06628" lon="-1.66478">
        <ele>6.76</ele>
        <time>2014-09-07T08:57:48Z</time>
      </trkpt>
      <trkpt lat="47.0661" lon="-1.66473">
        <ele>6.99</ele>
        <time>2014-09-07T08:57:54Z</time>
      </trkpt>
      <trkpt lat="47.06596" lon="-1.66454">
        <ele>7.03</ele>
        <time>2014-09-07T08:58:00Z</time>
      </trkpt>
      <trkpt lat="47.06582" lon="-1.66436">
        <ele>7.03</ele>
        <time>2014-09-07T08:58:05Z</time>
      </trkpt>
      <trkpt lat="47.06567" lon="-1.66416">
        <ele>7.03</ele>
        <time>2014-09-07T08:58:10Z</time>
      </trkpt>
      <trkpt lat="47.0655" lon="-1.66395">
        <ele>7.03</ele>
        <time>2014-09-07T08:58:15Z</time>
      </trkpt>
      <trkpt lat="47.06534" lon="-1.66375">
        <ele>6.96</ele>
        <time>2014-09-07T08:58:20Z</time>
      </trkpt>
      <trkpt lat="47.06518" lon="-1.66354">
        <ele>7.02</ele>
        <time>2014-09-07T08:58:25Z</time>
      </trkpt>
      <trkpt lat="47.06502" lon="-1.66334">
        <ele>7.03</ele>
        <time>2014-09-07T08:58:30Z</time>
      </trkpt>
      <trkpt lat="47.06486" lon="-1.66314">
        <ele>6.78</ele>
        <time>2014-09-07T08:58:35Z</time>
      </trkpt>
      <trkpt lat="47.0647" lon="-1.66293">
        <ele>7.02</ele>
        <time>2014-09-07T08:58:40Z</time>
      </trkpt>
      <trkpt lat="47.06454" lon="-1.66273">
        <ele>7.09</ele>
        <time>2014-09-07T08:58:45Z</time>
      </trkpt>
      <trkpt lat="47.06438" lon="-1.66252">
        <ele>7.53</ele>
        <time>2014-09-07T08:58:50Z</time>
      </trkpt>
      <trkpt lat="47.06421" lon="-1.66231">
        <ele>8.01</ele>
        <time>2014-09-07T08:58:55Z</time>
      </trkpt>
      <trkpt lat="47.06407" lon="-1.66214">
        <ele>8.03</ele>
        <time>2014-09-07T08:58:59Z</time>
      </trkpt>
      <trkpt lat="47.06391" lon="-1.66192">
        <ele>8.03</ele>
        <time>2014-09-07T08:59:04Z</time>
      </trkpt>
      <trkpt lat="47.06374" lon="-1.66172">
        <ele>8.03</ele>
        <time>2014-09-07T08:59:09Z</time>
      </trkpt>
      <trkpt lat="47.06357" lon="-1.66151">
        <ele>8.03</ele>
        <time>2014-09-07T08:59:14Z</time>
      </trkpt>
      <trkpt lat="47.06341" lon="-1.66131">
        <ele>8.03</ele>
        <time>2014-09-07T08:59:19Z</time>
      </trkpt>
      <trkpt lat="47.06324" lon="-1.66111">
        <ele>8.03</ele>
        <time>2014-09-07T08:59:24Z</time>
      </trkpt>
      <trkpt lat="47.06308" lon="-1.66091">
        <ele>8.03</ele>
        <time>2014-09-07T08:59:29Z</time>
      </trkpt>
      <trkpt lat="47.06292" lon="-1.66071">
        <ele>8.53</ele>
        <time>2014-09-07T08:59:34Z</time>
      </trkpt>
      <trkpt lat="47.06275" lon="-1.6605">
        <ele>9.01</ele>
        <time>2014-09-07T08:59:39Z</time>
      </trkpt>
      <trkpt lat="47.06258" lon="-1.66029">
        <ele>8.06</ele>
        <time>2014-09-07T08:59:44Z</time>
      </trkpt>
      <trkpt lat="47.0624" lon="-1.66008">
        <ele>8.9</ele>
        <time>2014-09-07T08:59:49Z</time>
      </trkpt>
      <trkpt lat="47.06226" lon="-1.6599">
        <ele>9.02</ele>
        <time>2014-09-07T08:59:53Z</time>
      </trkpt>
      <trkpt lat="47.06212" lon="-1.65973">
        <ele>9.9</ele>
        <time>2014-09-07T08:59:57Z</time>
      </trkpt>
      <trkpt lat="47.06198" lon="-1.65956">
        <ele>9.21</ele>
        <time>2014-09-07T09:00:01Z</time>
      </trkpt>
      <trkpt lat="47.06183" lon="-1.65938">
        <ele>9.04</ele>
        <time>2014-09-07T09:00:05Z</time>
      </trkpt>
      <trkpt lat="47.06169" lon="-1.6592">
        <ele>9.03</ele>
        <time>2014-09-07T09:00:09Z</time>
      </trkpt>
      <trkpt lat="47.06154" lon="-1.65903">
        <ele>9.03</ele>
        <time>2014-09-07T09:00:13Z</time>
      </trkpt>
      <trkpt lat="47.0614" lon="-1.65885">
        <ele>7.65</ele>
        <time>2014-09-07T09:00:17Z</time>
      </trkpt>
      <trkpt lat="47.06126" lon="-1.65868">
        <ele>7.07</ele>
        <time>2014-09-07T09:00:21Z</time>
      </trkpt>
      <trkpt lat="47.06111" lon="-1.65849">
        <ele>7.03</ele>
        <time>2014-09-07T09:00:25Z</time>
      </trkpt>
      <trkpt lat="47.06096" lon="-1.65832">
        <ele>7.03</ele>
        <time>2014-09-07T09:00:29Z</time>
      </trkpt>
      <trkpt lat="47.06079" lon="-1.65811">
        <ele>6.53</ele>
        <time>2014-09-07T09:00:34Z</time>
      </trkpt>
      <trkpt lat="47.06065" lon="-1.65794">
        <ele>6.06</ele>
        <time>2014-09-07T09:00:38Z</time>
      </trkpt>
      <trkpt lat="47.06048" lon="-1.65774">
        <ele>6.9</ele>
        <time>2014-09-07T09:00:43Z</time>
      </trkpt>
      <trkpt lat="47.06033" lon="-1.65753">
        <ele>7.4</ele>
        <time>2014-09-07T09:00:48Z</time>
      </trkpt>
      <trkpt lat="47.06018" lon="-1.65736">
        <ele>7.04</ele>
        <time>2014-09-07T09:00:53Z</time>
      </trkpt>
      <trkpt lat="47.05999" lon="-1.65747">
        <ele>7.03</ele>
        <time>2014-09-07T09:01:01Z</time>
      </trkpt>
      <trkpt lat="47.05983" lon="-1.65761">
        <ele>7.03</ele>
        <time>2014-09-07T09:01:06Z</time>
      </trkpt>
      <trkpt lat="47.05965" lon="-1.65774">
        <ele>6.53</ele>
        <time>2014-09-07T09:01:12Z</time>
      </trkpt>
      <trkpt lat="47.05947" lon="-1.65788">
        <ele>6.03</ele>
        <time>2014-09-07T09:01:18Z</time>
      </trkpt>
      <trkpt lat="47.05929" lon="-1.65798">
        <ele>6.03</ele>
        <time>2014-09-07T09:01:24Z</time>
      </trkpt>
      <trkpt lat="47.05909" lon="-1.65811">
        <ele>6.03</ele>
        <time>2014-09-07T09:01:30Z</time>
      </trkpt>
      <trkpt lat="47.05891" lon="-1.65824">
        <ele>6.03</ele>
        <time>2014-09-07T09:01:35Z</time>
      </trkpt>
      <trkpt lat="47.05873" lon="-1.65836">
        <ele>6.03</ele>
        <time>2014-09-07T09:01:40Z</time>
      </trkpt>
      <trkpt lat="47.05853" lon="-1.65825">
        <ele>6.78</ele>
        <time>2014-09-07T09:01:46Z</time>
      </trkpt>
      <trkpt lat="47.0584" lon="-1.65801">
        <ele>7.02</ele>
        <time>2014-09-07T09:01:52Z</time>
      </trkpt>
      <trkpt lat="47.05825" lon="-1.65779">
        <ele>6.54</ele>
        <time>2014-09-07T09:01:58Z</time>
      </trkpt>
      <trkpt lat="47.0581" lon="-1.65756">
        <ele>6.97</ele>
        <time>2014-09-07T09:02:04Z</time>
      </trkpt>
      <trkpt lat="47.05797" lon="-1.65738">
        <ele>7.02</ele>
        <time>2014-09-07T09:02:09Z</time>
      </trkpt>
      <trkpt lat="47.05784" lon="-1.65719">
        <ele>7.96</ele>
        <time>2014-09-07T09:02:14Z</time>
      </trkpt>
      <trkpt lat="47.05771" lon="-1.657">
        <ele>8.02</ele>
        <time>2014-09-07T09:02:19Z</time>
      </trkpt>
      <trkpt lat="47.05757" lon="-1.6568">
        <ele>7.15</ele>
        <time>2014-09-07T09:02:24Z</time>
      </trkpt>
      <trkpt lat="47.05742" lon="-1.65659">
        <ele>7.9</ele>
        <time>2014-09-07T09:02:29Z</time>
      </trkpt>
      <trkpt lat="47.05728" lon="-1.65638">
        <ele>7.27</ele>
        <time>2014-09-07T09:02:34Z</time>
      </trkpt>
      <trkpt lat="47.05714" lon="-1.65618">
        <ele>7.03</ele>
        <time>2014-09-07T09:02:39Z</time>
      </trkpt>
      <trkpt lat="47.05699" lon="-1.656">
        <ele>7.78</ele>
        <time>2014-09-07T09:02:44Z</time>
      </trkpt>
      <trkpt lat="47.05685" lon="-1.6558">
        <ele>8.02</ele>
        <time>2014-09-07T09:02:49Z</time>
      </trkpt>
      <trkpt lat="47.05671" lon="-1.6556">
        <ele>8.03</ele>
        <time>2014-09-07T09:02:54Z</time>
      </trkpt>
      <trkpt lat="47.05658" lon="-1.65541">
        <ele>8.03</ele>
        <time>2014-09-07T09:02:59Z</time>
      </trkpt>
      <trkpt lat="47.05643" lon="-1.6552">
        <ele>8.03</ele>
        <time>2014-09-07T09:03:05Z</time>
      </trkpt>
      <trkpt lat="47.05628" lon="-1.65497">
        <ele>8.9</ele>
        <time>2014-09-07T09:03:11Z</time>
      </trkpt>
      <trkpt lat="47.05614" lon="-1.65474">
        <ele>9.02</ele>
        <time>2014-09-07T09:03:17Z</time>
      </trkpt>
      <trkpt lat="47.056" lon="-1.65455">
        <ele>9.03</ele>
        <time>2014-09-07T09:03:22Z</time>
      </trkpt>
      <trkpt lat="47.05586" lon="-1.65436">
        <ele>9.03</ele>
        <time>2014-09-07T09:03:27Z</time>
      </trkpt>
      <trkpt lat="47.05572" lon="-1.65416">
        <ele>8.31</ele>
        <time>2014-09-07T09:03:32Z</time>
      </trkpt>
      <trkpt lat="47.05558" lon="-1.65396">
        <ele>8.03</ele>
        <time>2014-09-07T09:03:37Z</time>
      </trkpt>
      <trkpt lat="47.05544" lon="-1.65376">
        <ele>8.03</ele>
        <time>2014-09-07T09:03:42Z</time>
      </trkpt>
      <trkpt lat="47.0553" lon="-1.65355">
        <ele>8.03</ele>
        <time>2014-09-07T09:03:47Z</time>
      </trkpt>
      <trkpt lat="47.05514" lon="-1.65333">
        <ele>8.03</ele>
        <time>2014-09-07T09:03:52Z</time>
      </trkpt>
      <trkpt lat="47.055" lon="-1.65311">
        <ele>8.03</ele>
        <time>2014-09-07T09:03:57Z</time>
      </trkpt>
      <trkpt lat="47.05485" lon="-1.6529">
        <ele>8.03</ele>
        <time>2014-09-07T09:04:02Z</time>
      </trkpt>
      <trkpt lat="47.05471" lon="-1.6527">
        <ele>8.03</ele>
        <time>2014-09-07T09:04:07Z</time>
      </trkpt>
      <trkpt lat="47.05457" lon="-1.65248">
        <ele>8.96</ele>
        <time>2014-09-07T09:04:12Z</time>
      </trkpt>
      <trkpt lat="47.05443" lon="-1.65228">
        <ele>8.06</ele>
        <time>2014-09-07T09:04:17Z</time>
      </trkpt>
      <trkpt lat="47.05428" lon="-1.65208">
        <ele>8.03</ele>
        <time>2014-09-07T09:04:22Z</time>
      </trkpt>
      <trkpt lat="47.05415" lon="-1.65188">
        <ele>8.03</ele>
        <time>2014-09-07T09:04:27Z</time>
      </trkpt>
      <trkpt lat="47.05401" lon="-1.6517">
        <ele>7.53</ele>
        <time>2014-09-07T09:04:32Z</time>
      </trkpt>
      <trkpt lat="47.05387" lon="-1.65152">
        <ele>7.17</ele>
        <time>2014-09-07T09:04:37Z</time>
      </trkpt>
      <trkpt lat="47.05373" lon="-1.65134">
        <ele>7.03</ele>
        <time>2014-09-07T09:04:42Z</time>
      </trkpt>
      <trkpt lat="47.05359" lon="-1.65115">
        <ele>7.03</ele>
        <time>2014-09-07T09:04:47Z</time>
      </trkpt>
      <trkpt lat="47.05347" lon="-1.65094">
        <ele>7.03</ele>
        <time>2014-09-07T09:04:52Z</time>
      </trkpt>
      <trkpt lat="47.05337" lon="-1.6507">
        <ele>7.03</ele>
        <time>2014-09-07T09:04:57Z</time>
      </trkpt>
      <trkpt lat="47.05328" lon="-1.65044">
        <ele>7.03</ele>
        <time>2014-09-07T09:05:02Z</time>
      </trkpt>
      <trkpt lat="47.05318" lon="-1.65019">
        <ele>6.28</ele>
        <time>2014-09-07T09:05:07Z</time>
      </trkpt>
      <trkpt lat="47.05308" lon="-1.64994">
        <ele>6.6</ele>
        <time>2014-09-07T09:05:12Z</time>
      </trkpt>
      <trkpt lat="47.05302" lon="-1.64969">
        <ele>6.14</ele>
        <time>2014-09-07T09:05:17Z</time>
      </trkpt>
      <trkpt lat="47.05299" lon="-1.64938">
        <ele>6.56</ele>
        <time>2014-09-07T09:05:23Z</time>
      </trkpt>
      <trkpt lat="47.05291" lon="-1.64914">
        <ele>6.97</ele>
        <time>2014-09-07T09:05:32Z</time>
      </trkpt>
      <trkpt lat="47.05272" lon="-1.64905">
        <ele>7.28</ele>
        <time>2014-09-07T09:05:42Z</time>
      </trkpt>
      <trkpt lat="47.05255" lon="-1.64892">
        <ele>9.67</ele>
        <time>2014-09-07T09:05:48Z</time>
      </trkpt>
      <trkpt lat="47.0524" lon="-1.64874">
        <ele>9.26</ele>
        <time>2014-09-07T09:05:53Z</time>
      </trkpt>
      <trkpt lat="47.05226" lon="-1.64856">
        <ele>9.03</ele>
        <time>2014-09-07T09:05:58Z</time>
      </trkpt>
      <trkpt lat="47.05211" lon="-1.64839">
        <ele>9.78</ele>
        <time>2014-09-07T09:06:03Z</time>
      </trkpt>
      <trkpt lat="47.05195" lon="-1.64819">
        <ele>8.89</ele>
        <time>2014-09-07T09:06:10Z</time>
      </trkpt>
      <trkpt lat="47.0518" lon="-1.64798">
        <ele>6.09</ele>
        <time>2014-09-07T09:06:16Z</time>
      </trkpt>
      <trkpt lat="47.05165" lon="-1.64778">
        <ele>6.03</ele>
        <time>2014-09-07T09:06:21Z</time>
      </trkpt>
      <trkpt lat="47.05151" lon="-1.64758">
        <ele>6.03</ele>
        <time>2014-09-07T09:06:26Z</time>
      </trkpt>
      <trkpt lat="47.05137" lon="-1.64739">
        <ele>6.03</ele>
        <time>2014-09-07T09:06:31Z</time>
      </trkpt>
      <trkpt lat="47.05123" lon="-1.6472">
        <ele>6.78</ele>
        <time>2014-09-07T09:06:36Z</time>
      </trkpt>
      <trkpt lat="47.05108" lon="-1.64698">
        <ele>6.08</ele>
        <time>2014-09-07T09:06:41Z</time>
      </trkpt>
      <trkpt lat="47.05094" lon="-1.64677">
        <ele>6.03</ele>
        <time>2014-09-07T09:06:45Z</time>
      </trkpt>
      <trkpt lat="47.05083" lon="-1.64657">
        <ele>6.64</ele>
        <time>2014-09-07T09:06:52Z</time>
      </trkpt>
      <trkpt lat="47.05066" lon="-1.64669">
        <ele>5.59</ele>
        <time>2014-09-07T09:07:27Z</time>
      </trkpt>
      <trkpt lat="47.05052" lon="-1.64692">
        <ele>5.05</ele>
        <time>2014-09-07T09:07:34Z</time>
      </trkpt>
      <trkpt lat="47.05039" lon="-1.64711">
        <ele>5.03</ele>
        <time>2014-09-07T09:07:39Z</time>
      </trkpt>
      <trkpt lat="47.05026" lon="-1.6473">
        <ele>5.03</ele>
        <time>2014-09-07T09:07:44Z</time>
      </trkpt>
      <trkpt lat="47.05013" lon="-1.64749">
        <ele>4.28</ele>
        <time>2014-09-07T09:07:49Z</time>
      </trkpt>
      <trkpt lat="47.05" lon="-1.64768">
        <ele>4.03</ele>
        <time>2014-09-07T09:07:54Z</time>
      </trkpt>
      <trkpt lat="47.04987" lon="-1.64788">
        <ele>4.03</ele>
        <time>2014-09-07T09:07:59Z</time>
      </trkpt>
      <trkpt lat="47.04973" lon="-1.64808">
        <ele>3.78</ele>
        <time>2014-09-07T09:08:04Z</time>
      </trkpt>
      <trkpt lat="47.04959" lon="-1.64829">
        <ele>4.02</ele>
        <time>2014-09-07T09:08:09Z</time>
      </trkpt>
      <trkpt lat="47.04946" lon="-1.6485">
        <ele>3.15</ele>
        <time>2014-09-07T09:08:14Z</time>
      </trkpt>
      <trkpt lat="47.04928" lon="-1.64861">
        <ele>3.03</ele>
        <time>2014-09-07T09:08:21Z</time>
      </trkpt>
      <trkpt lat="47.04916" lon="-1.6484">
        <ele>3.78</ele>
        <time>2014-09-07T09:08:26Z</time>
      </trkpt>
      <trkpt lat="47.04903" lon="-1.64818">
        <ele>4.02</ele>
        <time>2014-09-07T09:08:32Z</time>
      </trkpt>
      <trkpt lat="47.04893" lon="-1.6479">
        <ele>4.03</ele>
        <time>2014-09-07T09:08:38Z</time>
      </trkpt>
      <trkpt lat="47.04892" lon="-1.6476">
        <ele>4.03</ele>
        <time>2014-09-07T09:08:43Z</time>
      </trkpt>
      <trkpt lat="47.04893" lon="-1.6473">
        <ele>4.15</ele>
        <time>2014-09-07T09:08:48Z</time>
      </trkpt>
      <trkpt lat="47.04893" lon="-1.647">
        <ele>4.9</ele>
        <time>2014-09-07T09:08:53Z</time>
      </trkpt>
      <trkpt lat="47.04887" lon="-1.64675">
        <ele>5.31</ele>
        <time>2014-09-07T09:08:59Z</time>
      </trkpt>
      <trkpt lat="47.04883" lon="-1.64645">
        <ele>5.83</ele>
        <time>2014-09-07T09:09:05Z</time>
      </trkpt>
      <trkpt lat="47.04881" lon="-1.64613">
        <ele>6.52</ele>
        <time>2014-09-07T09:09:11Z</time>
      </trkpt>
      <trkpt lat="47.04879" lon="-1.64585">
        <ele>7.51</ele>
        <time>2014-09-07T09:09:16Z</time>
      </trkpt>
      <trkpt lat="47.04877" lon="-1.64555">
        <ele>7.07</ele>
        <time>2014-09-07T09:09:21Z</time>
      </trkpt>
      <trkpt lat="47.04876" lon="-1.64526">
        <ele>6.93</ele>
        <time>2014-09-07T09:09:26Z</time>
      </trkpt>
      <trkpt lat="47.04869" lon="-1.64501">
        <ele>5.96</ele>
        <time>2014-09-07T09:09:32Z</time>
      </trkpt>
      <trkpt lat="47.04855" lon="-1.64483">
        <ele>6.09</ele>
        <time>2014-09-07T09:09:37Z</time>
      </trkpt>
      <trkpt lat="47.04841" lon="-1.64462">
        <ele>6.03</ele>
        <time>2014-09-07T09:09:42Z</time>
      </trkpt>
      <trkpt lat="47.04826" lon="-1.6444">
        <ele>6.03</ele>
        <time>2014-09-07T09:09:47Z</time>
      </trkpt>
      <trkpt lat="47.04811" lon="-1.64418">
        <ele>5.06</ele>
        <time>2014-09-07T09:09:52Z</time>
      </trkpt>
      <trkpt lat="47.04796" lon="-1.64397">
        <ele>5.84</ele>
        <time>2014-09-07T09:09:57Z</time>
      </trkpt>
      <trkpt lat="47.04783" lon="-1.64378">
        <ele>6.01</ele>
        <time>2014-09-07T09:10:01Z</time>
      </trkpt>
      <trkpt lat="47.04768" lon="-1.64357">
        <ele>6.09</ele>
        <time>2014-09-07T09:10:06Z</time>
      </trkpt>
      <trkpt lat="47.04754" lon="-1.64337">
        <ele>6.03</ele>
        <time>2014-09-07T09:10:11Z</time>
      </trkpt>
      <trkpt lat="47.04738" lon="-1.64319">
        <ele>6.9</ele>
        <time>2014-09-07T09:10:17Z</time>
      </trkpt>
      <trkpt lat="47.04728" lon="-1.64343">
        <ele>8.08</ele>
        <time>2014-09-07T09:10:28Z</time>
      </trkpt>
      <trkpt lat="47.04729" lon="-1.6437">
        <ele>8.03</ele>
        <time>2014-09-07T09:10:34Z</time>
      </trkpt>
      <trkpt lat="47.04719" lon="-1.64395">
        <ele>8.03</ele>
        <time>2014-09-07T09:10:40Z</time>
      </trkpt>
      <trkpt lat="47.04707" lon="-1.64419">
        <ele>6.17</ele>
        <time>2014-09-07T09:10:46Z</time>
      </trkpt>
      <trkpt lat="47.04693" lon="-1.64442">
        <ele>6.28</ele>
        <time>2014-09-07T09:10:52Z</time>
      </trkpt>
      <trkpt lat="47.04681" lon="-1.64462">
        <ele>6.03</ele>
        <time>2014-09-07T09:10:57Z</time>
      </trkpt>
      <trkpt lat="47.04669" lon="-1.64488">
        <ele>5.53</ele>
        <time>2014-09-07T09:11:02Z</time>
      </trkpt>
      <trkpt lat="47.04658" lon="-1.64514">
        <ele>5.04</ele>
        <time>2014-09-07T09:11:07Z</time>
      </trkpt>
      <trkpt lat="47.04648" lon="-1.64538">
        <ele>5.03</ele>
        <time>2014-09-07T09:11:12Z</time>
      </trkpt>
      <trkpt lat="47.04639" lon="-1.6456">
        <ele>5.99</ele>
        <time>2014-09-07T09:11:17Z</time>
      </trkpt>
      <trkpt lat="47.04627" lon="-1.64586">
        <ele>6.03</ele>
        <time>2014-09-07T09:11:23Z</time>
      </trkpt>
      <trkpt lat="47.04615" lon="-1.64611">
        <ele>5.28</ele>
        <time>2014-09-07T09:11:29Z</time>
      </trkpt>
      <trkpt lat="47.04603" lon="-1.64635">
        <ele>6.12</ele>
        <time>2014-09-07T09:11:35Z</time>
      </trkpt>
      <trkpt lat="47.0459" lon="-1.64658">
        <ele>8.2</ele>
        <time>2014-09-07T09:11:41Z</time>
      </trkpt>
      <trkpt lat="47.04577" lon="-1.64683">
        <ele>9.39</ele>
        <time>2014-09-07T09:11:47Z</time>
      </trkpt>
      <trkpt lat="47.04564" lon="-1.64701">
        <ele>8.15</ele>
        <time>2014-09-07T09:11:54Z</time>
      </trkpt>
      <trkpt lat="47.04546" lon="-1.64715">
        <ele>9.02</ele>
        <time>2014-09-07T09:12:01Z</time>
      </trkpt>
      <trkpt lat="47.04531" lon="-1.64737">
        <ele>8.04</ele>
        <time>2014-09-07T09:12:07Z</time>
      </trkpt>
      <trkpt lat="47.04516" lon="-1.64759">
        <ele>8.51</ele>
        <time>2014-09-07T09:12:13Z</time>
      </trkpt>
      <trkpt lat="47.0451" lon="-1.64784">
        <ele>6.2</ele>
        <time>2014-09-07T09:12:18Z</time>
      </trkpt>
      <trkpt lat="47.04498" lon="-1.64807">
        <ele>6.04</ele>
        <time>2014-09-07T09:12:22Z</time>
      </trkpt>
      <trkpt lat="47.04482" lon="-1.64829">
        <ele>4.75</ele>
        <time>2014-09-07T09:12:27Z</time>
      </trkpt>
      <trkpt lat="47.04468" lon="-1.64846">
        <ele>5.01</ele>
        <time>2014-09-07T09:12:31Z</time>
      </trkpt>
      <trkpt lat="47.04449" lon="-1.64858">
        <ele>4.15</ele>
        <time>2014-09-07T09:12:36Z</time>
      </trkpt>
      <trkpt lat="47.04431" lon="-1.64843">
        <ele>2.65</ele>
        <time>2014-09-07T09:12:42Z</time>
      </trkpt>
      <trkpt lat="47.04417" lon="-1.64826">
        <ele>1.76</ele>
        <time>2014-09-07T09:12:47Z</time>
      </trkpt>
      <trkpt lat="47.04402" lon="-1.64804">
        <ele>0.67</ele>
        <time>2014-09-07T09:12:52Z</time>
      </trkpt>
      <trkpt lat="47.04389" lon="-1.64784">
        <ele>1.02</ele>
        <time>2014-09-07T09:12:58Z</time>
      </trkpt>
      <trkpt lat="47.04375" lon="-1.64763">
        <ele>2.95</ele>
        <time>2014-09-07T09:13:04Z</time>
      </trkpt>
      <trkpt lat="47.04359" lon="-1.64742">
        <ele>4.01</ele>
        <time>2014-09-07T09:13:10Z</time>
      </trkpt>
      <trkpt lat="47.04346" lon="-1.64719">
        <ele>4.03</ele>
        <time>2014-09-07T09:13:16Z</time>
      </trkpt>
      <trkpt lat="47.04331" lon="-1.647">
        <ele>5.01</ele>
        <time>2014-09-07T09:13:23Z</time>
      </trkpt>
      <trkpt lat="47.04315" lon="-1.64682">
        <ele>5.96</ele>
        <time>2014-09-07T09:13:32Z</time>
      </trkpt>
      <trkpt lat="47.043" lon="-1.64662">
        <ele>5.84</ele>
        <time>2014-09-07T09:13:38Z</time>
      </trkpt>
      <trkpt lat="47.04286" lon="-1.64643">
        <ele>5.8</ele>
        <time>2014-09-07T09:13:43Z</time>
      </trkpt>
      <trkpt lat="47.04272" lon="-1.64623">
        <ele>5.96</ele>
        <time>2014-09-07T09:13:48Z</time>
      </trkpt>
      <trkpt lat="47.04258" lon="-1.64604">
        <ele>6.02</ele>
        <time>2014-09-07T09:13:52Z</time>
      </trkpt>
      <trkpt lat="47.04244" lon="-1.64582">
        <ele>6.03</ele>
        <time>2014-09-07T09:13:57Z</time>
      </trkpt>
      <trkpt lat="47.04229" lon="-1.64561">
        <ele>5.28</ele>
        <time>2014-09-07T09:14:02Z</time>
      </trkpt>
      <trkpt lat="47.04215" lon="-1.64541">
        <ele>4.53</ele>
        <time>2014-09-07T09:14:07Z</time>
      </trkpt>
      <trkpt lat="47.042" lon="-1.6452">
        <ele>4.79</ele>
        <time>2014-09-07T09:14:12Z</time>
      </trkpt>
      <trkpt lat="47.04187" lon="-1.64502">
        <ele>5.83</ele>
        <time>2014-09-07T09:14:17Z</time>
      </trkpt>
      <trkpt lat="47.04172" lon="-1.64482">
        <ele>6.03</ele>
        <time>2014-09-07T09:14:25Z</time>
      </trkpt>
      <trkpt lat="47.04156" lon="-1.64461">
        <ele>5.53</ele>
        <time>2014-09-07T09:14:31Z</time>
      </trkpt>
      <trkpt lat="47.04142" lon="-1.64441">
        <ele>5.04</ele>
        <time>2014-09-07T09:14:36Z</time>
      </trkpt>
      <trkpt lat="47.04127" lon="-1.6442">
        <ele>6</ele>
        <time>2014-09-07T09:14:41Z</time>
      </trkpt>
      <trkpt lat="47.04113" lon="-1.64399">
        <ele>6.03</ele>
        <time>2014-09-07T09:14:46Z</time>
      </trkpt>
      <trkpt lat="47.041" lon="-1.64376">
        <ele>5.09</ele>
        <time>2014-09-07T09:14:51Z</time>
      </trkpt>
      <trkpt lat="47.04088" lon="-1.64351">
        <ele>5.03</ele>
        <time>2014-09-07T09:14:56Z</time>
      </trkpt>
      <trkpt lat="47.04076" lon="-1.64324">
        <ele>4.09</ele>
        <time>2014-09-07T09:15:01Z</time>
      </trkpt>
      <trkpt lat="47.04066" lon="-1.64299">
        <ele>4.9</ele>
        <time>2014-09-07T09:15:05Z</time>
      </trkpt>
      <trkpt lat="47.04055" lon="-1.64277">
        <ele>5.02</ele>
        <time>2014-09-07T09:15:09Z</time>
      </trkpt>
      <trkpt lat="47.04042" lon="-1.64253">
        <ele>5.56</ele>
        <time>2014-09-07T09:15:14Z</time>
      </trkpt>
      <trkpt lat="47.04029" lon="-1.64234">
        <ele>6</ele>
        <time>2014-09-07T09:15:18Z</time>
      </trkpt>
      <trkpt lat="47.04016" lon="-1.64215">
        <ele>6.02</ele>
        <time>2014-09-07T09:15:22Z</time>
      </trkpt>
      <trkpt lat="47.04003" lon="-1.64195">
        <ele>6.9</ele>
        <time>2014-09-07T09:15:26Z</time>
      </trkpt>
      <trkpt lat="47.03987" lon="-1.64172">
        <ele>7.99</ele>
        <time>2014-09-07T09:15:31Z</time>
      </trkpt>
      <trkpt lat="47.03971" lon="-1.64152">
        <ele>8.02</ele>
        <time>2014-09-07T09:15:36Z</time>
      </trkpt>
      <trkpt lat="47.03954" lon="-1.64143">
        <ele>7.28</ele>
        <time>2014-09-07T09:15:40Z</time>
      </trkpt>
      <trkpt lat="47.03934" lon="-1.64135">
        <ele>7.5</ele>
        <time>2014-09-07T09:15:45Z</time>
      </trkpt>
      <trkpt lat="47.03917" lon="-1.64123">
        <ele>8.88</ele>
        <time>2014-09-07T09:15:50Z</time>
      </trkpt>
      <trkpt lat="47.03898" lon="-1.64111">
        <ele>8.62</ele>
        <time>2014-09-07T09:15:55Z</time>
      </trkpt>
      <trkpt lat="47.03879" lon="-1.64103">
        <ele>11</ele>
        <time>2014-09-07T09:16:01Z</time>
      </trkpt>
      <trkpt lat="47.03867" lon="-1.64081">
        <ele>13.03</ele>
        <time>2014-09-07T09:16:11Z</time>
      </trkpt>
      <trkpt lat="47.03849" lon="-1.64071">
        <ele>12.15</ele>
        <time>2014-09-07T09:16:20Z</time>
      </trkpt>
      <trkpt lat="47.03854" lon="-1.64044">
        <ele>9.29</ele>
        <time>2014-09-07T09:16:28Z</time>
      </trkpt>
      <trkpt lat="47.03854" lon="-1.64017">
        <ele>9.03</ele>
        <time>2014-09-07T09:16:34Z</time>
      </trkpt>
      <trkpt lat="47.03855" lon="-1.6399">
        <ele>8.97</ele>
        <time>2014-09-07T09:16:42Z</time>
      </trkpt>
      <trkpt lat="47.03842" lon="-1.63971">
        <ele>6.34</ele>
        <time>2014-09-07T09:16:47Z</time>
      </trkpt>
      <trkpt lat="47.03827" lon="-1.63951">
        <ele>8.04</ele>
        <time>2014-09-07T09:16:54Z</time>
      </trkpt>
      <trkpt lat="47.03829" lon="-1.63923">
        <ele>4.67</ele>
        <time>2014-09-07T09:17:00Z</time>
      </trkpt>
      <trkpt lat="47.03811" lon="-1.63913">
        <ele>3.64</ele>
        <time>2014-09-07T09:17:09Z</time>
      </trkpt>
      <trkpt lat="47.03793" lon="-1.63908">
        <ele>6.14</ele>
        <time>2014-09-07T09:17:16Z</time>
      </trkpt>
      <trkpt lat="47.03772" lon="-1.63903">
        <ele>9.4</ele>
        <time>2014-09-07T09:17:22Z</time>
      </trkpt>
      <trkpt lat="47.03751" lon="-1.639">
        <ele>10.73</ele>
        <time>2014-09-07T09:17:27Z</time>
      </trkpt>
      <trkpt lat="47.03732" lon="-1.63899">
        <ele>11.02</ele>
        <time>2014-09-07T09:17:32Z</time>
      </trkpt>
      <trkpt lat="47.03714" lon="-1.639">
        <ele>10.15</ele>
        <time>2014-09-07T09:17:37Z</time>
      </trkpt>
      <trkpt lat="47.03695" lon="-1.63907">
        <ele>8.65</ele>
        <time>2014-09-07T09:17:42Z</time>
      </trkpt>
      <trkpt lat="47.03675" lon="-1.63914">
        <ele>8.11</ele>
        <time>2014-09-07T09:17:47Z</time>
      </trkpt>
      <trkpt lat="47.03655" lon="-1.63919">
        <ele>7.15</ele>
        <time>2014-09-07T09:17:53Z</time>
      </trkpt>
      <trkpt lat="47.03635" lon="-1.63917">
        <ele>8.28</ele>
        <time>2014-09-07T09:17:58Z</time>
      </trkpt>
      <trkpt lat="47.03614" lon="-1.63913">
        <ele>8.28</ele>
        <time>2014-09-07T09:18:03Z</time>
      </trkpt>
      <trkpt lat="47.03593" lon="-1.63909">
        <ele>9.05</ele>
        <time>2014-09-07T09:18:09Z</time>
      </trkpt>
      <trkpt lat="47.03574" lon="-1.63906">
        <ele>8.78</ele>
        <time>2014-09-07T09:18:15Z</time>
      </trkpt>
      <trkpt lat="47.03555" lon="-1.63903">
        <ele>8.16</ele>
        <time>2014-09-07T09:18:22Z</time>
      </trkpt>
      <trkpt lat="47.03539" lon="-1.6392">
        <ele>5.16</ele>
        <time>2014-09-07T09:18:33Z</time>
      </trkpt>
      <trkpt lat="47.03522" lon="-1.63904">
        <ele>5.97</ele>
        <time>2014-09-07T09:18:38Z</time>
      </trkpt>
      <trkpt lat="47.03518" lon="-1.63875">
        <ele>6.02</ele>
        <time>2014-09-07T09:18:43Z</time>
      </trkpt>
      <trkpt lat="47.03523" lon="-1.6385">
        <ele>5.53</ele>
        <time>2014-09-07T09:18:48Z</time>
      </trkpt>
      <trkpt lat="47.03505" lon="-1.63831">
        <ele>11.08</ele>
        <time>2014-09-07T09:19:14Z</time>
      </trkpt>
      <trkpt lat="47.03494" lon="-1.63809">
        <ele>11.53</ele>
        <time>2014-09-07T09:19:19Z</time>
      </trkpt>
      <trkpt lat="47.03482" lon="-1.63785">
        <ele>6.73</ele>
        <time>2014-09-07T09:19:24Z</time>
      </trkpt>
      <trkpt lat="47.03475" lon="-1.63756">
        <ele>5.58</ele>
        <time>2014-09-07T09:19:29Z</time>
      </trkpt>
      <trkpt lat="47.03477" lon="-1.63727">
        <ele>5.06</ele>
        <time>2014-09-07T09:19:33Z</time>
      </trkpt>
      <trkpt lat="47.03479" lon="-1.63697">
        <ele>6.03</ele>
        <time>2014-09-07T09:19:38Z</time>
      </trkpt>
      <trkpt lat="47.0348" lon="-1.63665">
        <ele>6.56</ele>
        <time>2014-09-07T09:19:43Z</time>
      </trkpt>
      <trkpt lat="47.03479" lon="-1.63636">
        <ele>6.39</ele>
        <time>2014-09-07T09:19:48Z</time>
      </trkpt>
      <trkpt lat="47.03479" lon="-1.63607">
        <ele>3.63</ele>
        <time>2014-09-07T09:19:54Z</time>
      </trkpt>
      <trkpt lat="47.03479" lon="-1.63578">
        <ele>3.23</ele>
        <time>2014-09-07T09:19:59Z</time>
      </trkpt>
      <trkpt lat="47.0348" lon="-1.63547">
        <ele>3.03</ele>
        <time>2014-09-07T09:20:04Z</time>
      </trkpt>
      <trkpt lat="47.03481" lon="-1.63518">
        <ele>4.21</ele>
        <time>2014-09-07T09:20:08Z</time>
      </trkpt>
      <trkpt lat="47.0348" lon="-1.63488">
        <ele>3.54</ele>
        <time>2014-09-07T09:20:12Z</time>
      </trkpt>
      <trkpt lat="47.03477" lon="-1.63459">
        <ele>3.43</ele>
        <time>2014-09-07T09:20:16Z</time>
      </trkpt>
      <trkpt lat="47.03472" lon="-1.6343">
        <ele>2.3</ele>
        <time>2014-09-07T09:20:20Z</time>
      </trkpt>
      <trkpt lat="47.03465" lon="-1.63401">
        <ele>2.5</ele>
        <time>2014-09-07T09:20:25Z</time>
      </trkpt>
      <trkpt lat="47.03458" lon="-1.63373">
        <ele>2.66</ele>
        <time>2014-09-07T09:20:31Z</time>
      </trkpt>
      <trkpt lat="47.03452" lon="-1.63348">
        <ele>4.23</ele>
        <time>2014-09-07T09:20:36Z</time>
      </trkpt>
      <trkpt lat="47.03447" lon="-1.63321">
        <ele>6.91</ele>
        <time>2014-09-07T09:20:41Z</time>
      </trkpt>
      <trkpt lat="47.03439" lon="-1.63292">
        <ele>5.96</ele>
        <time>2014-09-07T09:20:45Z</time>
      </trkpt>
      <trkpt lat="47.0343" lon="-1.63264">
        <ele>5.52</ele>
        <time>2014-09-07T09:20:49Z</time>
      </trkpt>
      <trkpt lat="47.03425" lon="-1.63238">
        <ele>4.56</ele>
        <time>2014-09-07T09:20:53Z</time>
      </trkpt>
      <trkpt lat="47.03418" lon="-1.63209">
        <ele>3.11</ele>
        <time>2014-09-07T09:20:58Z</time>
      </trkpt>
      <trkpt lat="47.0341" lon="-1.63178">
        <ele>-0.13</ele>
        <time>2014-09-07T09:21:03Z</time>
      </trkpt>
      <trkpt lat="47.03402" lon="-1.63149">
        <ele>-0.8</ele>
        <time>2014-09-07T09:21:07Z</time>
      </trkpt>
      <trkpt lat="47.03396" lon="-1.63122">
        <ele>-0.96</ele>
        <time>2014-09-07T09:21:11Z</time>
      </trkpt>
      <trkpt lat="47.03388" lon="-1.63094">
        <ele>-0.04</ele>
        <time>2014-09-07T09:21:15Z</time>
      </trkpt>
      <trkpt lat="47.03383" lon="-1.63067">
        <ele>0.27</ele>
        <time>2014-09-07T09:21:19Z</time>
      </trkpt>
      <trkpt lat="47.03375" lon="-1.6304">
        <ele>0.98</ele>
        <time>2014-09-07T09:21:23Z</time>
      </trkpt>
      <trkpt lat="47.03366" lon="-1.6301">
        <ele>0.96</ele>
        <time>2014-09-07T09:21:27Z</time>
      </trkpt>
      <trkpt lat="47.03358" lon="-1.62979">
        <ele>1.02</ele>
        <time>2014-09-07T09:21:31Z</time>
      </trkpt>
      <trkpt lat="47.03351" lon="-1.62951">
        <ele>0.28</ele>
        <time>2014-09-07T09:21:35Z</time>
      </trkpt>
      <trkpt lat="47.03342" lon="-1.62921">
        <ele>1.35</ele>
        <time>2014-09-07T09:21:39Z</time>
      </trkpt>
      <trkpt lat="47.03336" lon="-1.62891">
        <ele>2.86</ele>
        <time>2014-09-07T09:21:43Z</time>
      </trkpt>
      <trkpt lat="47.03328" lon="-1.62861">
        <ele>2.45</ele>
        <time>2014-09-07T09:21:47Z</time>
      </trkpt>
      <trkpt lat="47.03321" lon="-1.62834">
        <ele>2.12</ele>
        <time>2014-09-07T09:21:51Z</time>
      </trkpt>
      <trkpt lat="47.03315" lon="-1.62809">
        <ele>2.78</ele>
        <time>2014-09-07T09:21:56Z</time>
      </trkpt>
      <trkpt lat="47.0331" lon="-1.62783">
        <ele>5.45</ele>
        <time>2014-09-07T09:22:04Z</time>
      </trkpt>
      <trkpt lat="47.03303" lon="-1.62754">
        <ele>5.04</ele>
        <time>2014-09-07T09:22:09Z</time>
      </trkpt>
      <trkpt lat="47.03295" lon="-1.62723">
        <ele>5.03</ele>
        <time>2014-09-07T09:22:14Z</time>
      </trkpt>
      <trkpt lat="47.03288" lon="-1.62692">
        <ele>5.03</ele>
        <time>2014-09-07T09:22:19Z</time>
      </trkpt>
      <trkpt lat="47.03281" lon="-1.62662">
        <ele>4.09</ele>
        <time>2014-09-07T09:22:24Z</time>
      </trkpt>
      <trkpt lat="47.03274" lon="-1.62637">
        <ele>3.9</ele>
        <time>2014-09-07T09:22:28Z</time>
      </trkpt>
      <trkpt lat="47.03266" lon="-1.62609">
        <ele>3.08</ele>
        <time>2014-09-07T09:22:32Z</time>
      </trkpt>
      <trkpt lat="47.03259" lon="-1.62582">
        <ele>3.53</ele>
        <time>2014-09-07T09:22:36Z</time>
      </trkpt>
      <trkpt lat="47.03251" lon="-1.62555">
        <ele>3.99</ele>
        <time>2014-09-07T09:22:40Z</time>
      </trkpt>
      <trkpt lat="47.03245" lon="-1.62528">
        <ele>3.18</ele>
        <time>2014-09-07T09:22:45Z</time>
      </trkpt>
      <trkpt lat="47.03238" lon="-1.62499">
        <ele>2.79</ele>
        <time>2014-09-07T09:22:49Z</time>
      </trkpt>
      <trkpt lat="47.03233" lon="-1.62471">
        <ele>3.07</ele>
        <time>2014-09-07T09:22:53Z</time>
      </trkpt>
      <trkpt lat="47.03221" lon="-1.62443">
        <ele>2.28</ele>
        <time>2014-09-07T09:22:57Z</time>
      </trkpt>
      <trkpt lat="47.03206" lon="-1.62418">
        <ele>2.98</ele>
        <time>2014-09-07T09:23:01Z</time>
      </trkpt>
      <trkpt lat="47.0319" lon="-1.62397">
        <ele>3.9</ele>
        <time>2014-09-07T09:23:05Z</time>
      </trkpt>
      <trkpt lat="47.03175" lon="-1.6238">
        <ele>4.02</ele>
        <time>2014-09-07T09:23:09Z</time>
      </trkpt>
      <trkpt lat="47.03158" lon="-1.62363">
        <ele>4.53</ele>
        <time>2014-09-07T09:23:13Z</time>
      </trkpt>
      <trkpt lat="47.03143" lon="-1.62349">
        <ele>4.12</ele>
        <time>2014-09-07T09:23:17Z</time>
      </trkpt>
      <trkpt lat="47.03125" lon="-1.62329">
        <ele>4.53</ele>
        <time>2014-09-07T09:23:22Z</time>
      </trkpt>
      <trkpt lat="47.03109" lon="-1.62311">
        <ele>5.95</ele>
        <time>2014-09-07T09:23:27Z</time>
      </trkpt>
      <trkpt lat="47.03109" lon="-1.6228">
        <ele>8.24</ele>
        <time>2014-09-07T09:23:33Z</time>
      </trkpt>
      <trkpt lat="47.03116" lon="-1.62252">
        <ele>10.5</ele>
        <time>2014-09-07T09:23:39Z</time>
      </trkpt>
      <trkpt lat="47.03123" lon="-1.62223">
        <ele>11.02</ele>
        <time>2014-09-07T09:23:46Z</time>
      </trkpt>
      <trkpt lat="47.03129" lon="-1.62195">
        <ele>9.34</ele>
        <time>2014-09-07T09:23:52Z</time>
      </trkpt>
      <trkpt lat="47.03132" lon="-1.62168">
        <ele>8.06</ele>
        <time>2014-09-07T09:23:58Z</time>
      </trkpt>
      <trkpt lat="47.03136" lon="-1.62138">
        <ele>7.15</ele>
        <time>2014-09-07T09:24:03Z</time>
      </trkpt>
      <trkpt lat="47.03145" lon="-1.62113">
        <ele>7.03</ele>
        <time>2014-09-07T09:24:07Z</time>
      </trkpt>
      <trkpt lat="47.03152" lon="-1.62087">
        <ele>7.03</ele>
        <time>2014-09-07T09:24:11Z</time>
      </trkpt>
      <trkpt lat="47.03157" lon="-1.62057">
        <ele>6.15</ele>
        <time>2014-09-07T09:24:16Z</time>
      </trkpt>
      <trkpt lat="47.03166" lon="-1.62032">
        <ele>7.22</ele>
        <time>2014-09-07T09:24:20Z</time>
      </trkpt>
      <trkpt lat="47.03172" lon="-1.62006">
        <ele>10.23</ele>
        <time>2014-09-07T09:24:24Z</time>
      </trkpt>
      <trkpt lat="47.03178" lon="-1.6198">
        <ele>11.98</ele>
        <time>2014-09-07T09:24:28Z</time>
      </trkpt>
      <trkpt lat="47.03165" lon="-1.6196">
        <ele>6.34</ele>
        <time>2014-09-07T09:24:32Z</time>
      </trkpt>
      <trkpt lat="47.03151" lon="-1.61941">
        <ele>7.23</ele>
        <time>2014-09-07T09:24:36Z</time>
      </trkpt>
      <trkpt lat="47.03135" lon="-1.61922">
        <ele>10.6</ele>
        <time>2014-09-07T09:24:40Z</time>
      </trkpt>
      <trkpt lat="47.03119" lon="-1.61906">
        <ele>11.31</ele>
        <time>2014-09-07T09:24:44Z</time>
      </trkpt>
      <trkpt lat="47.03104" lon="-1.61886">
        <ele>14.36</ele>
        <time>2014-09-07T09:24:48Z</time>
      </trkpt>
      <trkpt lat="47.03088" lon="-1.61868">
        <ele>14.98</ele>
        <time>2014-09-07T09:24:52Z</time>
      </trkpt>
      <trkpt lat="47.03073" lon="-1.61849">
        <ele>12.87</ele>
        <time>2014-09-07T09:24:57Z</time>
      </trkpt>
      <trkpt lat="47.03062" lon="-1.61821">
        <ele>14.43</ele>
        <time>2014-09-07T09:25:02Z</time>
      </trkpt>
      <trkpt lat="47.0305" lon="-1.61796">
        <ele>10.36</ele>
        <time>2014-09-07T09:25:06Z</time>
      </trkpt>
      <trkpt lat="47.03041" lon="-1.61767">
        <ele>9.16</ele>
        <time>2014-09-07T09:25:11Z</time>
      </trkpt>
      <trkpt lat="47.03035" lon="-1.61736">
        <ele>10.47</ele>
        <time>2014-09-07T09:25:16Z</time>
      </trkpt>
      <trkpt lat="47.03029" lon="-1.61709">
        <ele>12.24</ele>
        <time>2014-09-07T09:25:20Z</time>
      </trkpt>
      <trkpt lat="47.03016" lon="-1.61686">
        <ele>7.35</ele>
        <time>2014-09-07T09:25:24Z</time>
      </trkpt>
      <trkpt lat="47.03009" lon="-1.61661">
        <ele>6.86</ele>
        <time>2014-09-07T09:25:28Z</time>
      </trkpt>
      <trkpt lat="47.03002" lon="-1.6163">
        <ele>8.86</ele>
        <time>2014-09-07T09:25:33Z</time>
      </trkpt>
      <trkpt lat="47.02995" lon="-1.61604">
        <ele>9.33</ele>
        <time>2014-09-07T09:25:37Z</time>
      </trkpt>
      <trkpt lat="47.02989" lon="-1.61574">
        <ele>11.85</ele>
        <time>2014-09-07T09:25:42Z</time>
      </trkpt>
      <trkpt lat="47.02982" lon="-1.61549">
        <ele>11.83</ele>
        <time>2014-09-07T09:25:46Z</time>
      </trkpt>
      <trkpt lat="47.02975" lon="-1.61524">
        <ele>12.26</ele>
        <time>2014-09-07T09:25:50Z</time>
      </trkpt>
      <trkpt lat="47.02966" lon="-1.61499">
        <ele>12.1</ele>
        <time>2014-09-07T09:25:55Z</time>
      </trkpt>
      <trkpt lat="47.02971" lon="-1.61471">
        <ele>11.25</ele>
        <time>2014-09-07T09:26:06Z</time>
      </trkpt>
      <trkpt lat="47.02983" lon="-1.61451">
        <ele>11.06</ele>
        <time>2014-09-07T09:26:11Z</time>
      </trkpt>
      <trkpt lat="47.02994" lon="-1.61425">
        <ele>10.15</ele>
        <time>2014-09-07T09:26:16Z</time>
      </trkpt>
      <trkpt lat="47.03005" lon="-1.61397">
        <ele>11</ele>
        <time>2014-09-07T09:26:21Z</time>
      </trkpt>
      <trkpt lat="47.03016" lon="-1.61371">
        <ele>10.15</ele>
        <time>2014-09-07T09:26:26Z</time>
      </trkpt>
      <trkpt lat="47.03022" lon="-1.61344">
        <ele>9.15</ele>
        <time>2014-09-07T09:26:32Z</time>
      </trkpt>
      <trkpt lat="47.03004" lon="-1.6133">
        <ele>8.28</ele>
        <time>2014-09-07T09:26:37Z</time>
      </trkpt>
      <trkpt lat="47.02989" lon="-1.61309">
        <ele>8.03</ele>
        <time>2014-09-07T09:26:42Z</time>
      </trkpt>
      <trkpt lat="47.02974" lon="-1.61288">
        <ele>8.03</ele>
        <time>2014-09-07T09:26:46Z</time>
      </trkpt>
      <trkpt lat="47.02959" lon="-1.61268">
        <ele>8.03</ele>
        <time>2014-09-07T09:26:50Z</time>
      </trkpt>
      <trkpt lat="47.02941" lon="-1.61252">
        <ele>8.03</ele>
        <time>2014-09-07T09:26:54Z</time>
      </trkpt>
      <trkpt lat="47.02922" lon="-1.61238">
        <ele>8.9</ele>
        <time>2014-09-07T09:26:58Z</time>
      </trkpt>
      <trkpt lat="47.02902" lon="-1.61225">
        <ele>8.14</ele>
        <time>2014-09-07T09:27:02Z</time>
      </trkpt>
      <trkpt lat="47.02883" lon="-1.61212">
        <ele>8.03</ele>
        <time>2014-09-07T09:27:06Z</time>
      </trkpt>
      <trkpt lat="47.02865" lon="-1.61198">
        <ele>9.24</ele>
        <time>2014-09-07T09:27:12Z</time>
      </trkpt>
      <trkpt lat="47.02849" lon="-1.61182">
        <ele>10.01</ele>
        <time>2014-09-07T09:27:18Z</time>
      </trkpt>
      <trkpt lat="47.02831" lon="-1.61167">
        <ele>10.03</ele>
        <time>2014-09-07T09:27:24Z</time>
      </trkpt>
      <trkpt lat="47.02813" lon="-1.61159">
        <ele>10.03</ele>
        <time>2014-09-07T09:27:29Z</time>
      </trkpt>
      <trkpt lat="47.02793" lon="-1.6115">
        <ele>10.03</ele>
        <time>2014-09-07T09:27:34Z</time>
      </trkpt>
      <trkpt lat="47.02775" lon="-1.6114">
        <ele>9.99</ele>
        <time>2014-09-07T09:27:39Z</time>
      </trkpt>
      <trkpt lat="47.02759" lon="-1.61124">
        <ele>10.4</ele>
        <time>2014-09-07T09:27:45Z</time>
      </trkpt>
      <trkpt lat="47.02743" lon="-1.61111">
        <ele>10.04</ele>
        <time>2014-09-07T09:27:50Z</time>
      </trkpt>
      <trkpt lat="47.02723" lon="-1.61104">
        <ele>10.84</ele>
        <time>2014-09-07T09:27:55Z</time>
      </trkpt>
      <trkpt lat="47.02703" lon="-1.611">
        <ele>11.11</ele>
        <time>2014-09-07T09:28:00Z</time>
      </trkpt>
      <trkpt lat="47.02685" lon="-1.61094">
        <ele>12</ele>
        <time>2014-09-07T09:28:05Z</time>
      </trkpt>
      <trkpt lat="47.02665" lon="-1.61093">
        <ele>12.09</ele>
        <time>2014-09-07T09:28:11Z</time>
      </trkpt>
      <trkpt lat="47.02647" lon="-1.61093">
        <ele>14.37</ele>
        <time>2014-09-07T09:28:16Z</time>
      </trkpt>
      <trkpt lat="47.02626" lon="-1.61095">
        <ele>16.73</ele>
        <time>2014-09-07T09:28:22Z</time>
      </trkpt>
      <trkpt lat="47.02608" lon="-1.61097">
        <ele>17.96</ele>
        <time>2014-09-07T09:28:28Z</time>
      </trkpt>
      <trkpt lat="47.02603" lon="-1.6107">
        <ele>18.96</ele>
        <time>2014-09-07T09:28:35Z</time>
      </trkpt>
      <trkpt lat="47.02602" lon="-1.61043">
        <ele>20.26</ele>
        <time>2014-09-07T09:28:41Z</time>
      </trkpt>
      <trkpt lat="47.02601" lon="-1.61013">
        <ele>20.97</ele>
        <time>2014-09-07T09:28:47Z</time>
      </trkpt>
      <trkpt lat="47.02599" lon="-1.60982">
        <ele>21.9</ele>
        <time>2014-09-07T09:28:53Z</time>
      </trkpt>
      <trkpt lat="47.02583" lon="-1.60963">
        <ele>22.9</ele>
        <time>2014-09-07T09:28:59Z</time>
      </trkpt>
      <trkpt lat="47.02565" lon="-1.60948">
        <ele>23.96</ele>
        <time>2014-09-07T09:29:06Z</time>
      </trkpt>
      <trkpt lat="47.02545" lon="-1.60943">
        <ele>22.55</ele>
        <time>2014-09-07T09:29:13Z</time>
      </trkpt>
      <trkpt lat="47.02524" lon="-1.6094">
        <ele>22.03</ele>
        <time>2014-09-07T09:29:19Z</time>
      </trkpt>
      <trkpt lat="47.02506" lon="-1.60937">
        <ele>21.53</ele>
        <time>2014-09-07T09:29:24Z</time>
      </trkpt>
      <trkpt lat="47.02486" lon="-1.6094">
        <ele>21.05</ele>
        <time>2014-09-07T09:29:30Z</time>
      </trkpt>
      <trkpt lat="47.02467" lon="-1.60945">
        <ele>21.03</ele>
        <time>2014-09-07T09:29:35Z</time>
      </trkpt>
      <trkpt lat="47.02447" lon="-1.60954">
        <ele>20.06</ele>
        <time>2014-09-07T09:29:40Z</time>
      </trkpt>
      <trkpt lat="47.02431" lon="-1.60972">
        <ele>20.03</ele>
        <time>2014-09-07T09:29:45Z</time>
      </trkpt>
      <trkpt lat="47.02419" lon="-1.60991">
        <ele>19.96</ele>
        <time>2014-09-07T09:29:50Z</time>
      </trkpt>
      <trkpt lat="47.02405" lon="-1.61013">
        <ele>19.59</ele>
        <time>2014-09-07T09:29:55Z</time>
      </trkpt>
      <trkpt lat="47.02391" lon="-1.61036">
        <ele>20.01</ele>
        <time>2014-09-07T09:30:00Z</time>
      </trkpt>
      <trkpt lat="47.02378" lon="-1.61056">
        <ele>19.31</ele>
        <time>2014-09-07T09:30:05Z</time>
      </trkpt>
      <trkpt lat="47.02364" lon="-1.61079">
        <ele>19.08</ele>
        <time>2014-09-07T09:30:11Z</time>
      </trkpt>
      <trkpt lat="47.02353" lon="-1.611">
        <ele>19.03</ele>
        <time>2014-09-07T09:30:18Z</time>
      </trkpt>
      <trkpt lat="47.0234" lon="-1.6112">
        <ele>18.78</ele>
        <time>2014-09-07T09:30:22Z</time>
      </trkpt>
      <trkpt lat="47.02323" lon="-1.61135">
        <ele>19.01</ele>
        <time>2014-09-07T09:30:26Z</time>
      </trkpt>
      <trkpt lat="47.02305" lon="-1.6114">
        <ele>19.03</ele>
        <time>2014-09-07T09:30:30Z</time>
      </trkpt>
      <trkpt lat="47.02286" lon="-1.61146">
        <ele>19.46</ele>
        <time>2014-09-07T09:30:34Z</time>
      </trkpt>
      <trkpt lat="47.02267" lon="-1.61158">
        <ele>17.8</ele>
        <time>2014-09-07T09:30:38Z</time>
      </trkpt>
      <trkpt lat="47.0225" lon="-1.61175">
        <ele>17.14</ele>
        <time>2014-09-07T09:30:42Z</time>
      </trkpt>
      <trkpt lat="47.02233" lon="-1.61192">
        <ele>16.16</ele>
        <time>2014-09-07T09:30:46Z</time>
      </trkpt>
      <trkpt lat="47.02212" lon="-1.61193">
        <ele>16.97</ele>
        <time>2014-09-07T09:30:50Z</time>
      </trkpt>
      <trkpt lat="47.02191" lon="-1.61185">
        <ele>17.96</ele>
        <time>2014-09-07T09:30:54Z</time>
      </trkpt>
      <trkpt lat="47.02172" lon="-1.61178">
        <ele>16.65</ele>
        <time>2014-09-07T09:30:58Z</time>
      </trkpt>
      <trkpt lat="47.02152" lon="-1.61182">
        <ele>16.81</ele>
        <time>2014-09-07T09:31:02Z</time>
      </trkpt>
      <trkpt lat="47.0213" lon="-1.61191">
        <ele>16.58</ele>
        <time>2014-09-07T09:31:06Z</time>
      </trkpt>
      <trkpt lat="47.0211" lon="-1.61198">
        <ele>16.81</ele>
        <time>2014-09-07T09:31:10Z</time>
      </trkpt>
      <trkpt lat="47.02091" lon="-1.61205">
        <ele>17.95</ele>
        <time>2014-09-07T09:31:14Z</time>
      </trkpt>
      <trkpt lat="47.02071" lon="-1.61209">
        <ele>17.77</ele>
        <time>2014-09-07T09:31:18Z</time>
      </trkpt>
      <trkpt lat="47.0205" lon="-1.61208">
        <ele>18.01</ele>
        <time>2014-09-07T09:31:22Z</time>
      </trkpt>
      <trkpt lat="47.02028" lon="-1.61205">
        <ele>18.03</ele>
        <time>2014-09-07T09:31:26Z</time>
      </trkpt>
      <trkpt lat="47.02004" lon="-1.61207">
        <ele>18.03</ele>
        <time>2014-09-07T09:31:30Z</time>
      </trkpt>
      <trkpt lat="47.01985" lon="-1.61218">
        <ele>18.96</ele>
        <time>2014-09-07T09:31:34Z</time>
      </trkpt>
      <trkpt lat="47.01969" lon="-1.61232">
        <ele>19.02</ele>
        <time>2014-09-07T09:31:37Z</time>
      </trkpt>
      <trkpt lat="47.01952" lon="-1.61251">
        <ele>19.03</ele>
        <time>2014-09-07T09:31:41Z</time>
      </trkpt>
      <trkpt lat="47.01936" lon="-1.61271">
        <ele>19.78</ele>
        <time>2014-09-07T09:31:45Z</time>
      </trkpt>
      <trkpt lat="47.0192" lon="-1.61293">
        <ele>20.01</ele>
        <time>2014-09-07T09:31:49Z</time>
      </trkpt>
      <trkpt lat="47.01904" lon="-1.61314">
        <ele>20.84</ele>
        <time>2014-09-07T09:31:53Z</time>
      </trkpt>
      <trkpt lat="47.01887" lon="-1.61332">
        <ele>21.01</ele>
        <time>2014-09-07T09:31:57Z</time>
      </trkpt>
      <trkpt lat="47.01869" lon="-1.61348">
        <ele>21.03</ele>
        <time>2014-09-07T09:32:01Z</time>
      </trkpt>
      <trkpt lat="47.01851" lon="-1.61363">
        <ele>21.03</ele>
        <time>2014-09-07T09:32:05Z</time>
      </trkpt>
      <trkpt lat="47.01831" lon="-1.61379">
        <ele>21.96</ele>
        <time>2014-09-07T09:32:09Z</time>
      </trkpt>
      <trkpt lat="47.01813" lon="-1.61391">
        <ele>22.02</ele>
        <time>2014-09-07T09:32:13Z</time>
      </trkpt>
      <trkpt lat="47.01795" lon="-1.61404">
        <ele>22.59</ele>
        <time>2014-09-07T09:32:17Z</time>
      </trkpt>
      <trkpt lat="47.01778" lon="-1.61409">
        <ele>23</ele>
        <time>2014-09-07T09:32:21Z</time>
      </trkpt>
      <trkpt lat="47.01758" lon="-1.61418">
        <ele>22.15</ele>
        <time>2014-09-07T09:32:26Z</time>
      </trkpt>
      <trkpt lat="47.01738" lon="-1.61427">
        <ele>23.87</ele>
        <time>2014-09-07T09:32:31Z</time>
      </trkpt>
      <trkpt lat="47.01724" lon="-1.61448">
        <ele>24.49</ele>
        <time>2014-09-07T09:32:36Z</time>
      </trkpt>
      <trkpt lat="47.0172" lon="-1.61477">
        <ele>24.04</ele>
        <time>2014-09-07T09:32:41Z</time>
      </trkpt>
      <trkpt lat="47.01714" lon="-1.61502">
        <ele>24.37</ele>
        <time>2014-09-07T09:32:46Z</time>
      </trkpt>
      <trkpt lat="47.01696" lon="-1.61496">
        <ele>24.9</ele>
        <time>2014-09-07T09:34:36Z</time>
      </trkpt>
      <trkpt lat="47.01678" lon="-1.61484">
        <ele>25.15</ele>
        <time>2014-09-07T09:34:42Z</time>
      </trkpt>
      <trkpt lat="47.01659" lon="-1.61474">
        <ele>25.04</ele>
        <time>2014-09-07T09:34:48Z</time>
      </trkpt>
      <trkpt lat="47.01641" lon="-1.61457">
        <ele>27.34</ele>
        <time>2014-09-07T09:34:54Z</time>
      </trkpt>
      <trkpt lat="47.01627" lon="-1.61438">
        <ele>28</ele>
        <time>2014-09-07T09:34:59Z</time>
      </trkpt>
      <trkpt lat="47.01616" lon="-1.61416">
        <ele>28.78</ele>
        <time>2014-09-07T09:35:04Z</time>
      </trkpt>
      <trkpt lat="47.01606" lon="-1.61393">
        <ele>29.99</ele>
        <time>2014-09-07T09:35:09Z</time>
      </trkpt>
      <trkpt lat="47.01595" lon="-1.6137">
        <ele>30.96</ele>
        <time>2014-09-07T09:35:14Z</time>
      </trkpt>
      <trkpt lat="47.0158" lon="-1.61346">
        <ele>31.02</ele>
        <time>2014-09-07T09:35:19Z</time>
      </trkpt>
      <trkpt lat="47.01564" lon="-1.61327">
        <ele>31.03</ele>
        <time>2014-09-07T09:35:23Z</time>
      </trkpt>
      <trkpt lat="47.0155" lon="-1.6131">
        <ele>30.53</ele>
        <time>2014-09-07T09:35:27Z</time>
      </trkpt>
      <trkpt lat="47.01536" lon="-1.61293">
        <ele>30.56</ele>
        <time>2014-09-07T09:35:31Z</time>
      </trkpt>
      <trkpt lat="47.0152" lon="-1.6127">
        <ele>31.01</ele>
        <time>2014-09-07T09:35:36Z</time>
      </trkpt>
      <trkpt lat="47.01503" lon="-1.61249">
        <ele>31.03</ele>
        <time>2014-09-07T09:35:41Z</time>
      </trkpt>
      <trkpt lat="47.01486" lon="-1.61228">
        <ele>31.03</ele>
        <time>2014-09-07T09:35:46Z</time>
      </trkpt>
      <trkpt lat="47.01471" lon="-1.61213">
        <ele>31.78</ele>
        <time>2014-09-07T09:35:51Z</time>
      </trkpt>
      <trkpt lat="47.01454" lon="-1.61194">
        <ele>32.52</ele>
        <time>2014-09-07T09:35:57Z</time>
      </trkpt>
      <trkpt lat="47.01439" lon="-1.61173">
        <ele>32.23</ele>
        <time>2014-09-07T09:36:02Z</time>
      </trkpt>
      <trkpt lat="47.01425" lon="-1.61153">
        <ele>32.29</ele>
        <time>2014-09-07T09:36:06Z</time>
      </trkpt>
      <trkpt lat="47.01412" lon="-1.61132">
        <ele>32.85</ele>
        <time>2014-09-07T09:36:10Z</time>
      </trkpt>
      <trkpt lat="47.014" lon="-1.61111">
        <ele>32.14</ele>
        <time>2014-09-07T09:36:14Z</time>
      </trkpt>
      <trkpt lat="47.01386" lon="-1.61084">
        <ele>33</ele>
        <time>2014-09-07T09:36:19Z</time>
      </trkpt>
      <trkpt lat="47.01373" lon="-1.61065">
        <ele>33.02</ele>
        <time>2014-09-07T09:36:23Z</time>
      </trkpt>
      <trkpt lat="47.01356" lon="-1.61049">
        <ele>33.78</ele>
        <time>2014-09-07T09:36:27Z</time>
      </trkpt>
      <trkpt lat="47.0134" lon="-1.61037">
        <ele>33.51</ele>
        <time>2014-09-07T09:36:31Z</time>
      </trkpt>
      <trkpt lat="47.01323" lon="-1.61027">
        <ele>33.99</ele>
        <time>2014-09-07T09:36:35Z</time>
      </trkpt>
      <trkpt lat="47.01305" lon="-1.61019">
        <ele>34.77</ele>
        <time>2014-09-07T09:36:39Z</time>
      </trkpt>
      <trkpt lat="47.01284" lon="-1.61015">
        <ele>35.02</ele>
        <time>2014-09-07T09:36:44Z</time>
      </trkpt>
      <trkpt lat="47.01262" lon="-1.6101">
        <ele>35.9</ele>
        <time>2014-09-07T09:36:49Z</time>
      </trkpt>
      <trkpt lat="47.01244" lon="-1.61005">
        <ele>36.21</ele>
        <time>2014-09-07T09:36:53Z</time>
      </trkpt>
      <trkpt lat="47.01223" lon="-1.60997">
        <ele>35.29</ele>
        <time>2014-09-07T09:36:57Z</time>
      </trkpt>
      <trkpt lat="47.01201" lon="-1.60985">
        <ele>34.54</ele>
        <time>2014-09-07T09:37:01Z</time>
      </trkpt>
      <trkpt lat="47.01184" lon="-1.60973">
        <ele>34.22</ele>
        <time>2014-09-07T09:37:04Z</time>
      </trkpt>
      <trkpt lat="47.01166" lon="-1.6097">
        <ele>34.04</ele>
        <time>2014-09-07T09:37:08Z</time>
      </trkpt>
      <trkpt lat="47.01154" lon="-1.60946">
        <ele>34.53</ele>
        <time>2014-09-07T09:37:13Z</time>
      </trkpt>
      <trkpt lat="47.01144" lon="-1.60922">
        <ele>34.12</ele>
        <time>2014-09-07T09:37:17Z</time>
      </trkpt>
      <trkpt lat="47.01135" lon="-1.60894">
        <ele>34.03</ele>
        <time>2014-09-07T09:37:21Z</time>
      </trkpt>
      <trkpt lat="47.01125" lon="-1.60867">
        <ele>33.28</ele>
        <time>2014-09-07T09:37:25Z</time>
      </trkpt>
      <trkpt lat="47.01112" lon="-1.60837">
        <ele>32.1</ele>
        <time>2014-09-07T09:37:29Z</time>
      </trkpt>
      <trkpt lat="47.01099" lon="-1.60807">
        <ele>30.34</ele>
        <time>2014-09-07T09:37:33Z</time>
      </trkpt>
      <trkpt lat="47.0109" lon="-1.60782">
        <ele>29.57</ele>
        <time>2014-09-07T09:37:36Z</time>
      </trkpt>
      <trkpt lat="47.01082" lon="-1.60756">
        <ele>28.59</ele>
        <time>2014-09-07T09:37:39Z</time>
      </trkpt>
      <trkpt lat="47.01075" lon="-1.60729">
        <ele>29.1</ele>
        <time>2014-09-07T09:37:42Z</time>
      </trkpt>
      <trkpt lat="47.0107" lon="-1.60702">
        <ele>29.53</ele>
        <time>2014-09-07T09:37:45Z</time>
      </trkpt>
      <trkpt lat="47.01063" lon="-1.60675">
        <ele>29.09</ele>
        <time>2014-09-07T09:37:48Z</time>
      </trkpt>
      <trkpt lat="47.01057" lon="-1.60648">
        <ele>29.03</ele>
        <time>2014-09-07T09:37:51Z</time>
      </trkpt>
      <trkpt lat="47.0105" lon="-1.60622">
        <ele>29.15</ele>
        <time>2014-09-07T09:37:54Z</time>
      </trkpt>
      <trkpt lat="47.01042" lon="-1.60596">
        <ele>29.04</ele>
        <time>2014-09-07T09:37:57Z</time>
      </trkpt>
      <trkpt lat="47.01032" lon="-1.6057">
        <ele>28.15</ele>
        <time>2014-09-07T09:38:00Z</time>
      </trkpt>
      <trkpt lat="47.01023" lon="-1.60546">
        <ele>28.04</ele>
        <time>2014-09-07T09:38:03Z</time>
      </trkpt>
      <trkpt lat="47.01015" lon="-1.60522">
        <ele>28.03</ele>
        <time>2014-09-07T09:38:06Z</time>
      </trkpt>
      <trkpt lat="47.01008" lon="-1.60496">
        <ele>28.03</ele>
        <time>2014-09-07T09:38:09Z</time>
      </trkpt>
      <trkpt lat="47.01005" lon="-1.60464">
        <ele>28.03</ele>
        <time>2014-09-07T09:38:13Z</time>
      </trkpt>
      <trkpt lat="47.00996" lon="-1.6044">
        <ele>26.59</ele>
        <time>2014-09-07T09:38:17Z</time>
      </trkpt>
      <trkpt lat="47.00975" lon="-1.60432">
        <ele>26.06</ele>
        <time>2014-09-07T09:38:21Z</time>
      </trkpt>
      <trkpt lat="47.00959" lon="-1.60422">
        <ele>26.03</ele>
        <time>2014-09-07T09:38:24Z</time>
      </trkpt>
      <trkpt lat="47.00942" lon="-1.6041">
        <ele>25.53</ele>
        <time>2014-09-07T09:38:27Z</time>
      </trkpt>
      <trkpt lat="47.00925" lon="-1.60396">
        <ele>25.96</ele>
        <time>2014-09-07T09:38:30Z</time>
      </trkpt>
      <trkpt lat="47.00908" lon="-1.60383">
        <ele>26.02</ele>
        <time>2014-09-07T09:38:33Z</time>
      </trkpt>
      <trkpt lat="47.0089" lon="-1.6037">
        <ele>25.53</ele>
        <time>2014-09-07T09:38:36Z</time>
      </trkpt>
      <trkpt lat="47.00872" lon="-1.60358">
        <ele>25.09</ele>
        <time>2014-09-07T09:38:39Z</time>
      </trkpt>
      <trkpt lat="47.00854" lon="-1.60344">
        <ele>25.03</ele>
        <time>2014-09-07T09:38:42Z</time>
      </trkpt>
      <trkpt lat="47.00837" lon="-1.60329">
        <ele>24.53</ele>
        <time>2014-09-07T09:38:45Z</time>
      </trkpt>
      <trkpt lat="47.00819" lon="-1.60314">
        <ele>24.09</ele>
        <time>2014-09-07T09:38:48Z</time>
      </trkpt>
      <trkpt lat="47.00799" lon="-1.60301">
        <ele>24.03</ele>
        <time>2014-09-07T09:38:51Z</time>
      </trkpt>
      <trkpt lat="47.00781" lon="-1.60287">
        <ele>23.15</ele>
        <time>2014-09-07T09:38:54Z</time>
      </trkpt>
      <trkpt lat="47.00764" lon="-1.60272">
        <ele>22.29</ele>
        <time>2014-09-07T09:38:57Z</time>
      </trkpt>
      <trkpt lat="47.00747" lon="-1.60254">
        <ele>22.93</ele>
        <time>2014-09-07T09:39:00Z</time>
      </trkpt>
      <trkpt lat="47.00727" lon="-1.6024">
        <ele>22.14</ele>
        <time>2014-09-07T09:39:03Z</time>
      </trkpt>
      <trkpt lat="47.00706" lon="-1.60227">
        <ele>21.17</ele>
        <time>2014-09-07T09:39:06Z</time>
      </trkpt>
      <trkpt lat="47.00683" lon="-1.60213">
        <ele>20.67</ele>
        <time>2014-09-07T09:39:09Z</time>
      </trkpt>
      <trkpt lat="47.00662" lon="-1.60197">
        <ele>20.11</ele>
        <time>2014-09-07T09:39:12Z</time>
      </trkpt>
      <trkpt lat="47.00641" lon="-1.60175">
        <ele>19.79</ele>
        <time>2014-09-07T09:39:15Z</time>
      </trkpt>
      <trkpt lat="47.00624" lon="-1.60153">
        <ele>19.25</ele>
        <time>2014-09-07T09:39:18Z</time>
      </trkpt>
      <trkpt lat="47.0061" lon="-1.60128">
        <ele>19.05</ele>
        <time>2014-09-07T09:39:21Z</time>
      </trkpt>
      <trkpt lat="47.00599" lon="-1.60104">
        <ele>18.15</ele>
        <time>2014-09-07T09:39:24Z</time>
      </trkpt>
      <trkpt lat="47.00587" lon="-1.60079">
        <ele>18.79</ele>
        <time>2014-09-07T09:39:27Z</time>
      </trkpt>
      <trkpt lat="47.00574" lon="-1.60054">
        <ele>18.62</ele>
        <time>2014-09-07T09:39:30Z</time>
      </trkpt>
      <trkpt lat="47.00562" lon="-1.6003">
        <ele>18.23</ele>
        <time>2014-09-07T09:39:33Z</time>
      </trkpt>
      <trkpt lat="47.0055" lon="-1.60007">
        <ele>18.18</ele>
        <time>2014-09-07T09:39:36Z</time>
      </trkpt>
      <trkpt lat="47.00538" lon="-1.59984">
        <ele>18.92</ele>
        <time>2014-09-07T09:39:39Z</time>
      </trkpt>
      <trkpt lat="47.00526" lon="-1.59955">
        <ele>19.02</ele>
        <time>2014-09-07T09:39:43Z</time>
      </trkpt>
      <trkpt lat="47.00515" lon="-1.59934">
        <ele>19.9</ele>
        <time>2014-09-07T09:39:46Z</time>
      </trkpt>
      <trkpt lat="47.00501" lon="-1.59906">
        <ele>20.02</ele>
        <time>2014-09-07T09:39:50Z</time>
      </trkpt>
      <trkpt lat="47.00488" lon="-1.59879">
        <ele>20.03</ele>
        <time>2014-09-07T09:39:54Z</time>
      </trkpt>
      <trkpt lat="47.00475" lon="-1.59852">
        <ele>20.28</ele>
        <time>2014-09-07T09:39:58Z</time>
      </trkpt>
      <trkpt lat="47.00462" lon="-1.59827">
        <ele>20.54</ele>
        <time>2014-09-07T09:40:02Z</time>
      </trkpt>
      <trkpt lat="47.0045" lon="-1.59801">
        <ele>21.75</ele>
        <time>2014-09-07T09:40:06Z</time>
      </trkpt>
      <trkpt lat="47.00438" lon="-1.59776">
        <ele>22.76</ele>
        <time>2014-09-07T09:40:10Z</time>
      </trkpt>
      <trkpt lat="47.00427" lon="-1.59753">
        <ele>23.01</ele>
        <time>2014-09-07T09:40:14Z</time>
      </trkpt>
      <trkpt lat="47.00413" lon="-1.59732">
        <ele>23.77</ele>
        <time>2014-09-07T09:40:18Z</time>
      </trkpt>
      <trkpt lat="47.00394" lon="-1.59717">
        <ele>24.51</ele>
        <time>2014-09-07T09:40:22Z</time>
      </trkpt>
      <trkpt lat="47.00374" lon="-1.5971">
        <ele>24.24</ele>
        <time>2014-09-07T09:40:26Z</time>
      </trkpt>
      <trkpt lat="47.00355" lon="-1.59711">
        <ele>24.85</ele>
        <time>2014-09-07T09:40:30Z</time>
      </trkpt>
      <trkpt lat="47.00336" lon="-1.59714">
        <ele>25.52</ele>
        <time>2014-09-07T09:40:34Z</time>
      </trkpt>
      <trkpt lat="47.00316" lon="-1.59717">
        <ele>26.74</ele>
        <time>2014-09-07T09:40:38Z</time>
      </trkpt>
      <trkpt lat="47.00297" lon="-1.59721">
        <ele>27.01</ele>
        <time>2014-09-07T09:40:42Z</time>
      </trkpt>
      <trkpt lat="47.00278" lon="-1.59721">
        <ele>26.77</ele>
        <time>2014-09-07T09:40:46Z</time>
      </trkpt>
      <trkpt lat="47.00258" lon="-1.59718">
        <ele>26.14</ele>
        <time>2014-09-07T09:40:50Z</time>
      </trkpt>
      <trkpt lat="47.00239" lon="-1.5971">
        <ele>26.03</ele>
        <time>2014-09-07T09:40:54Z</time>
      </trkpt>
      <trkpt lat="47.00221" lon="-1.59701">
        <ele>26.03</ele>
        <time>2014-09-07T09:40:58Z</time>
      </trkpt>
      <trkpt lat="47.00204" lon="-1.5969">
        <ele>26.15</ele>
        <time>2014-09-07T09:41:02Z</time>
      </trkpt>
      <trkpt lat="47.00184" lon="-1.59676">
        <ele>26.97</ele>
        <time>2014-09-07T09:41:07Z</time>
      </trkpt>
      <trkpt lat="47.00165" lon="-1.59665">
        <ele>27.52</ele>
        <time>2014-09-07T09:41:12Z</time>
      </trkpt>
      <trkpt lat="47.00146" lon="-1.59652">
        <ele>28.01</ele>
        <time>2014-09-07T09:41:17Z</time>
      </trkpt>
      <trkpt lat="47.00127" lon="-1.5964">
        <ele>28.03</ele>
        <time>2014-09-07T09:41:22Z</time>
      </trkpt>
      <trkpt lat="47.00107" lon="-1.59627">
        <ele>28.96</ele>
        <time>2014-09-07T09:41:27Z</time>
      </trkpt>
      <trkpt lat="47.00089" lon="-1.59617">
        <ele>29.02</ele>
        <time>2014-09-07T09:41:31Z</time>
      </trkpt>
      <trkpt lat="47.00073" lon="-1.59604">
        <ele>29.03</ele>
        <time>2014-09-07T09:41:35Z</time>
      </trkpt>
      <trkpt lat="47.00054" lon="-1.59593">
        <ele>29.71</ele>
        <time>2014-09-07T09:41:39Z</time>
      </trkpt>
      <trkpt lat="47.00036" lon="-1.59582">
        <ele>29.32</ele>
        <time>2014-09-07T09:41:43Z</time>
      </trkpt>
      <trkpt lat="47.00017" lon="-1.59571">
        <ele>29.04</ele>
        <time>2014-09-07T09:41:47Z</time>
      </trkpt>
      <trkpt lat="46.99996" lon="-1.59562">
        <ele>28.15</ele>
        <time>2014-09-07T09:41:51Z</time>
      </trkpt>
      <trkpt lat="46.99972" lon="-1.59556">
        <ele>27.28</ele>
        <time>2014-09-07T09:41:55Z</time>
      </trkpt>
      <trkpt lat="46.99954" lon="-1.59553">
        <ele>27.06</ele>
        <time>2014-09-07T09:41:58Z</time>
      </trkpt>
      <trkpt lat="46.99931" lon="-1.59549">
        <ele>26.9</ele>
        <time>2014-09-07T09:42:02Z</time>
      </trkpt>
      <trkpt lat="46.99908" lon="-1.59546">
        <ele>27.02</ele>
        <time>2014-09-07T09:42:06Z</time>
      </trkpt>
      <trkpt lat="46.99889" lon="-1.59544">
        <ele>26.15</ele>
        <time>2014-09-07T09:42:09Z</time>
      </trkpt>
      <trkpt lat="46.99868" lon="-1.5954">
        <ele>25.16</ele>
        <time>2014-09-07T09:42:13Z</time>
      </trkpt>
      <trkpt lat="46.99846" lon="-1.59539">
        <ele>25.53</ele>
        <time>2014-09-07T09:42:17Z</time>
      </trkpt>
      <trkpt lat="46.99824" lon="-1.59538">
        <ele>26</ele>
        <time>2014-09-07T09:42:21Z</time>
      </trkpt>
      <trkpt lat="46.99803" lon="-1.59541">
        <ele>26.46</ele>
        <time>2014-09-07T09:42:25Z</time>
      </trkpt>
      <trkpt lat="46.99783" lon="-1.59542">
        <ele>27.74</ele>
        <time>2014-09-07T09:42:29Z</time>
      </trkpt>
      <trkpt lat="46.99764" lon="-1.59545">
        <ele>28.51</ele>
        <time>2014-09-07T09:42:33Z</time>
      </trkpt>
      <trkpt lat="46.99742" lon="-1.59548">
        <ele>28.99</ele>
        <time>2014-09-07T09:42:37Z</time>
      </trkpt>
      <trkpt lat="46.99721" lon="-1.5955">
        <ele>29.9</ele>
        <time>2014-09-07T09:42:41Z</time>
      </trkpt>
      <trkpt lat="46.997" lon="-1.59553">
        <ele>30.14</ele>
        <time>2014-09-07T09:42:45Z</time>
      </trkpt>
      <trkpt lat="46.9968" lon="-1.59555">
        <ele>29.1</ele>
        <time>2014-09-07T09:42:49Z</time>
      </trkpt>
      <trkpt lat="46.99659" lon="-1.59557">
        <ele>28.66</ele>
        <time>2014-09-07T09:42:53Z</time>
      </trkpt>
      <trkpt lat="46.99639" lon="-1.5956">
        <ele>29.75</ele>
        <time>2014-09-07T09:42:57Z</time>
      </trkpt>
      <trkpt lat="46.99618" lon="-1.59561">
        <ele>30.13</ele>
        <time>2014-09-07T09:43:01Z</time>
      </trkpt>
      <trkpt lat="46.99598" lon="-1.59561">
        <ele>29.28</ele>
        <time>2014-09-07T09:43:05Z</time>
      </trkpt>
      <trkpt lat="46.99578" lon="-1.59565">
        <ele>29.04</ele>
        <time>2014-09-07T09:43:09Z</time>
      </trkpt>
      <trkpt lat="46.99559" lon="-1.59569">
        <ele>29.09</ele>
        <time>2014-09-07T09:43:13Z</time>
      </trkpt>
      <trkpt lat="46.99541" lon="-1.59577">
        <ele>28.9</ele>
        <time>2014-09-07T09:43:17Z</time>
      </trkpt>
      <trkpt lat="46.99522" lon="-1.59585">
        <ele>29.08</ele>
        <time>2014-09-07T09:43:21Z</time>
      </trkpt>
      <trkpt lat="46.99508" lon="-1.59609">
        <ele>30</ele>
        <time>2014-09-07T09:43:26Z</time>
      </trkpt>
      <trkpt lat="46.99509" lon="-1.59637">
        <ele>30.03</ele>
        <time>2014-09-07T09:43:32Z</time>
      </trkpt>
      <trkpt lat="46.99523" lon="-1.59658">
        <ele>30.53</ele>
        <time>2014-09-07T09:43:40Z</time>
      </trkpt>
      <trkpt lat="46.99511" lon="-1.59682">
        <ele>30.47</ele>
        <time>2014-09-07T09:43:46Z</time>
      </trkpt>
      <trkpt lat="46.99496" lon="-1.59698">
        <ele>30.79</ele>
        <time>2014-09-07T09:43:51Z</time>
      </trkpt>
      <trkpt lat="46.99477" lon="-1.59708">
        <ele>29.18</ele>
        <time>2014-09-07T09:43:57Z</time>
      </trkpt>
      <trkpt lat="46.99459" lon="-1.59714">
        <ele>30.59</ele>
        <time>2014-09-07T09:44:08Z</time>
      </trkpt>
    </trkseg>
  </trk>
</gpx>